PWSweather.com
Personal Weather Stations
Station Observations
KMNHANSK2
Andys Live Weather Stations, Hanska, MN 56041

Andys Live Weather StationsHanska, MN 56041

Lat: 44.170119, Lon: -94.381619

Elevation: 1004

Station Type: Davis Instruments Vantage Pro2 Plus

http://www.madeliasliveweather.com/thompsonfarms/

High Low Average
Temperature 33.5°F0.8°F 22.8°F-5.1°F 27.7°F-2.4°F
Dew Point 19.5°F-6.9°F 14.7°F-9.6°F 16.8°F-8.4°F
Winds 4.0 mph ESE6.4 mph ESE Calm Calm 1.6 mph 2.6 mph
Wind Gusts 4.0 mph6.4 mph 1.0 mph1.6 mph 2.8 mph4.5 mph
Humidity 75% 54% 63%
Pressure 30.53 in1033.90 in 30.51 in1033.20 in -
Precipitation 0.00 in0.00 in - -
Hour Temp Dew Point Humidity Winds Wind Gusts Pressure Precip Precip Rate Daily Precip Total
12:00 AM 33.0°F0.6°C 22.5°F-5.3°C 65% 12.0 mph NNW19.3 kmh NNW 29.0 mph46.7 kmh 30.41 in1029.8 mb 0.00 in0.0 mm 0.00 in/hr0.0 mm/hr 0.00 in0.0 mm
12:07 AM 32.8°F0.4°C 22.3°F-5.4°C 65% 20.0 mph NNW32.2 kmh NNW 25.0 mph40.2 kmh 30.42 in1030.1 mb 0.00 in0.0 mm 0.00 in/hr0.0 mm/hr 0.00 in0.0 mm
12:08 AM 32.8°F0.4°C 22.3°F-5.4°C 65% 18.0 mph NNW29.0 kmh NNW 25.0 mph40.2 kmh 30.42 in1030.1 mb 0.00 in0.0 mm 0.00 in/hr0.0 mm/hr 0.00 in0.0 mm
12:09 AM 32.8°F0.4°C 22.3°F-5.4°C 65% 17.0 mph NNW27.4 kmh NNW 25.0 mph40.2 kmh 30.42 in1030.1 mb 0.00 in0.0 mm 0.00 in/hr0.0 mm/hr 0.00 in0.0 mm
12:10 AM 32.8°F0.4°C 22.3°F-5.4°C 65% 19.0 mph NNW30.6 kmh NNW 25.0 mph40.2 kmh 30.42 in1030.1 mb 0.00 in0.0 mm 0.00 in/hr0.0 mm/hr 0.00 in0.0 mm
12:11 AM 32.7°F0.4°C 22.3°F-5.4°C 65% 20.0 mph NW32.2 kmh NW 25.0 mph40.2 kmh 30.42 in1030.1 mb 0.00 in0.0 mm 0.00 in/hr0.0 mm/hr 0.00 in0.0 mm
12:12 AM 32.8°F0.4°C 22.3°F-5.4°C 65% 22.0 mph NNW35.4 kmh NNW 25.0 mph40.2 kmh 30.42 in1030.1 mb 0.00 in0.0 mm 0.00 in/hr0.0 mm/hr 0.00 in0.0 mm
12:13 AM 32.8°F0.4°C 22.3°F-5.4°C 65% 17.0 mph NNW27.4 kmh NNW 25.0 mph40.2 kmh 30.42 in1030.1 mb 0.00 in0.0 mm 0.00 in/hr0.0 mm/hr 0.00 in0.0 mm
12:14 AM 32.7°F0.4°C 22.3°F-5.4°C 65% 16.0 mph NNW25.7 kmh NNW 25.0 mph40.2 kmh 30.42 in1030.1 mb 0.00 in0.0 mm 0.00 in/hr0.0 mm/hr 0.00 in0.0 mm
12:15 AM 32.7°F0.4°C 22.3°F-5.4°C 65% 20.0 mph NW32.2 kmh NW 25.0 mph40.2 kmh 30.42 in1030.1 mb 0.00 in0.0 mm 0.00 in/hr0.0 mm/hr 0.00 in0.0 mm
12:16 AM 32.6°F0.3°C 22.2°F-5.4°C 65% 23.0 mph NW37.0 kmh NW 25.0 mph40.2 kmh 30.42 in1030.1 mb 0.00 in0.0 mm 0.00 in/hr0.0 mm/hr 0.00 in0.0 mm
12:17 AM 32.6°F0.3°C 22.2°F-5.4°C 65% 16.0 mph NNW25.7 kmh NNW 25.0 mph40.2 kmh 30.42 in1030.1 mb 0.00 in0.0 mm 0.00 in/hr0.0 mm/hr 0.00 in0.0 mm
12:18 AM 32.6°F0.3°C 22.2°F-5.4°C 65% 19.0 mph NNW30.6 kmh NNW 25.0 mph40.2 kmh 30.43 in1030.5 mb 0.00 in0.0 mm 0.00 in/hr0.0 mm/hr 0.00 in0.0 mm
12:19 AM 32.6°F0.3°C 22.2°F-5.4°C 65% 18.0 mph NNW29.0 kmh NNW 25.0 mph40.2 kmh 30.43 in1030.5 mb 0.00 in0.0 mm 0.00 in/hr0.0 mm/hr 0.00 in0.0 mm
12:20 AM 32.6°F0.3°C 22.2°F-5.4°C 65% 16.0 mph NW25.7 kmh NW 25.0 mph40.2 kmh 30.43 in1030.5 mb 0.00 in0.0 mm 0.00 in/hr0.0 mm/hr 0.00 in0.0 mm
12:21 AM 32.5°F0.3°C 22.1°F-5.5°C 65% 15.0 mph N24.1 kmh N 25.0 mph40.2 kmh 30.43 in1030.5 mb 0.00 in0.0 mm 0.00 in/hr0.0 mm/hr 0.00 in0.0 mm
12:22 AM 32.5°F0.3°C 22.1°F-5.5°C 65% 18.0 mph NNW29.0 kmh NNW 25.0 mph40.2 kmh 30.43 in1030.5 mb 0.00 in0.0 mm 0.00 in/hr0.0 mm/hr 0.00 in0.0 mm
12:23 AM 32.5°F0.3°C 22.1°F-5.5°C 65% 16.0 mph NNW25.7 kmh NNW 25.0 mph40.2 kmh 30.43 in1030.5 mb 0.00 in0.0 mm 0.00 in/hr0.0 mm/hr 0.00 in0.0 mm
12:24 AM 32.5°F0.3°C 22.1°F-5.5°C 65% 12.0 mph NW19.3 kmh NW 25.0 mph40.2 kmh 30.43 in1030.5 mb 0.00 in0.0 mm 0.00 in/hr0.0 mm/hr 0.00 in0.0 mm
12:25 AM 32.4°F0.2°C 22.0°F-5.6°C 65% 14.0 mph NNW22.5 kmh NNW 25.0 mph40.2 kmh 30.43 in1030.5 mb 0.00 in0.0 mm 0.00 in/hr0.0 mm/hr 0.00 in0.0 mm
12:26 AM 32.4°F0.2°C 22.0°F-5.6°C 65% 17.0 mph NNW27.4 kmh NNW 25.0 mph40.2 kmh 30.43 in1030.5 mb 0.00 in0.0 mm 0.00 in/hr0.0 mm/hr 0.00 in0.0 mm
12:27 AM 32.3°F0.2°C 21.9°F-5.6°C 65% 18.0 mph N29.0 kmh N 25.0 mph40.2 kmh 30.43 in1030.5 mb 0.00 in0.0 mm 0.00 in/hr0.0 mm/hr 0.00 in0.0 mm
12:28 AM 32.3°F0.2°C 21.9°F-5.6°C 65% 17.0 mph NW27.4 kmh NW 25.0 mph40.2 kmh 30.43 in1030.5 mb 0.00 in0.0 mm 0.00 in/hr0.0 mm/hr 0.00 in0.0 mm
12:29 AM 32.3°F0.2°C 21.9°F-5.6°C 65% 16.0 mph NW25.7 kmh NW 25.0 mph40.2 kmh 30.43 in1030.5 mb 0.00 in0.0 mm 0.00 in/hr0.0 mm/hr 0.00 in0.0 mm
12:30 AM 32.3°F0.2°C 21.9°F-5.6°C 65% 14.0 mph NNW22.5 kmh NNW 25.0 mph40.2 kmh 30.43 in1030.5 mb 0.00 in0.0 mm 0.00 in/hr0.0 mm/hr 0.00 in0.0 mm
12:31 AM 32.2°F0.1°C 21.8°F-5.7°C 65% 15.0 mph NNW24.1 kmh NNW 25.0 mph40.2 kmh 30.43 in1030.5 mb 0.00 in0.0 mm 0.00 in/hr0.0 mm/hr 0.00 in0.0 mm
12:32 AM 32.2°F0.1°C 22.1°F-5.5°C 66% 20.0 mph NNW32.2 kmh NNW 21.0 mph33.8 kmh 30.43 in1030.5 mb 0.00 in0.0 mm 0.00 in/hr0.0 mm/hr 0.00 in0.0 mm
12:33 AM 32.2°F0.1°C 22.1°F-5.5°C 66% 16.0 mph NW25.7 kmh NW 21.0 mph33.8 kmh 30.43 in1030.5 mb 0.00 in0.0 mm 0.00 in/hr0.0 mm/hr 0.00 in0.0 mm
12:34 AM 32.1°F0.1°C 22.0°F-5.6°C 66% 16.0 mph NNW25.7 kmh NNW 21.0 mph33.8 kmh 30.43 in1030.5 mb 0.00 in0.0 mm 0.00 in/hr0.0 mm/hr 0.00 in0.0 mm
12:35 AM 32.1°F0.1°C 22.0°F-5.6°C 66% 21.0 mph NW33.8 kmh NW 23.0 mph37.0 kmh 30.43 in1030.5 mb 0.00 in0.0 mm 0.00 in/hr0.0 mm/hr 0.00 in0.0 mm
12:36 AM 32.1°F0.1°C 22.0°F-5.6°C 66% 16.0 mph NW25.7 kmh NW 23.0 mph37.0 kmh 30.43 in1030.5 mb 0.00 in0.0 mm 0.00 in/hr0.0 mm/hr 0.00 in0.0 mm
12:37 AM 32.1°F0.1°C 22.0°F-5.6°C 66% 19.0 mph NW30.6 kmh NW 23.0 mph37.0 kmh 30.43 in1030.5 mb 0.00 in0.0 mm 0.00 in/hr0.0 mm/hr 0.00 in0.0 mm
12:38 AM 32.0°F0.0°C 21.9°F-5.6°C 66% 20.0 mph NW32.2 kmh NW 23.0 mph37.0 kmh 30.43 in1030.5 mb 0.00 in0.0 mm 0.00 in/hr0.0 mm/hr 0.00 in0.0 mm
12:39 AM 32.0°F0.0°C 21.9°F-5.6°C 66% 13.0 mph NW20.9 kmh NW 23.0 mph37.0 kmh 30.43 in1030.5 mb 0.00 in0.0 mm 0.00 in/hr0.0 mm/hr 0.00 in0.0 mm
12:40 AM 32.0°F0.0°C 21.9°F-5.6°C 66% 19.0 mph NNW30.6 kmh NNW 23.0 mph37.0 kmh 30.43 in1030.5 mb 0.00 in0.0 mm 0.00 in/hr0.0 mm/hr 0.00 in0.0 mm
12:41 AM 31.9°F-0.1°C 21.9°F-5.6°C 66% 19.0 mph NW30.6 kmh NW 23.0 mph37.0 kmh 30.43 in1030.5 mb 0.00 in0.0 mm 0.00 in/hr0.0 mm/hr 0.00 in0.0 mm
12:42 AM 31.9°F-0.1°C 21.9°F-5.6°C 66% 18.0 mph NW29.0 kmh NW 23.0 mph37.0 kmh 30.43 in1030.5 mb 0.00 in0.0 mm 0.00 in/hr0.0 mm/hr 0.00 in0.0 mm
12:43 AM 31.9°F-0.1°C 22.2°F-5.4°C 67% 15.0 mph NNW24.1 kmh NNW 23.0 mph37.0 kmh 30.43 in1030.5 mb 0.00 in0.0 mm 0.00 in/hr0.0 mm/hr 0.00 in0.0 mm
12:44 AM 31.9°F-0.1°C 22.2°F-5.4°C 67% 16.0 mph NNW25.7 kmh NNW 23.0 mph37.0 kmh 30.43 in1030.5 mb 0.00 in0.0 mm 0.00 in/hr0.0 mm/hr 0.00 in0.0 mm
12:45 AM 31.8°F-0.1°C 22.1°F-5.5°C 67% 18.0 mph NNW29.0 kmh NNW 23.0 mph37.0 kmh 30.43 in1030.5 mb 0.00 in0.0 mm 0.00 in/hr0.0 mm/hr 0.00 in0.0 mm
12:46 AM 31.8°F-0.1°C 22.1°F-5.5°C 67% 14.0 mph NNW22.5 kmh NNW 23.0 mph37.0 kmh 30.43 in1030.5 mb 0.00 in0.0 mm 0.00 in/hr0.0 mm/hr 0.00 in0.0 mm
12:47 AM 31.8°F-0.1°C 22.1°F-5.5°C 67% 13.0 mph NNW20.9 kmh NNW 23.0 mph37.0 kmh 30.43 in1030.5 mb 0.00 in0.0 mm 0.00 in/hr0.0 mm/hr 0.00 in0.0 mm
12:48 AM 31.8°F-0.1°C 22.1°F-5.5°C 67% 17.0 mph NW27.4 kmh NW 23.0 mph37.0 kmh 30.43 in1030.5 mb 0.00 in0.0 mm 0.00 in/hr0.0 mm/hr 0.00 in0.0 mm
12:49 AM 31.8°F-0.1°C 22.1°F-5.5°C 67% 17.0 mph NNW27.4 kmh NNW 23.0 mph37.0 kmh 30.43 in1030.5 mb 0.00 in0.0 mm 0.00 in/hr0.0 mm/hr 0.00 in0.0 mm
12:50 AM 31.7°F-0.2°C 22.0°F-5.6°C 67% 18.0 mph NNW29.0 kmh NNW 23.0 mph37.0 kmh 30.43 in1030.5 mb 0.00 in0.0 mm 0.00 in/hr0.0 mm/hr 0.00 in0.0 mm
12:51 AM 31.7°F-0.2°C 22.0°F-5.6°C 67% 17.0 mph NW27.4 kmh NW 23.0 mph37.0 kmh 30.43 in1030.5 mb 0.00 in0.0 mm 0.00 in/hr0.0 mm/hr 0.00 in0.0 mm
12:52 AM 31.7°F-0.2°C 22.0°F-5.6°C 67% 16.0 mph NW25.7 kmh NW 23.0 mph37.0 kmh 30.43 in1030.5 mb 0.00 in0.0 mm 0.00 in/hr0.0 mm/hr 0.00 in0.0 mm
12:53 AM 31.7°F-0.2°C 22.0°F-5.6°C 67% 14.0 mph NNW22.5 kmh NNW 23.0 mph37.0 kmh 30.43 in1030.5 mb 0.00 in0.0 mm 0.00 in/hr0.0 mm/hr 0.00 in0.0 mm
12:54 AM 31.7°F-0.2°C 22.0°F-5.6°C 67% 16.0 mph NNW25.7 kmh NNW 23.0 mph37.0 kmh 30.43 in1030.5 mb 0.00 in0.0 mm 0.00 in/hr0.0 mm/hr 0.00 in0.0 mm
12:55 AM 31.7°F-0.2°C 22.0°F-5.6°C 67% 14.0 mph NNW22.5 kmh NNW 23.0 mph37.0 kmh 30.43 in1030.5 mb 0.00 in0.0 mm 0.00 in/hr0.0 mm/hr 0.00 in0.0 mm
12:56 AM 31.6°F-0.2°C 21.9°F-5.6°C 67% 17.0 mph NNW27.4 kmh NNW 23.0 mph37.0 kmh 30.43 in1030.5 mb 0.00 in0.0 mm 0.00 in/hr0.0 mm/hr 0.00 in0.0 mm
12:57 AM 31.6°F-0.2°C 21.9°F-5.6°C 67% 19.0 mph NNW30.6 kmh NNW 23.0 mph37.0 kmh 30.43 in1030.5 mb 0.00 in0.0 mm 0.00 in/hr0.0 mm/hr 0.00 in0.0 mm
12:58 AM 31.5°F-0.3°C 21.8°F-5.7°C 67% 12.0 mph NNW19.3 kmh NNW 23.0 mph37.0 kmh 30.43 in1030.5 mb 0.00 in0.0 mm 0.00 in/hr0.0 mm/hr 0.00 in0.0 mm
12:59 AM 31.5°F-0.3°C 21.8°F-5.7°C 67% 14.0 mph NNW22.5 kmh NNW 23.0 mph37.0 kmh 30.44 in1030.8 mb 0.00 in0.0 mm 0.00 in/hr0.0 mm/hr 0.00 in0.0 mm
01:00 AM 31.5°F-0.3°C 21.8°F-5.7°C 67% 11.0 mph N17.7 kmh N 23.0 mph37.0 kmh 30.44 in1030.8 mb 0.00 in0.0 mm 0.00 in/hr0.0 mm/hr 0.00 in0.0 mm
01:01 AM 31.4°F-0.3°C 21.7°F-5.7°C 67% 15.0 mph NNW24.1 kmh NNW 23.0 mph37.0 kmh 30.44 in1030.8 mb 0.00 in0.0 mm 0.00 in/hr0.0 mm/hr 0.00 in0.0 mm
01:02 AM 31.4°F-0.3°C 21.7°F-5.7°C 67% 13.0 mph NNW20.9 kmh NNW 19.0 mph30.6 kmh 30.44 in1030.8 mb 0.00 in0.0 mm 0.00 in/hr0.0 mm/hr 0.00 in0.0 mm
01:03 AM 31.4°F-0.3°C 21.7°F-5.7°C 67% 16.0 mph NNW25.7 kmh NNW 20.0 mph32.2 kmh 30.44 in1030.8 mb 0.00 in0.0 mm 0.00 in/hr0.0 mm/hr 0.00 in0.0 mm
01:04 AM 31.4°F-0.3°C 21.7°F-5.7°C 67% 14.0 mph N22.5 kmh N 20.0 mph32.2 kmh 30.44 in1030.8 mb 0.00 in0.0 mm 0.00 in/hr0.0 mm/hr 0.00 in0.0 mm
01:05 AM 31.4°F-0.3°C 21.7°F-5.7°C 67% 15.0 mph NW24.1 kmh NW 20.0 mph32.2 kmh 30.44 in1030.8 mb 0.00 in0.0 mm 0.00 in/hr0.0 mm/hr 0.00 in0.0 mm
01:06 AM 31.4°F-0.3°C 21.7°F-5.7°C 67% 14.0 mph NW22.5 kmh NW 20.0 mph32.2 kmh 30.44 in1030.8 mb 0.00 in0.0 mm 0.00 in/hr0.0 mm/hr 0.00 in0.0 mm
01:07 AM 31.4°F-0.3°C 21.7°F-5.7°C 67% 19.0 mph NNW30.6 kmh NNW 20.0 mph32.2 kmh 30.44 in1030.8 mb 0.00 in0.0 mm 0.00 in/hr0.0 mm/hr 0.00 in0.0 mm
01:08 AM 31.3°F-0.4°C 21.6°F-5.8°C 67% 16.0 mph N25.7 kmh N 20.0 mph32.2 kmh 30.44 in1030.8 mb 0.00 in0.0 mm 0.00 in/hr0.0 mm/hr 0.00 in0.0 mm
01:09 AM 31.3°F-0.4°C 21.6°F-5.8°C 67% 19.0 mph NNW30.6 kmh NNW 20.0 mph32.2 kmh 30.44 in1030.8 mb 0.00 in0.0 mm 0.00 in/hr0.0 mm/hr 0.00 in0.0 mm
01:10 AM 31.3°F-0.4°C 21.6°F-5.8°C 67% 12.0 mph NW19.3 kmh NW 20.0 mph32.2 kmh 30.44 in1030.8 mb 0.00 in0.0 mm 0.00 in/hr0.0 mm/hr 0.00 in0.0 mm
01:11 AM 31.3°F-0.4°C 21.6°F-5.8°C 67% 13.0 mph NNW20.9 kmh NNW 21.0 mph33.8 kmh 30.44 in1030.8 mb 0.00 in0.0 mm 0.00 in/hr0.0 mm/hr 0.00 in0.0 mm
01:12 AM 31.3°F-0.4°C 21.6°F-5.8°C 67% 16.0 mph NW25.7 kmh NW 21.0 mph33.8 kmh 30.45 in1031.2 mb 0.00 in0.0 mm 0.00 in/hr0.0 mm/hr 0.00 in0.0 mm
01:13 AM 31.3°F-0.4°C 21.6°F-5.8°C 67% 16.0 mph NNW25.7 kmh NNW 21.0 mph33.8 kmh 30.44 in1030.8 mb 0.00 in0.0 mm 0.00 in/hr0.0 mm/hr 0.00 in0.0 mm
01:14 AM 31.3°F-0.4°C 21.6°F-5.8°C 67% 16.0 mph NNW25.7 kmh NNW 21.0 mph33.8 kmh 30.44 in1030.8 mb 0.00 in0.0 mm 0.00 in/hr0.0 mm/hr 0.00 in0.0 mm
01:15 AM 31.3°F-0.4°C 21.6°F-5.8°C 67% 15.0 mph NNW24.1 kmh NNW 21.0 mph33.8 kmh 30.44 in1030.8 mb 0.00 in0.0 mm 0.00 in/hr0.0 mm/hr 0.00 in0.0 mm
01:16 AM 31.3°F-0.4°C 21.6°F-5.8°C 67% 14.0 mph NW22.5 kmh NW 21.0 mph33.8 kmh 30.44 in1030.8 mb 0.00 in0.0 mm 0.00 in/hr0.0 mm/hr 0.00 in0.0 mm
01:17 AM 31.3°F-0.4°C 21.6°F-5.8°C 67% 12.0 mph NNW19.3 kmh NNW 21.0 mph33.8 kmh 30.44 in1030.8 mb 0.00 in0.0 mm 0.00 in/hr0.0 mm/hr 0.00 in0.0 mm
01:18 AM 31.2°F-0.4°C 21.5°F-5.8°C 67% 14.0 mph NW22.5 kmh NW 21.0 mph33.8 kmh 30.44 in1030.8 mb 0.00 in0.0 mm 0.00 in/hr0.0 mm/hr 0.00 in0.0 mm
01:19 AM 31.3°F-0.4°C 21.3°F-5.9°C 66% 10.0 mph NNW16.1 kmh NNW 21.0 mph33.8 kmh 30.44 in1030.8 mb 0.00 in0.0 mm 0.00 in/hr0.0 mm/hr 0.00 in0.0 mm
01:20 AM 31.2°F-0.4°C 21.2°F-6.0°C 66% 15.0 mph NNW24.1 kmh NNW 21.0 mph33.8 kmh 30.44 in1030.8 mb 0.00 in0.0 mm 0.00 in/hr0.0 mm/hr 0.00 in0.0 mm
01:21 AM 31.2°F-0.4°C 21.2°F-6.0°C 66% 14.0 mph NW22.5 kmh NW 22.0 mph35.4 kmh 30.44 in1030.8 mb 0.00 in0.0 mm 0.00 in/hr0.0 mm/hr 0.00 in0.0 mm
01:22 AM 31.2°F-0.4°C 21.2°F-6.0°C 66% 17.0 mph NW27.4 kmh NW 22.0 mph35.4 kmh 30.44 in1030.8 mb 0.00 in0.0 mm 0.00 in/hr0.0 mm/hr 0.00 in0.0 mm
01:23 AM 31.2°F-0.4°C 21.2°F-6.0°C 66% 16.0 mph NNW25.7 kmh NNW 22.0 mph35.4 kmh 30.44 in1030.8 mb 0.00 in0.0 mm 0.00 in/hr0.0 mm/hr 0.00 in0.0 mm
01:24 AM 31.2°F-0.4°C 21.2°F-6.0°C 66% 15.0 mph N24.1 kmh N 22.0 mph35.4 kmh 30.44 in1030.8 mb 0.00 in0.0 mm 0.00 in/hr0.0 mm/hr 0.00 in0.0 mm
01:25 AM 31.2°F-0.4°C 21.2°F-6.0°C 66% 13.0 mph N20.9 kmh N 22.0 mph35.4 kmh 30.44 in1030.8 mb 0.00 in0.0 mm 0.00 in/hr0.0 mm/hr 0.00 in0.0 mm
01:26 AM 31.2°F-0.4°C 21.2°F-6.0°C 66% 15.0 mph NNW24.1 kmh NNW 22.0 mph35.4 kmh 30.44 in1030.8 mb 0.00 in0.0 mm 0.00 in/hr0.0 mm/hr 0.00 in0.0 mm
01:27 AM 31.2°F-0.4°C 21.2°F-6.0°C 66% 13.0 mph NNW20.9 kmh NNW 22.0 mph35.4 kmh 30.44 in1030.8 mb 0.00 in0.0 mm 0.00 in/hr0.0 mm/hr 0.00 in0.0 mm
01:28 AM 31.2°F-0.4°C 21.2°F-6.0°C 66% 13.0 mph NW20.9 kmh NW 22.0 mph35.4 kmh 30.44 in1030.8 mb 0.00 in0.0 mm 0.00 in/hr0.0 mm/hr 0.00 in0.0 mm
01:29 AM 31.2°F-0.4°C 21.2°F-6.0°C 66% 17.0 mph NW27.4 kmh NW 22.0 mph35.4 kmh 30.44 in1030.8 mb 0.00 in0.0 mm 0.00 in/hr0.0 mm/hr 0.00 in0.0 mm
01:30 AM 31.1°F-0.5°C 21.1°F-6.1°C 66% 13.0 mph NNW20.9 kmh NNW 22.0 mph35.4 kmh 30.44 in1030.8 mb 0.00 in0.0 mm 0.00 in/hr0.0 mm/hr 0.00 in0.0 mm
01:31 AM 31.1°F-0.5°C 21.1°F-6.1°C 66% 15.0 mph NNW24.1 kmh NNW 22.0 mph35.4 kmh 30.45 in1031.2 mb 0.00 in0.0 mm 0.00 in/hr0.0 mm/hr 0.00 in0.0 mm
01:32 AM 31.1°F-0.5°C 21.1°F-6.1°C 66% 12.0 mph N19.3 kmh N 15.0 mph24.1 kmh 30.45 in1031.2 mb 0.00 in0.0 mm 0.00 in/hr0.0 mm/hr 0.00 in0.0 mm
01:33 AM 31.1°F-0.5°C 21.1°F-6.1°C 66% 17.0 mph NNW27.4 kmh NNW 19.0 mph30.6 kmh 30.45 in1031.2 mb 0.00 in0.0 mm 0.00 in/hr0.0 mm/hr 0.00 in0.0 mm
01:34 AM 31.1°F-0.5°C 21.1°F-6.1°C 66% 13.0 mph NW20.9 kmh NW 21.0 mph33.8 kmh 30.45 in1031.2 mb 0.00 in0.0 mm 0.00 in/hr0.0 mm/hr 0.00 in0.0 mm
01:35 AM 31.1°F-0.5°C 21.1°F-6.1°C 66% 19.0 mph NNW30.6 kmh NNW 21.0 mph33.8 kmh 30.45 in1031.2 mb 0.00 in0.0 mm 0.00 in/hr0.0 mm/hr 0.00 in0.0 mm
01:36 AM 31.0°F-0.6°C 21.0°F-6.1°C 66% 20.0 mph NNW32.2 kmh NNW 21.0 mph33.8 kmh 30.45 in1031.2 mb 0.00 in0.0 mm 0.00 in/hr0.0 mm/hr 0.00 in0.0 mm
01:37 AM 31.1°F-0.5°C 21.1°F-6.1°C 66% 17.0 mph N27.4 kmh N 21.0 mph33.8 kmh 30.45 in1031.2 mb 0.00 in0.0 mm 0.00 in/hr0.0 mm/hr 0.00 in0.0 mm
01:38 AM 31.1°F-0.5°C 21.1°F-6.1°C 66% 14.0 mph N22.5 kmh N 21.0 mph33.8 kmh 30.45 in1031.2 mb 0.00 in0.0 mm 0.00 in/hr0.0 mm/hr 0.00 in0.0 mm
01:39 AM 31.0°F-0.6°C 21.0°F-6.1°C 66% 14.0 mph NNW22.5 kmh NNW 21.0 mph33.8 kmh 30.45 in1031.2 mb 0.00 in0.0 mm 0.00 in/hr0.0 mm/hr 0.00 in0.0 mm
01:40 AM 31.0°F-0.6°C 21.0°F-6.1°C 66% 16.0 mph NNW25.7 kmh NNW 21.0 mph33.8 kmh 30.45 in1031.2 mb 0.00 in0.0 mm 0.00 in/hr0.0 mm/hr 0.00 in0.0 mm
01:41 AM 31.0°F-0.6°C 21.0°F-6.1°C 66% 16.0 mph NW25.7 kmh NW 21.0 mph33.8 kmh 30.45 in1031.2 mb 0.00 in0.0 mm 0.00 in/hr0.0 mm/hr 0.00 in0.0 mm
01:42 AM 30.9°F-0.6°C 20.9°F-6.2°C 66% 13.0 mph NNW20.9 kmh NNW 21.0 mph33.8 kmh 30.45 in1031.2 mb 0.00 in0.0 mm 0.00 in/hr0.0 mm/hr 0.00 in0.0 mm
01:43 AM 30.9°F-0.6°C 20.9°F-6.2°C 66% 17.0 mph NNW27.4 kmh NNW 21.0 mph33.8 kmh 30.45 in1031.2 mb 0.00 in0.0 mm 0.00 in/hr0.0 mm/hr 0.00 in0.0 mm
01:44 AM 30.9°F-0.6°C 20.5°F-6.4°C 65% 15.0 mph NW24.1 kmh NW 21.0 mph33.8 kmh 30.46 in1031.5 mb 0.00 in0.0 mm 0.00 in/hr0.0 mm/hr 0.00 in0.0 mm
01:45 AM 30.9°F-0.6°C 20.5°F-6.4°C 65% 14.0 mph NNW22.5 kmh NNW 21.0 mph33.8 kmh 30.46 in1031.5 mb 0.00 in0.0 mm 0.00 in/hr0.0 mm/hr 0.00 in0.0 mm
01:46 AM 30.9°F-0.6°C 20.5°F-6.4°C 65% 15.0 mph NW24.1 kmh NW 21.0 mph33.8 kmh 30.45 in1031.2 mb 0.00 in0.0 mm 0.00 in/hr0.0 mm/hr 0.00 in0.0 mm
01:47 AM 30.9°F-0.6°C 20.5°F-6.4°C 65% 17.0 mph NNW27.4 kmh NNW 21.0 mph33.8 kmh 30.46 in1031.5 mb 0.00 in0.0 mm 0.00 in/hr0.0 mm/hr 0.00 in0.0 mm
01:48 AM 30.9°F-0.6°C 20.9°F-6.2°C 66% 15.0 mph NW24.1 kmh NW 21.0 mph33.8 kmh 30.46 in1031.5 mb 0.00 in0.0 mm 0.00 in/hr0.0 mm/hr 0.00 in0.0 mm
01:49 AM 30.8°F-0.7°C 20.8°F-6.2°C 66% 17.0 mph NNW27.4 kmh NNW 21.0 mph33.8 kmh 30.46 in1031.5 mb 0.00 in0.0 mm 0.00 in/hr0.0 mm/hr 0.00 in0.0 mm
01:50 AM 30.8°F-0.7°C 20.8°F-6.2°C 66% 15.0 mph NNW24.1 kmh NNW 21.0 mph33.8 kmh 30.46 in1031.5 mb 0.00 in0.0 mm 0.00 in/hr0.0 mm/hr 0.00 in0.0 mm
01:51 AM 30.8°F-0.7°C 20.8°F-6.2°C 66% 13.0 mph NW20.9 kmh NW 21.0 mph33.8 kmh 30.46 in1031.5 mb 0.00 in0.0 mm 0.00 in/hr0.0 mm/hr 0.00 in0.0 mm
01:52 AM 30.8°F-0.7°C 20.8°F-6.2°C 66% 11.0 mph NW17.7 kmh NW 21.0 mph33.8 kmh 30.46 in1031.5 mb 0.00 in0.0 mm 0.00 in/hr0.0 mm/hr 0.00 in0.0 mm
01:53 AM 30.7°F-0.7°C 20.7°F-6.3°C 66% 12.0 mph NW19.3 kmh NW 21.0 mph33.8 kmh 30.46 in1031.5 mb 0.00 in0.0 mm 0.00 in/hr0.0 mm/hr 0.00 in0.0 mm
01:54 AM 30.6°F-0.8°C 21.0°F-6.1°C 67% 15.0 mph NNW24.1 kmh NNW 21.0 mph33.8 kmh 30.46 in1031.5 mb 0.00 in0.0 mm 0.00 in/hr0.0 mm/hr 0.00 in0.0 mm
01:55 AM 30.6°F-0.8°C 20.6°F-6.3°C 66% 16.0 mph NW25.7 kmh NW 21.0 mph33.8 kmh 30.46 in1031.5 mb 0.00 in0.0 mm 0.00 in/hr0.0 mm/hr 0.00 in0.0 mm
01:56 AM 30.5°F-0.8°C 20.5°F-6.4°C 66% 15.0 mph NNW24.1 kmh NNW 21.0 mph33.8 kmh 30.46 in1031.5 mb 0.00 in0.0 mm 0.00 in/hr0.0 mm/hr 0.00 in0.0 mm
01:57 AM 30.5°F-0.8°C 20.9°F-6.2°C 67% 11.0 mph NNW17.7 kmh NNW 21.0 mph33.8 kmh 30.46 in1031.5 mb 0.00 in0.0 mm 0.00 in/hr0.0 mm/hr 0.00 in0.0 mm
01:58 AM 30.5°F-0.8°C 20.9°F-6.2°C 67% 15.0 mph NNW24.1 kmh NNW 21.0 mph33.8 kmh 30.46 in1031.5 mb 0.00 in0.0 mm 0.00 in/hr0.0 mm/hr 0.00 in0.0 mm
01:59 AM 30.4°F-0.9°C 20.8°F-6.2°C 67% 12.0 mph NNW19.3 kmh NNW 21.0 mph33.8 kmh 30.47 in1031.8 mb 0.00 in0.0 mm 0.00 in/hr0.0 mm/hr 0.00 in0.0 mm
02:00 AM 30.4°F-0.9°C 20.8°F-6.2°C 67% 12.0 mph NNW19.3 kmh NNW 21.0 mph33.8 kmh 30.47 in1031.8 mb 0.00 in0.0 mm 0.00 in/hr0.0 mm/hr 0.00 in0.0 mm
02:01 AM 30.4°F-0.9°C 20.8°F-6.2°C 67% 13.0 mph NNW20.9 kmh NNW 21.0 mph33.8 kmh 30.47 in1031.8 mb 0.00 in0.0 mm 0.00 in/hr0.0 mm/hr 0.00 in0.0 mm
02:02 AM 30.3°F-0.9°C 20.7°F-6.3°C 67% 12.0 mph N19.3 kmh N 15.0 mph24.1 kmh 30.47 in1031.8 mb 0.00 in0.0 mm 0.00 in/hr0.0 mm/hr 0.00 in0.0 mm
02:03 AM 30.3°F-0.9°C 20.7°F-6.3°C 67% 13.0 mph NNW20.9 kmh NNW 17.0 mph27.4 kmh 30.47 in1031.8 mb 0.00 in0.0 mm 0.00 in/hr0.0 mm/hr 0.00 in0.0 mm
02:04 AM 30.3°F-0.9°C 20.7°F-6.3°C 67% 12.0 mph NNW19.3 kmh NNW 17.0 mph27.4 kmh 30.47 in1031.8 mb 0.00 in0.0 mm 0.00 in/hr0.0 mm/hr 0.00 in0.0 mm
02:05 AM 30.3°F-0.9°C 20.7°F-6.3°C 67% 13.0 mph NW20.9 kmh NW 17.0 mph27.4 kmh 30.47 in1031.8 mb 0.00 in0.0 mm 0.00 in/hr0.0 mm/hr 0.00 in0.0 mm
02:06 AM 30.4°F-0.9°C 20.8°F-6.2°C 67% 15.0 mph NW24.1 kmh NW 17.0 mph27.4 kmh 30.47 in1031.8 mb 0.00 in0.0 mm 0.00 in/hr0.0 mm/hr 0.00 in0.0 mm
02:07 AM 30.4°F-0.9°C 20.8°F-6.2°C 67% 14.0 mph NNW22.5 kmh NNW 17.0 mph27.4 kmh 30.47 in1031.8 mb 0.00 in0.0 mm 0.00 in/hr0.0 mm/hr 0.00 in0.0 mm
02:08 AM 30.3°F-0.9°C 20.3°F-6.5°C 66% 13.0 mph NW20.9 kmh NW 17.0 mph27.4 kmh 30.47 in1031.8 mb 0.00 in0.0 mm 0.00 in/hr0.0 mm/hr 0.00 in0.0 mm
02:09 AM 30.3°F-0.9°C 20.7°F-6.3°C 67% 14.0 mph N22.5 kmh N 17.0 mph27.4 kmh 30.47 in1031.8 mb 0.00 in0.0 mm 0.00 in/hr0.0 mm/hr 0.00 in0.0 mm
02:10 AM 30.3°F-0.9°C 20.7°F-6.3°C 67% 11.0 mph NW17.7 kmh NW 17.0 mph27.4 kmh 30.47 in1031.8 mb 0.00 in0.0 mm 0.00 in/hr0.0 mm/hr 0.00 in0.0 mm
02:11 AM 30.2°F-1.0°C 20.6°F-6.3°C 67% 10.0 mph NNW16.1 kmh NNW 17.0 mph27.4 kmh 30.47 in1031.8 mb 0.00 in0.0 mm 0.00 in/hr0.0 mm/hr 0.00 in0.0 mm
02:12 AM 30.1°F-1.1°C 20.5°F-6.4°C 67% 14.0 mph NNW22.5 kmh NNW 17.0 mph27.4 kmh 30.47 in1031.8 mb 0.00 in0.0 mm 0.00 in/hr0.0 mm/hr 0.00 in0.0 mm
02:13 AM 30.1°F-1.1°C 20.8°F-6.2°C 68% 15.0 mph NNW24.1 kmh NNW 17.0 mph27.4 kmh 30.47 in1031.8 mb 0.00 in0.0 mm 0.00 in/hr0.0 mm/hr 0.00 in0.0 mm
02:14 AM 30.0°F-1.1°C 20.7°F-6.3°C 68% 14.0 mph NNW22.5 kmh NNW 17.0 mph27.4 kmh 30.47 in1031.8 mb 0.00 in0.0 mm 0.00 in/hr0.0 mm/hr 0.00 in0.0 mm
02:15 AM 29.9°F-1.2°C 20.6°F-6.3°C 68% 13.0 mph NNW20.9 kmh NNW 17.0 mph27.4 kmh 30.47 in1031.8 mb 0.00 in0.0 mm 0.00 in/hr0.0 mm/hr 0.00 in0.0 mm
02:16 AM 29.9°F-1.2°C 21.0°F-6.1°C 69% 13.0 mph NNW20.9 kmh NNW 17.0 mph27.4 kmh 30.47 in1031.8 mb 0.00 in0.0 mm 0.00 in/hr0.0 mm/hr 0.00 in0.0 mm
02:17 AM 29.8°F-1.2°C 20.9°F-6.2°C 69% 12.0 mph NW19.3 kmh NW 17.0 mph27.4 kmh 30.47 in1031.8 mb 0.00 in0.0 mm 0.00 in/hr0.0 mm/hr 0.00 in0.0 mm
02:18 AM 29.8°F-1.2°C 20.9°F-6.2°C 69% 11.0 mph NW17.7 kmh NW 17.0 mph27.4 kmh 30.47 in1031.8 mb 0.00 in0.0 mm 0.00 in/hr0.0 mm/hr 0.00 in0.0 mm
02:19 AM 29.7°F-1.3°C 20.8°F-6.2°C 69% 14.0 mph NNW22.5 kmh NNW 17.0 mph27.4 kmh 30.47 in1031.8 mb 0.00 in0.0 mm 0.00 in/hr0.0 mm/hr 0.00 in0.0 mm
02:20 AM 29.6°F-1.3°C 20.7°F-6.3°C 69% 12.0 mph NW19.3 kmh NW 17.0 mph27.4 kmh 30.48 in1032.2 mb 0.00 in0.0 mm 0.00 in/hr0.0 mm/hr 0.00 in0.0 mm
02:21 AM 29.6°F-1.3°C 21.0°F-6.1°C 70% 12.0 mph NNW19.3 kmh NNW 17.0 mph27.4 kmh 30.48 in1032.2 mb 0.00 in0.0 mm 0.00 in/hr0.0 mm/hr 0.00 in0.0 mm
02:22 AM 29.6°F-1.3°C 21.0°F-6.1°C 70% 14.0 mph NNW22.5 kmh NNW 17.0 mph27.4 kmh 30.47 in1031.8 mb 0.00 in0.0 mm 0.00 in/hr0.0 mm/hr 0.00 in0.0 mm
02:23 AM 29.6°F-1.3°C 21.0°F-6.1°C 70% 13.0 mph NW20.9 kmh NW 17.0 mph27.4 kmh 30.47 in1031.8 mb 0.00 in0.0 mm 0.00 in/hr0.0 mm/hr 0.00 in0.0 mm
02:24 AM 29.5°F-1.4°C 20.9°F-6.2°C 70% 14.0 mph NW22.5 kmh NW 17.0 mph27.4 kmh 30.47 in1031.8 mb 0.00 in0.0 mm 0.00 in/hr0.0 mm/hr 0.00 in0.0 mm
02:25 AM 29.5°F-1.4°C 20.9°F-6.2°C 70% 15.0 mph NNW24.1 kmh NNW 17.0 mph27.4 kmh 30.47 in1031.8 mb 0.00 in0.0 mm 0.00 in/hr0.0 mm/hr 0.00 in0.0 mm
02:26 AM 29.5°F-1.4°C 20.9°F-6.2°C 70% 15.0 mph NNW24.1 kmh NNW 17.0 mph27.4 kmh 30.47 in1031.8 mb 0.00 in0.0 mm 0.00 in/hr0.0 mm/hr 0.00 in0.0 mm
02:27 AM 29.4°F-1.4°C 20.8°F-6.2°C 70% 14.0 mph NW22.5 kmh NW 17.0 mph27.4 kmh 30.48 in1032.2 mb 0.00 in0.0 mm 0.00 in/hr0.0 mm/hr 0.00 in0.0 mm
02:28 AM 29.4°F-1.4°C 20.8°F-6.2°C 70% 11.0 mph NW17.7 kmh NW 19.0 mph30.6 kmh 30.47 in1031.8 mb 0.00 in0.0 mm 0.00 in/hr0.0 mm/hr 0.00 in0.0 mm
02:29 AM 29.4°F-1.4°C 20.8°F-6.2°C 70% 14.0 mph NNW22.5 kmh NNW 19.0 mph30.6 kmh 30.47 in1031.8 mb 0.00 in0.0 mm 0.00 in/hr0.0 mm/hr 0.00 in0.0 mm
02:30 AM 29.4°F-1.4°C 20.8°F-6.2°C 70% 15.0 mph NW24.1 kmh NW 19.0 mph30.6 kmh 30.47 in1031.8 mb 0.00 in0.0 mm 0.00 in/hr0.0 mm/hr 0.00 in0.0 mm
02:31 AM 29.3°F-1.5°C 20.7°F-6.3°C 70% 16.0 mph NW25.7 kmh NW 19.0 mph30.6 kmh 30.47 in1031.8 mb 0.00 in0.0 mm 0.00 in/hr0.0 mm/hr 0.00 in0.0 mm
02:32 AM 29.3°F-1.5°C 20.7°F-6.3°C 70% 14.0 mph NNW22.5 kmh NNW 18.0 mph29.0 kmh 30.48 in1032.2 mb 0.00 in0.0 mm 0.00 in/hr0.0 mm/hr 0.00 in0.0 mm
02:33 AM 29.3°F-1.5°C 20.7°F-6.3°C 70% 16.0 mph NNW25.7 kmh NNW 19.0 mph30.6 kmh 30.48 in1032.2 mb 0.00 in0.0 mm 0.00 in/hr0.0 mm/hr 0.00 in0.0 mm
02:34 AM 29.4°F-1.4°C 20.8°F-6.2°C 70% 16.0 mph NNW25.7 kmh NNW 19.0 mph30.6 kmh 30.48 in1032.2 mb 0.00 in0.0 mm 0.00 in/hr0.0 mm/hr 0.00 in0.0 mm
02:35 AM 29.4°F-1.4°C 20.8°F-6.2°C 70% 13.0 mph NW20.9 kmh NW 19.0 mph30.6 kmh 30.48 in1032.2 mb 0.00 in0.0 mm 0.00 in/hr0.0 mm/hr 0.00 in0.0 mm
02:36 AM 29.4°F-1.4°C 20.8°F-6.2°C 70% 13.0 mph NW20.9 kmh NW 19.0 mph30.6 kmh 30.48 in1032.2 mb 0.00 in0.0 mm 0.00 in/hr0.0 mm/hr 0.00 in0.0 mm
02:37 AM 29.4°F-1.4°C 20.8°F-6.2°C 70% 13.0 mph NNW20.9 kmh NNW 19.0 mph30.6 kmh 30.48 in1032.2 mb 0.00 in0.0 mm 0.00 in/hr0.0 mm/hr 0.00 in0.0 mm
02:38 AM 29.4°F-1.4°C 20.8°F-6.2°C 70% 12.0 mph NW19.3 kmh NW 19.0 mph30.6 kmh 30.48 in1032.2 mb 0.00 in0.0 mm 0.00 in/hr0.0 mm/hr 0.00 in0.0 mm
02:39 AM 29.4°F-1.4°C 20.8°F-6.2°C 70% 13.0 mph NW20.9 kmh NW 19.0 mph30.6 kmh 30.48 in1032.2 mb 0.00 in0.0 mm 0.00 in/hr0.0 mm/hr 0.00 in0.0 mm
02:40 AM 29.4°F-1.4°C 20.8°F-6.2°C 70% 14.0 mph NNW22.5 kmh NNW 19.0 mph30.6 kmh 30.48 in1032.2 mb 0.00 in0.0 mm 0.00 in/hr0.0 mm/hr 0.00 in0.0 mm
02:41 AM 29.4°F-1.4°C 20.8°F-6.2°C 70% 10.0 mph NW16.1 kmh NW 19.0 mph30.6 kmh 30.48 in1032.2 mb 0.00 in0.0 mm 0.00 in/hr0.0 mm/hr 0.00 in0.0 mm
02:42 AM 29.3°F-1.5°C 20.7°F-6.3°C 70% 13.0 mph NW20.9 kmh NW 19.0 mph30.6 kmh 30.48 in1032.2 mb 0.00 in0.0 mm 0.00 in/hr0.0 mm/hr 0.00 in0.0 mm
02:43 AM 29.2°F-1.6°C 20.7°F-6.3°C 70% 14.0 mph NW22.5 kmh NW 19.0 mph30.6 kmh 30.48 in1032.2 mb 0.00 in0.0 mm 0.00 in/hr0.0 mm/hr 0.00 in0.0 mm
02:44 AM 29.2°F-1.6°C 20.7°F-6.3°C 70% 13.0 mph N20.9 kmh N 19.0 mph30.6 kmh 30.48 in1032.2 mb 0.00 in0.0 mm 0.00 in/hr0.0 mm/hr 0.00 in0.0 mm
02:45 AM 29.2°F-1.6°C 20.7°F-6.3°C 70% 14.0 mph NW22.5 kmh NW 19.0 mph30.6 kmh 30.48 in1032.2 mb 0.00 in0.0 mm 0.00 in/hr0.0 mm/hr 0.00 in0.0 mm
02:46 AM 29.2°F-1.6°C 20.7°F-6.3°C 70% 16.0 mph NW25.7 kmh NW 19.0 mph30.6 kmh 30.48 in1032.2 mb 0.00 in0.0 mm 0.00 in/hr0.0 mm/hr 0.00 in0.0 mm
02:47 AM 29.2°F-1.6°C 20.7°F-6.3°C 70% 13.0 mph NNW20.9 kmh NNW 19.0 mph30.6 kmh 30.48 in1032.2 mb 0.00 in0.0 mm 0.00 in/hr0.0 mm/hr 0.00 in0.0 mm
02:48 AM 29.2°F-1.6°C 20.7°F-6.3°C 70% 12.0 mph NW19.3 kmh NW 19.0 mph30.6 kmh 30.49 in1032.5 mb 0.00 in0.0 mm 0.00 in/hr0.0 mm/hr 0.00 in0.0 mm
02:49 AM 29.2°F-1.6°C 20.3°F-6.5°C 69% 18.0 mph N29.0 kmh N 21.0 mph33.8 kmh 30.48 in1032.2 mb 0.00 in0.0 mm 0.00 in/hr0.0 mm/hr 0.00 in0.0 mm
02:50 AM 29.3°F-1.5°C 20.4°F-6.4°C 69% 18.0 mph NNW29.0 kmh NNW 21.0 mph33.8 kmh 30.48 in1032.2 mb 0.00 in0.0 mm 0.00 in/hr0.0 mm/hr 0.00 in0.0 mm
02:51 AM 29.3°F-1.5°C 20.4°F-6.4°C 69% 16.0 mph NNW25.7 kmh NNW 21.0 mph33.8 kmh 30.48 in1032.2 mb 0.00 in0.0 mm 0.00 in/hr0.0 mm/hr 0.00 in0.0 mm
02:52 AM 29.3°F-1.5°C 20.4°F-6.4°C 69% 13.0 mph NW20.9 kmh NW 21.0 mph33.8 kmh 30.48 in1032.2 mb 0.00 in0.0 mm 0.00 in/hr0.0 mm/hr 0.00 in0.0 mm
02:53 AM 29.3°F-1.5°C 20.4°F-6.4°C 69% 13.0 mph NW20.9 kmh NW 21.0 mph33.8 kmh 30.48 in1032.2 mb 0.00 in0.0 mm 0.00 in/hr0.0 mm/hr 0.00 in0.0 mm
02:54 AM 29.4°F-1.4°C 20.2°F-6.6°C 68% 16.0 mph N25.7 kmh N 21.0 mph33.8 kmh 30.48 in1032.2 mb 0.00 in0.0 mm 0.00 in/hr0.0 mm/hr 0.00 in0.0 mm
02:55 AM 29.4°F-1.4°C 20.2°F-6.6°C 68% 16.0 mph NW25.7 kmh NW 21.0 mph33.8 kmh 30.49 in1032.5 mb 0.00 in0.0 mm 0.00 in/hr0.0 mm/hr 0.00 in0.0 mm
02:56 AM 29.4°F-1.4°C 20.2°F-6.6°C 68% 15.0 mph NNW24.1 kmh NNW 21.0 mph33.8 kmh 30.48 in1032.2 mb 0.00 in0.0 mm 0.00 in/hr0.0 mm/hr 0.00 in0.0 mm
02:57 AM 29.4°F-1.4°C 20.2°F-6.6°C 68% 13.0 mph N20.9 kmh N 21.0 mph33.8 kmh 30.49 in1032.5 mb 0.00 in0.0 mm 0.00 in/hr0.0 mm/hr 0.00 in0.0 mm
02:58 AM 29.5°F-1.4°C 20.3°F-6.5°C 68% 13.0 mph NW20.9 kmh NW 21.0 mph33.8 kmh 30.49 in1032.5 mb 0.00 in0.0 mm 0.00 in/hr0.0 mm/hr 0.00 in0.0 mm
02:59 AM 29.5°F-1.4°C 19.9°F-6.7°C 67% 14.0 mph NNW22.5 kmh NNW 21.0 mph33.8 kmh 30.48 in1032.2 mb 0.00 in0.0 mm 0.00 in/hr0.0 mm/hr 0.00 in0.0 mm
03:00 AM 29.5°F-1.4°C 19.9°F-6.7°C 67% 13.0 mph NW20.9 kmh NW 21.0 mph33.8 kmh 30.49 in1032.5 mb 0.00 in0.0 mm 0.00 in/hr0.0 mm/hr 0.00 in0.0 mm
03:01 AM 29.5°F-1.4°C 19.9°F-6.7°C 67% 16.0 mph NW25.7 kmh NW 21.0 mph33.8 kmh 30.48 in1032.2 mb 0.00 in0.0 mm 0.00 in/hr0.0 mm/hr 0.00 in0.0 mm
03:02 AM 29.6°F-1.3°C 20.0°F-6.7°C 67% 16.0 mph NNW25.7 kmh NNW 18.0 mph29.0 kmh 30.49 in1032.5 mb 0.00 in0.0 mm 0.00 in/hr0.0 mm/hr 0.00 in0.0 mm
03:03 AM 29.6°F-1.3°C 20.0°F-6.7°C 67% 11.0 mph NNW17.7 kmh NNW 18.0 mph29.0 kmh 30.49 in1032.5 mb 0.00 in0.0 mm 0.00 in/hr0.0 mm/hr 0.00 in0.0 mm
03:04 AM 29.6°F-1.3°C 20.0°F-6.7°C 67% 13.0 mph NW20.9 kmh NW 18.0 mph29.0 kmh 30.49 in1032.5 mb 0.00 in0.0 mm 0.00 in/hr0.0 mm/hr 0.00 in0.0 mm
03:05 AM 29.6°F-1.3°C 20.0°F-6.7°C 67% 18.0 mph NNW29.0 kmh NNW 21.0 mph33.8 kmh 30.49 in1032.5 mb 0.00 in0.0 mm 0.00 in/hr0.0 mm/hr 0.00 in0.0 mm
03:06 AM 29.5°F-1.4°C 19.9°F-6.7°C 67% 16.0 mph NNW25.7 kmh NNW 21.0 mph33.8 kmh 30.49 in1032.5 mb 0.00 in0.0 mm 0.00 in/hr0.0 mm/hr 0.00 in0.0 mm
03:07 AM 29.5°F-1.4°C 19.9°F-6.7°C 67% 15.0 mph NNW24.1 kmh NNW 21.0 mph33.8 kmh 30.49 in1032.5 mb 0.00 in0.0 mm 0.00 in/hr0.0 mm/hr 0.00 in0.0 mm
03:08 AM 29.4°F-1.4°C 19.8°F-6.8°C 67% 16.0 mph NNW25.7 kmh NNW 21.0 mph33.8 kmh 30.49 in1032.5 mb 0.00 in0.0 mm 0.00 in/hr0.0 mm/hr 0.00 in0.0 mm
03:09 AM 29.4°F-1.4°C 19.8°F-6.8°C 67% 15.0 mph NNW24.1 kmh NNW 21.0 mph33.8 kmh 30.49 in1032.5 mb 0.00 in0.0 mm 0.00 in/hr0.0 mm/hr 0.00 in0.0 mm
03:10 AM 29.4°F-1.4°C 20.2°F-6.6°C 68% 15.0 mph NNW24.1 kmh NNW 21.0 mph33.8 kmh 30.49 in1032.5 mb 0.00 in0.0 mm 0.00 in/hr0.0 mm/hr 0.00 in0.0 mm
03:11 AM 29.3°F-1.5°C 20.1°F-6.6°C 68% 14.0 mph NNW22.5 kmh NNW 21.0 mph33.8 kmh 30.49 in1032.5 mb 0.00 in0.0 mm 0.00 in/hr0.0 mm/hr 0.00 in0.0 mm
03:12 AM 29.3°F-1.5°C 20.1°F-6.6°C 68% 12.0 mph NW19.3 kmh NW 21.0 mph33.8 kmh 30.49 in1032.5 mb 0.00 in0.0 mm 0.00 in/hr0.0 mm/hr 0.00 in0.0 mm
03:13 AM 29.2°F-1.6°C 20.0°F-6.7°C 68% 13.0 mph NW20.9 kmh NW 21.0 mph33.8 kmh 30.49 in1032.5 mb 0.00 in0.0 mm 0.00 in/hr0.0 mm/hr 0.00 in0.0 mm
03:14 AM 29.1°F-1.6°C 19.9°F-6.7°C 68% 14.0 mph NNW22.5 kmh NNW 21.0 mph33.8 kmh 30.49 in1032.5 mb 0.00 in0.0 mm 0.00 in/hr0.0 mm/hr 0.00 in0.0 mm
03:15 AM 29.1°F-1.6°C 19.9°F-6.7°C 68% 13.0 mph NNW20.9 kmh NNW 21.0 mph33.8 kmh 30.49 in1032.5 mb 0.00 in0.0 mm 0.00 in/hr0.0 mm/hr 0.00 in0.0 mm
03:16 AM 29.1°F-1.6°C 19.9°F-6.7°C 68% 16.0 mph NNW25.7 kmh NNW 21.0 mph33.8 kmh 30.49 in1032.5 mb 0.00 in0.0 mm 0.00 in/hr0.0 mm/hr 0.00 in0.0 mm
03:17 AM 29.2°F-1.6°C 20.0°F-6.7°C 68% 17.0 mph NW27.4 kmh NW 21.0 mph33.8 kmh 30.49 in1032.5 mb 0.00 in0.0 mm 0.00 in/hr0.0 mm/hr 0.00 in0.0 mm
03:18 AM 29.2°F-1.6°C 20.0°F-6.7°C 68% 13.0 mph NW20.9 kmh NW 21.0 mph33.8 kmh 30.49 in1032.5 mb 0.00 in0.0 mm 0.00 in/hr0.0 mm/hr 0.00 in0.0 mm
03:19 AM 29.2°F-1.6°C 20.0°F-6.7°C 68% 14.0 mph NNW22.5 kmh NNW 21.0 mph33.8 kmh 30.49 in1032.5 mb 0.00 in0.0 mm 0.00 in/hr0.0 mm/hr 0.00 in0.0 mm
03:20 AM 29.2°F-1.6°C 20.0°F-6.7°C 68% 12.0 mph NW19.3 kmh NW 21.0 mph33.8 kmh 30.50 in1032.8 mb 0.00 in0.0 mm 0.00 in/hr0.0 mm/hr 0.00 in0.0 mm
03:21 AM 29.2°F-1.6°C 20.0°F-6.7°C 68% 11.0 mph NNW17.7 kmh NNW 21.0 mph33.8 kmh 30.49 in1032.5 mb 0.00 in0.0 mm 0.00 in/hr0.0 mm/hr 0.00 in0.0 mm
03:22 AM 29.2°F-1.6°C 20.0°F-6.7°C 68% 11.0 mph NW17.7 kmh NW 21.0 mph33.8 kmh 30.49 in1032.5 mb 0.00 in0.0 mm 0.00 in/hr0.0 mm/hr 0.00 in0.0 mm
03:23 AM 29.2°F-1.6°C 20.0°F-6.7°C 68% 14.0 mph NNW22.5 kmh NNW 21.0 mph33.8 kmh 30.49 in1032.5 mb 0.00 in0.0 mm 0.00 in/hr0.0 mm/hr 0.00 in0.0 mm
03:24 AM 29.2°F-1.6°C 20.0°F-6.7°C 68% 12.0 mph NW19.3 kmh NW 21.0 mph33.8 kmh 30.49 in1032.5 mb 0.00 in0.0 mm 0.00 in/hr0.0 mm/hr 0.00 in0.0 mm
03:25 AM 29.2°F-1.6°C 20.0°F-6.7°C 68% 12.0 mph NW19.3 kmh NW 21.0 mph33.8 kmh 30.49 in1032.5 mb 0.00 in0.0 mm 0.00 in/hr0.0 mm/hr 0.00 in0.0 mm
03:26 AM 29.1°F-1.6°C 19.9°F-6.7°C 68% 14.0 mph NNW22.5 kmh NNW 21.0 mph33.8 kmh 30.49 in1032.5 mb 0.00 in0.0 mm 0.00 in/hr0.0 mm/hr 0.00 in0.0 mm
03:27 AM 29.1°F-1.6°C 19.9°F-6.7°C 68% 15.0 mph NNW24.1 kmh NNW 21.0 mph33.8 kmh 30.49 in1032.5 mb 0.00 in0.0 mm 0.00 in/hr0.0 mm/hr 0.00 in0.0 mm
03:28 AM 29.1°F-1.6°C 19.9°F-6.7°C 68% 12.0 mph NNW19.3 kmh NNW 21.0 mph33.8 kmh 30.49 in1032.5 mb 0.00 in0.0 mm 0.00 in/hr0.0 mm/hr 0.00 in0.0 mm
03:29 AM 29.1°F-1.6°C 19.9°F-6.7°C 68% 15.0 mph NNW24.1 kmh NNW 21.0 mph33.8 kmh 30.49 in1032.5 mb 0.00 in0.0 mm 0.00 in/hr0.0 mm/hr 0.00 in0.0 mm
03:30 AM 29.0°F-1.7°C 20.1°F-6.6°C 69% 13.0 mph NW20.9 kmh NW 21.0 mph33.8 kmh 30.49 in1032.5 mb 0.00 in0.0 mm 0.00 in/hr0.0 mm/hr 0.00 in0.0 mm
03:31 AM 29.0°F-1.7°C 19.8°F-6.8°C 68% 13.0 mph NW20.9 kmh NW 21.0 mph33.8 kmh 30.49 in1032.5 mb 0.00 in0.0 mm 0.00 in/hr0.0 mm/hr 0.00 in0.0 mm
03:32 AM 28.9°F-1.7°C 20.0°F-6.7°C 69% 16.0 mph NW25.7 kmh NW 19.0 mph30.6 kmh 30.49 in1032.5 mb 0.00 in0.0 mm 0.00 in/hr0.0 mm/hr 0.00 in0.0 mm
03:33 AM 28.9°F-1.7°C 20.0°F-6.7°C 69% 15.0 mph NW24.1 kmh NW 19.0 mph30.6 kmh 30.49 in1032.5 mb 0.00 in0.0 mm 0.00 in/hr0.0 mm/hr 0.00 in0.0 mm
03:34 AM 28.9°F-1.7°C 20.0°F-6.7°C 69% 13.0 mph NNW20.9 kmh NNW 19.0 mph30.6 kmh 30.49 in1032.5 mb 0.00 in0.0 mm 0.00 in/hr0.0 mm/hr 0.00 in0.0 mm
03:35 AM 28.8°F-1.8°C 19.9°F-6.7°C 69% 11.0 mph NNW17.7 kmh NNW 19.0 mph30.6 kmh 30.49 in1032.5 mb 0.00 in0.0 mm 0.00 in/hr0.0 mm/hr 0.00 in0.0 mm
03:36 AM 28.8°F-1.8°C 19.9°F-6.7°C 69% 12.0 mph NW19.3 kmh NW 19.0 mph30.6 kmh 30.49 in1032.5 mb 0.00 in0.0 mm 0.00 in/hr0.0 mm/hr 0.00 in0.0 mm
03:37 AM 28.8°F-1.8°C 19.9°F-6.7°C 69% 17.0 mph NW27.4 kmh NW 20.0 mph32.2 kmh 30.49 in1032.5 mb 0.00 in0.0 mm 0.00 in/hr0.0 mm/hr 0.00 in0.0 mm
03:38 AM 28.8°F-1.8°C 19.9°F-6.7°C 69% 13.0 mph NNW20.9 kmh NNW 20.0 mph32.2 kmh 30.49 in1032.5 mb 0.00 in0.0 mm 0.00 in/hr0.0 mm/hr 0.00 in0.0 mm
03:39 AM 28.8°F-1.8°C 19.9°F-6.7°C 69% 17.0 mph NNW27.4 kmh NNW 20.0 mph32.2 kmh 30.49 in1032.5 mb 0.00 in0.0 mm 0.00 in/hr0.0 mm/hr 0.00 in0.0 mm
03:40 AM 28.8°F-1.8°C 19.9°F-6.7°C 69% 13.0 mph NW20.9 kmh NW 20.0 mph32.2 kmh 30.49 in1032.5 mb 0.00 in0.0 mm 0.00 in/hr0.0 mm/hr 0.00 in0.0 mm
03:41 AM 28.7°F-1.8°C 19.8°F-6.8°C 69% 12.0 mph NNW19.3 kmh NNW 20.0 mph32.2 kmh 30.49 in1032.5 mb 0.00 in0.0 mm 0.00 in/hr0.0 mm/hr 0.00 in0.0 mm
03:42 AM 28.7°F-1.8°C 19.8°F-6.8°C 69% 10.0 mph NW16.1 kmh NW 20.0 mph32.2 kmh 30.49 in1032.5 mb 0.00 in0.0 mm 0.00 in/hr0.0 mm/hr 0.00 in0.0 mm
03:43 AM 28.7°F-1.8°C 19.8°F-6.8°C 69% 13.0 mph NW20.9 kmh NW 20.0 mph32.2 kmh 30.49 in1032.5 mb 0.00 in0.0 mm 0.00 in/hr0.0 mm/hr 0.00 in0.0 mm
03:44 AM 28.7°F-1.8°C 19.8°F-6.8°C 69% 11.0 mph NW17.7 kmh NW 20.0 mph32.2 kmh 30.49 in1032.5 mb 0.00 in0.0 mm 0.00 in/hr0.0 mm/hr 0.00 in0.0 mm
03:45 AM 28.6°F-1.9°C 19.7°F-6.8°C 69% 11.0 mph NNW17.7 kmh NNW 20.0 mph32.2 kmh 30.49 in1032.5 mb 0.00 in0.0 mm 0.00 in/hr0.0 mm/hr 0.00 in0.0 mm
03:46 AM 28.6°F-1.9°C 19.7°F-6.8°C 69% 12.0 mph NNW19.3 kmh NNW 20.0 mph32.2 kmh 30.50 in1032.8 mb 0.00 in0.0 mm 0.00 in/hr0.0 mm/hr 0.00 in0.0 mm
03:47 AM 28.6°F-1.9°C 19.7°F-6.8°C 69% 13.0 mph NNW20.9 kmh NNW 20.0 mph32.2 kmh 30.50 in1032.8 mb 0.00 in0.0 mm 0.00 in/hr0.0 mm/hr 0.00 in0.0 mm
03:48 AM 28.6°F-1.9°C 19.7°F-6.8°C 69% 13.0 mph NNW20.9 kmh NNW 20.0 mph32.2 kmh 30.50 in1032.8 mb 0.00 in0.0 mm 0.00 in/hr0.0 mm/hr 0.00 in0.0 mm
03:49 AM 28.6°F-1.9°C 19.7°F-6.8°C 69% 15.0 mph NNW24.1 kmh NNW 20.0 mph32.2 kmh 30.50 in1032.8 mb 0.00 in0.0 mm 0.00 in/hr0.0 mm/hr 0.00 in0.0 mm
03:50 AM 28.6°F-1.9°C 19.7°F-6.8°C 69% 13.0 mph NW20.9 kmh NW 20.0 mph32.2 kmh 30.50 in1032.8 mb 0.00 in0.0 mm 0.00 in/hr0.0 mm/hr 0.00 in0.0 mm
03:51 AM 28.6°F-1.9°C 19.7°F-6.8°C 69% 14.0 mph NNW22.5 kmh NNW 20.0 mph32.2 kmh 30.50 in1032.8 mb 0.00 in0.0 mm 0.00 in/hr0.0 mm/hr 0.00 in0.0 mm
03:52 AM 28.5°F-1.9°C 19.6°F-6.9°C 69% 14.0 mph NNW22.5 kmh NNW 20.0 mph32.2 kmh 30.50 in1032.8 mb 0.00 in0.0 mm 0.00 in/hr0.0 mm/hr 0.00 in0.0 mm
03:53 AM 28.5°F-1.9°C 19.6°F-6.9°C 69% 16.0 mph NNW25.7 kmh NNW 20.0 mph32.2 kmh 30.50 in1032.8 mb 0.00 in0.0 mm 0.00 in/hr0.0 mm/hr 0.00 in0.0 mm
03:54 AM 28.5°F-1.9°C 19.6°F-6.9°C 69% 11.0 mph NNW17.7 kmh NNW 20.0 mph32.2 kmh 30.50 in1032.8 mb 0.00 in0.0 mm 0.00 in/hr0.0 mm/hr 0.00 in0.0 mm
03:55 AM 28.5°F-1.9°C 20.0°F-6.7°C 70% 11.0 mph NNW17.7 kmh NNW 20.0 mph32.2 kmh 30.50 in1032.8 mb 0.00 in0.0 mm 0.00 in/hr0.0 mm/hr 0.00 in0.0 mm
03:56 AM 28.4°F-2.0°C 19.9°F-6.7°C 70% 14.0 mph NNW22.5 kmh NNW 20.0 mph32.2 kmh 30.50 in1032.8 mb 0.00 in0.0 mm 0.00 in/hr0.0 mm/hr 0.00 in0.0 mm
03:57 AM 28.4°F-2.0°C 19.9°F-6.7°C 70% 13.0 mph NNW20.9 kmh NNW 20.0 mph32.2 kmh 30.50 in1032.8 mb 0.00 in0.0 mm 0.00 in/hr0.0 mm/hr 0.00 in0.0 mm
03:58 AM 28.4°F-2.0°C 19.9°F-6.7°C 70% 10.0 mph NNW16.1 kmh NNW 20.0 mph32.2 kmh 30.50 in1032.8 mb 0.00 in0.0 mm 0.00 in/hr0.0 mm/hr 0.00 in0.0 mm
03:59 AM 28.4°F-2.0°C 19.9°F-6.7°C 70% 12.0 mph NW19.3 kmh NW 20.0 mph32.2 kmh 30.50 in1032.8 mb 0.00 in0.0 mm 0.00 in/hr0.0 mm/hr 0.00 in0.0 mm
04:00 AM 28.3°F-2.1°C 19.8°F-6.8°C 70% 10.0 mph NW16.1 kmh NW 20.0 mph32.2 kmh 30.50 in1032.8 mb 0.00 in0.0 mm 0.00 in/hr0.0 mm/hr 0.00 in0.0 mm
04:01 AM 28.3°F-2.1°C 19.8°F-6.8°C 70% 11.0 mph NW17.7 kmh NW 20.0 mph32.2 kmh 30.50 in1032.8 mb 0.00 in0.0 mm 0.00 in/hr0.0 mm/hr 0.00 in0.0 mm
04:02 AM 28.2°F-2.1°C 19.7°F-6.8°C 70% 13.0 mph NNW20.9 kmh NNW 16.0 mph25.7 kmh 30.50 in1032.8 mb 0.00 in0.0 mm 0.00 in/hr0.0 mm/hr 0.00 in0.0 mm
04:03 AM 28.2°F-2.1°C 19.7°F-6.8°C 70% 14.0 mph NW22.5 kmh NW 16.0 mph25.7 kmh 30.50 in1032.8 mb 0.00 in0.0 mm 0.00 in/hr0.0 mm/hr 0.00 in0.0 mm
04:04 AM 28.2°F-2.1°C 19.7°F-6.8°C 70% 13.0 mph N20.9 kmh N 16.0 mph25.7 kmh 30.50 in1032.8 mb 0.00 in0.0 mm 0.00 in/hr0.0 mm/hr 0.00 in0.0 mm
04:05 AM 28.1°F-2.2°C 19.6°F-6.9°C 70% 11.0 mph N17.7 kmh N 16.0 mph25.7 kmh 30.50 in1032.8 mb 0.00 in0.0 mm 0.00 in/hr0.0 mm/hr 0.00 in0.0 mm
04:06 AM 28.1°F-2.2°C 19.6°F-6.9°C 70% 10.0 mph NNW16.1 kmh NNW 16.0 mph25.7 kmh 30.50 in1032.8 mb 0.00 in0.0 mm 0.00 in/hr0.0 mm/hr 0.00 in0.0 mm
04:07 AM 28.1°F-2.2°C 19.6°F-6.9°C 70% 16.0 mph NW25.7 kmh NW 16.0 mph25.7 kmh 30.50 in1032.8 mb 0.00 in0.0 mm 0.00 in/hr0.0 mm/hr 0.00 in0.0 mm
04:08 AM 28.1°F-2.2°C 19.6°F-6.9°C 70% 13.0 mph NW20.9 kmh NW 16.0 mph25.7 kmh 30.50 in1032.8 mb 0.00 in0.0 mm 0.00 in/hr0.0 mm/hr 0.00 in0.0 mm
04:09 AM 28.0°F-2.2°C 19.5°F-6.9°C 70% 10.0 mph NW16.1 kmh NW 16.0 mph25.7 kmh 30.50 in1032.8 mb 0.00 in0.0 mm 0.00 in/hr0.0 mm/hr 0.00 in0.0 mm
04:10 AM 28.0°F-2.2°C 19.8°F-6.8°C 71% 13.0 mph NNW20.9 kmh NNW 16.0 mph25.7 kmh 30.50 in1032.8 mb 0.00 in0.0 mm 0.00 in/hr0.0 mm/hr 0.00 in0.0 mm
04:11 AM 27.9°F-2.3°C 19.7°F-6.8°C 71% 12.0 mph NW19.3 kmh NW 16.0 mph25.7 kmh 30.50 in1032.8 mb 0.00 in0.0 mm 0.00 in/hr0.0 mm/hr 0.00 in0.0 mm
04:12 AM 27.9°F-2.3°C 19.7°F-6.8°C 71% 12.0 mph NW19.3 kmh NW 16.0 mph25.7 kmh 30.50 in1032.8 mb 0.00 in0.0 mm 0.00 in/hr0.0 mm/hr 0.00 in0.0 mm
04:13 AM 27.9°F-2.3°C 19.7°F-6.8°C 71% 14.0 mph NW22.5 kmh NW 16.0 mph25.7 kmh 30.50 in1032.8 mb 0.00 in0.0 mm 0.00 in/hr0.0 mm/hr 0.00 in0.0 mm
04:14 AM 27.8°F-2.3°C 19.6°F-6.9°C 71% 13.0 mph NW20.9 kmh NW 18.0 mph29.0 kmh 30.50 in1032.8 mb 0.00 in0.0 mm 0.00 in/hr0.0 mm/hr 0.00 in0.0 mm
04:15 AM 27.8°F-2.3°C 19.6°F-6.9°C 71% 10.0 mph NW16.1 kmh NW 18.0 mph29.0 kmh 30.50 in1032.8 mb 0.00 in0.0 mm 0.00 in/hr0.0 mm/hr 0.00 in0.0 mm
04:16 AM 27.7°F-2.4°C 19.9°F-6.7°C 72% 13.0 mph NW20.9 kmh NW 18.0 mph29.0 kmh 30.50 in1032.8 mb 0.00 in0.0 mm 0.00 in/hr0.0 mm/hr 0.00 in0.0 mm
04:17 AM 27.6°F-2.4°C 19.8°F-6.8°C 72% 12.0 mph NNW19.3 kmh NNW 18.0 mph29.0 kmh 30.50 in1032.8 mb 0.00 in0.0 mm 0.00 in/hr0.0 mm/hr 0.00 in0.0 mm
04:18 AM 27.6°F-2.4°C 19.8°F-6.8°C 72% 12.0 mph NNW19.3 kmh NNW 18.0 mph29.0 kmh 30.50 in1032.8 mb 0.00 in0.0 mm 0.00 in/hr0.0 mm/hr 0.00 in0.0 mm
04:19 AM 27.5°F-2.5°C 19.7°F-6.8°C 72% 14.0 mph NNW22.5 kmh NNW 18.0 mph29.0 kmh 30.50 in1032.8 mb 0.00 in0.0 mm 0.00 in/hr0.0 mm/hr 0.00 in0.0 mm
04:20 AM 27.5°F-2.5°C 19.7°F-6.8°C 72% 13.0 mph NNW20.9 kmh NNW 18.0 mph29.0 kmh 30.50 in1032.8 mb 0.00 in0.0 mm 0.00 in/hr0.0 mm/hr 0.00 in0.0 mm
04:21 AM 27.5°F-2.5°C 19.7°F-6.8°C 72% 11.0 mph NW17.7 kmh NW 18.0 mph29.0 kmh 30.50 in1032.8 mb 0.00 in0.0 mm 0.00 in/hr0.0 mm/hr 0.00 in0.0 mm
04:22 AM 27.5°F-2.5°C 19.7°F-6.8°C 72% 13.0 mph NNW20.9 kmh NNW 18.0 mph29.0 kmh 30.50 in1032.8 mb 0.00 in0.0 mm 0.00 in/hr0.0 mm/hr 0.00 in0.0 mm
04:23 AM 27.5°F-2.5°C 19.7°F-6.8°C 72% 13.0 mph NNW20.9 kmh NNW 18.0 mph29.0 kmh 30.51 in1033.2 mb 0.00 in0.0 mm 0.00 in/hr0.0 mm/hr 0.00 in0.0 mm
04:24 AM 27.5°F-2.5°C 19.7°F-6.8°C 72% 9.0 mph NW14.5 kmh NW 18.0 mph29.0 kmh 30.51 in1033.2 mb 0.00 in0.0 mm 0.00 in/hr0.0 mm/hr 0.00 in0.0 mm
04:25 AM 27.5°F-2.5°C 19.7°F-6.8°C 72% 11.0 mph NNW17.7 kmh NNW 18.0 mph29.0 kmh 30.51 in1033.2 mb 0.00 in0.0 mm 0.00 in/hr0.0 mm/hr 0.00 in0.0 mm
04:26 AM 27.5°F-2.5°C 19.7°F-6.8°C 72% 11.0 mph NNW17.7 kmh NNW 18.0 mph29.0 kmh 30.51 in1033.2 mb 0.00 in0.0 mm 0.00 in/hr0.0 mm/hr 0.00 in0.0 mm
04:27 AM 27.5°F-2.5°C 19.7°F-6.8°C 72% 10.0 mph NW16.1 kmh NW 18.0 mph29.0 kmh 30.51 in1033.2 mb 0.00 in0.0 mm 0.00 in/hr0.0 mm/hr 0.00 in0.0 mm
04:28 AM 27.5°F-2.5°C 19.7°F-6.8°C 72% 13.0 mph NNW20.9 kmh NNW 18.0 mph29.0 kmh 30.51 in1033.2 mb 0.00 in0.0 mm 0.00 in/hr0.0 mm/hr 0.00 in0.0 mm
04:29 AM 27.4°F-2.6°C 19.6°F-6.9°C 72% 10.0 mph NW16.1 kmh NW 18.0 mph29.0 kmh 30.51 in1033.2 mb 0.00 in0.0 mm 0.00 in/hr0.0 mm/hr 0.00 in0.0 mm
04:30 AM 27.3°F-2.6°C 19.5°F-6.9°C 72% 12.0 mph NW19.3 kmh NW 18.0 mph29.0 kmh 30.51 in1033.2 mb 0.00 in0.0 mm 0.00 in/hr0.0 mm/hr 0.00 in0.0 mm
04:31 AM 27.3°F-2.6°C 19.8°F-6.8°C 73% 9.0 mph NNW14.5 kmh NNW 18.0 mph29.0 kmh 30.50 in1032.8 mb 0.00 in0.0 mm 0.00 in/hr0.0 mm/hr 0.00 in0.0 mm
04:32 AM 27.2°F-2.7°C 19.7°F-6.8°C 73% 14.0 mph NNW22.5 kmh NNW 14.0 mph22.5 kmh 30.51 in1033.2 mb 0.00 in0.0 mm 0.00 in/hr0.0 mm/hr 0.00 in0.0 mm
04:33 AM 27.2°F-2.7°C 19.7°F-6.8°C 73% 11.0 mph NW17.7 kmh NW 15.0 mph24.1 kmh 30.51 in1033.2 mb 0.00 in0.0 mm 0.00 in/hr0.0 mm/hr 0.00 in0.0 mm
04:34 AM 27.1°F-2.7°C 19.6°F-6.9°C 73% 10.0 mph NW16.1 kmh NW 15.0 mph24.1 kmh 30.51 in1033.2 mb 0.00 in0.0 mm 0.00 in/hr0.0 mm/hr 0.00 in0.0 mm
04:35 AM 27.1°F-2.7°C 19.6°F-6.9°C 73% 11.0 mph NW17.7 kmh NW 15.0 mph24.1 kmh 30.51 in1033.2 mb 0.00 in0.0 mm 0.00 in/hr0.0 mm/hr 0.00 in0.0 mm
04:36 AM 27.1°F-2.7°C 19.6°F-6.9°C 73% 10.0 mph NW16.1 kmh NW 15.0 mph24.1 kmh 30.51 in1033.2 mb 0.00 in0.0 mm 0.00 in/hr0.0 mm/hr 0.00 in0.0 mm
04:37 AM 27.0°F-2.8°C 19.5°F-6.9°C 73% 11.0 mph NW17.7 kmh NW 15.0 mph24.1 kmh 30.51 in1033.2 mb 0.00 in0.0 mm 0.00 in/hr0.0 mm/hr 0.00 in0.0 mm
04:38 AM 27.0°F-2.8°C 19.5°F-6.9°C 73% 11.0 mph NNW17.7 kmh NNW 15.0 mph24.1 kmh 30.51 in1033.2 mb 0.00 in0.0 mm 0.00 in/hr0.0 mm/hr 0.00 in0.0 mm
04:39 AM 27.0°F-2.8°C 19.5°F-6.9°C 73% 11.0 mph NNW17.7 kmh NNW 15.0 mph24.1 kmh 30.51 in1033.2 mb 0.00 in0.0 mm 0.00 in/hr0.0 mm/hr 0.00 in0.0 mm
04:40 AM 27.0°F-2.8°C 19.5°F-6.9°C 73% 12.0 mph NW19.3 kmh NW 15.0 mph24.1 kmh 30.51 in1033.2 mb 0.00 in0.0 mm 0.00 in/hr0.0 mm/hr 0.00 in0.0 mm
04:41 AM 27.0°F-2.8°C 19.5°F-6.9°C 73% 11.0 mph NNW17.7 kmh NNW 15.0 mph24.1 kmh 30.51 in1033.2 mb 0.00 in0.0 mm 0.00 in/hr0.0 mm/hr 0.00 in0.0 mm
04:42 AM 27.0°F-2.8°C 19.8°F-6.8°C 74% 13.0 mph NW20.9 kmh NW 15.0 mph24.1 kmh 30.51 in1033.2 mb 0.00 in0.0 mm 0.00 in/hr0.0 mm/hr 0.00 in0.0 mm
04:43 AM 27.0°F-2.8°C 19.8°F-6.8°C 74% 12.0 mph NNW19.3 kmh NNW 16.0 mph25.7 kmh 30.51 in1033.2 mb 0.00 in0.0 mm 0.00 in/hr0.0 mm/hr 0.00 in0.0 mm
04:44 AM 27.0°F-2.8°C 19.5°F-6.9°C 73% 13.0 mph NW20.9 kmh NW 16.0 mph25.7 kmh 30.51 in1033.2 mb 0.00 in0.0 mm 0.00 in/hr0.0 mm/hr 0.00 in0.0 mm
04:45 AM 27.0°F-2.8°C 19.5°F-6.9°C 73% 12.0 mph NNW19.3 kmh NNW 16.0 mph25.7 kmh 30.51 in1033.2 mb 0.00 in0.0 mm 0.00 in/hr0.0 mm/hr 0.00 in0.0 mm
04:46 AM 27.0°F-2.8°C 19.8°F-6.8°C 74% 12.0 mph NW19.3 kmh NW 16.0 mph25.7 kmh 30.51 in1033.2 mb 0.00 in0.0 mm 0.00 in/hr0.0 mm/hr 0.00 in0.0 mm
04:47 AM 27.0°F-2.8°C 19.8°F-6.8°C 74% 13.0 mph NNW20.9 kmh NNW 16.0 mph25.7 kmh 30.51 in1033.2 mb 0.00 in0.0 mm 0.00 in/hr0.0 mm/hr 0.00 in0.0 mm
04:48 AM 27.0°F-2.8°C 19.8°F-6.8°C 74% 11.0 mph NW17.7 kmh NW 16.0 mph25.7 kmh 30.51 in1033.2 mb 0.00 in0.0 mm 0.00 in/hr0.0 mm/hr 0.00 in0.0 mm
04:49 AM 26.9°F-2.8°C 19.7°F-6.8°C 74% 12.0 mph NNW19.3 kmh NNW 16.0 mph25.7 kmh 30.51 in1033.2 mb 0.00 in0.0 mm 0.00 in/hr0.0 mm/hr 0.00 in0.0 mm
04:50 AM 26.9°F-2.8°C 19.7°F-6.8°C 74% 7.0 mph NNW11.3 kmh NNW 16.0 mph25.7 kmh 30.51 in1033.2 mb 0.00 in0.0 mm 0.00 in/hr0.0 mm/hr 0.00 in0.0 mm
04:51 AM 26.9°F-2.8°C 19.7°F-6.8°C 74% 9.0 mph NNW14.5 kmh NNW 16.0 mph25.7 kmh 30.51 in1033.2 mb 0.00 in0.0 mm 0.00 in/hr0.0 mm/hr 0.00 in0.0 mm
04:52 AM 26.9°F-2.8°C 19.7°F-6.8°C 74% 9.0 mph N14.5 kmh N 16.0 mph25.7 kmh 30.51 in1033.2 mb 0.00 in0.0 mm 0.00 in/hr0.0 mm/hr 0.00 in0.0 mm
04:53 AM 26.8°F-2.9°C 19.6°F-6.9°C 74% 12.0 mph NNW19.3 kmh NNW 16.0 mph25.7 kmh 30.51 in1033.2 mb 0.00 in0.0 mm 0.00 in/hr0.0 mm/hr 0.00 in0.0 mm
04:54 AM 26.8°F-2.9°C 19.6°F-6.9°C 74% 10.0 mph NNW16.1 kmh NNW 17.0 mph27.4 kmh 30.51 in1033.2 mb 0.00 in0.0 mm 0.00 in/hr0.0 mm/hr 0.00 in0.0 mm
04:55 AM 26.8°F-2.9°C 19.6°F-6.9°C 74% 14.0 mph NNW22.5 kmh NNW 17.0 mph27.4 kmh 30.51 in1033.2 mb 0.00 in0.0 mm 0.00 in/hr0.0 mm/hr 0.00 in0.0 mm
04:56 AM 26.8°F-2.9°C 19.6°F-6.9°C 74% 10.0 mph NW16.1 kmh NW 17.0 mph27.4 kmh 30.51 in1033.2 mb 0.00 in0.0 mm 0.00 in/hr0.0 mm/hr 0.00 in0.0 mm
04:57 AM 26.8°F-2.9°C 19.6°F-6.9°C 74% 13.0 mph NNW20.9 kmh NNW 17.0 mph27.4 kmh 30.51 in1033.2 mb 0.00 in0.0 mm 0.00 in/hr0.0 mm/hr 0.00 in0.0 mm
04:58 AM 26.7°F-2.9°C 19.9°F-6.7°C 75% 8.0 mph NNW12.9 kmh NNW 17.0 mph27.4 kmh 30.51 in1033.2 mb 0.00 in0.0 mm 0.00 in/hr0.0 mm/hr 0.00 in0.0 mm
04:59 AM 26.7°F-2.9°C 19.5°F-6.9°C 74% 12.0 mph NNW19.3 kmh NNW 17.0 mph27.4 kmh 30.52 in1033.5 mb 0.00 in0.0 mm 0.00 in/hr0.0 mm/hr 0.00 in0.0 mm
05:00 AM 26.7°F-2.9°C 19.9°F-6.7°C 75% 10.0 mph NW16.1 kmh NW 17.0 mph27.4 kmh 30.52 in1033.5 mb 0.00 in0.0 mm 0.00 in/hr0.0 mm/hr 0.00 in0.0 mm
05:01 AM 26.6°F-3.0°C 19.8°F-6.8°C 75% 11.0 mph NW17.7 kmh NW 17.0 mph27.4 kmh 30.52 in1033.5 mb 0.00 in0.0 mm 0.00 in/hr0.0 mm/hr 0.00 in0.0 mm
05:02 AM 26.6°F-3.0°C 19.8°F-6.8°C 75% 14.0 mph NNW22.5 kmh NNW 14.0 mph22.5 kmh 30.52 in1033.5 mb 0.00 in0.0 mm 0.00 in/hr0.0 mm/hr 0.00 in0.0 mm
05:03 AM 26.6°F-3.0°C 19.8°F-6.8°C 75% 9.0 mph NNW14.5 kmh NNW 14.0 mph22.5 kmh 30.52 in1033.5 mb 0.00 in0.0 mm 0.00 in/hr0.0 mm/hr 0.00 in0.0 mm
05:04 AM 26.5°F-3.1°C 19.7°F-6.8°C 75% 10.0 mph NW16.1 kmh NW 14.0 mph22.5 kmh 30.52 in1033.5 mb 0.00 in0.0 mm 0.00 in/hr0.0 mm/hr 0.00 in0.0 mm
05:05 AM 26.5°F-3.1°C 19.7°F-6.8°C 75% 9.0 mph NNW14.5 kmh NNW 14.0 mph22.5 kmh 30.53 in1033.9 mb 0.00 in0.0 mm 0.00 in/hr0.0 mm/hr 0.00 in0.0 mm
05:06 AM 26.5°F-3.1°C 19.7°F-6.8°C 75% 10.0 mph NW16.1 kmh NW 14.0 mph22.5 kmh 30.52 in1033.5 mb 0.00 in0.0 mm 0.00 in/hr0.0 mm/hr 0.00 in0.0 mm
05:07 AM 26.4°F-3.1°C 19.6°F-6.9°C 75% 11.0 mph NW17.7 kmh NW 14.0 mph22.5 kmh 30.52 in1033.5 mb 0.00 in0.0 mm 0.00 in/hr0.0 mm/hr 0.00 in0.0 mm
05:08 AM 26.4°F-3.1°C 19.9°F-6.7°C 76% 13.0 mph NW20.9 kmh NW 14.0 mph22.5 kmh 30.52 in1033.5 mb 0.00 in0.0 mm 0.00 in/hr0.0 mm/hr 0.00 in0.0 mm
05:09 AM 26.4°F-3.1°C 19.9°F-6.7°C 76% 11.0 mph NW17.7 kmh NW 14.0 mph22.5 kmh 30.53 in1033.9 mb 0.00 in0.0 mm 0.00 in/hr0.0 mm/hr 0.00 in0.0 mm
05:10 AM 26.3°F-3.2°C 19.8°F-6.8°C 76% 12.0 mph NNW19.3 kmh NNW 14.0 mph22.5 kmh 30.53 in1033.9 mb 0.00 in0.0 mm 0.00 in/hr0.0 mm/hr 0.00 in0.0 mm
05:11 AM 26.3°F-3.2°C 19.8°F-6.8°C 76% 10.0 mph NW16.1 kmh NW 14.0 mph22.5 kmh 30.53 in1033.9 mb 0.00 in0.0 mm 0.00 in/hr0.0 mm/hr 0.00 in0.0 mm
05:12 AM 26.2°F-3.2°C 19.7°F-6.8°C 76% 10.0 mph NNW16.1 kmh NNW 14.0 mph22.5 kmh 30.53 in1033.9 mb 0.00 in0.0 mm 0.00 in/hr0.0 mm/hr 0.00 in0.0 mm
05:13 AM 26.2°F-3.2°C 19.7°F-6.8°C 76% 9.0 mph NW14.5 kmh NW 14.0 mph22.5 kmh 30.53 in1033.9 mb 0.00 in0.0 mm 0.00 in/hr0.0 mm/hr 0.00 in0.0 mm
05:14 AM 26.1°F-3.3°C 19.6°F-6.9°C 76% 10.0 mph NW16.1 kmh NW 14.0 mph22.5 kmh 30.53 in1033.9 mb 0.00 in0.0 mm 0.00 in/hr0.0 mm/hr 0.00 in0.0 mm
05:15 AM 26.1°F-3.3°C 19.9°F-6.7°C 77% 10.0 mph NW16.1 kmh NW 14.0 mph22.5 kmh 30.53 in1033.9 mb 0.00 in0.0 mm 0.00 in/hr0.0 mm/hr 0.00 in0.0 mm
05:16 AM 26.0°F-3.3°C 19.8°F-6.8°C 77% 11.0 mph NW17.7 kmh NW 14.0 mph22.5 kmh 30.53 in1033.9 mb 0.00 in0.0 mm 0.00 in/hr0.0 mm/hr 0.00 in0.0 mm
05:17 AM 26.0°F-3.3°C 19.8°F-6.8°C 77% 12.0 mph NW19.3 kmh NW 14.0 mph22.5 kmh 30.53 in1033.9 mb 0.00 in0.0 mm 0.00 in/hr0.0 mm/hr 0.00 in0.0 mm
05:18 AM 25.9°F-3.4°C 19.7°F-6.8°C 77% 11.0 mph NW17.7 kmh NW 14.0 mph22.5 kmh 30.53 in1033.9 mb 0.00 in0.0 mm 0.00 in/hr0.0 mm/hr 0.00 in0.0 mm
05:19 AM 25.8°F-3.4°C 19.6°F-6.9°C 77% 12.0 mph NW19.3 kmh NW 14.0 mph22.5 kmh 30.53 in1033.9 mb 0.00 in0.0 mm 0.00 in/hr0.0 mm/hr 0.00 in0.0 mm
05:20 AM 25.8°F-3.4°C 19.6°F-6.9°C 77% 10.0 mph NNW16.1 kmh NNW 14.0 mph22.5 kmh 30.53 in1033.9 mb 0.00 in0.0 mm 0.00 in/hr0.0 mm/hr 0.00 in0.0 mm
05:21 AM 25.7°F-3.5°C 19.5°F-6.9°C 77% 11.0 mph NW17.7 kmh NW 14.0 mph22.5 kmh 30.53 in1033.9 mb 0.00 in0.0 mm 0.00 in/hr0.0 mm/hr 0.00 in0.0 mm
05:22 AM 25.7°F-3.5°C 19.5°F-6.9°C 77% 8.0 mph NW12.9 kmh NW 14.0 mph22.5 kmh 30.53 in1033.9 mb 0.00 in0.0 mm 0.00 in/hr0.0 mm/hr 0.00 in0.0 mm
05:23 AM 25.6°F-3.6°C 19.4°F-7.0°C 77% 11.0 mph NW17.7 kmh NW 14.0 mph22.5 kmh 30.53 in1033.9 mb 0.00 in0.0 mm 0.00 in/hr0.0 mm/hr 0.00 in0.0 mm
05:24 AM 25.6°F-3.6°C 19.7°F-6.8°C 78% 9.0 mph NW14.5 kmh NW 14.0 mph22.5 kmh 30.53 in1033.9 mb 0.00 in0.0 mm 0.00 in/hr0.0 mm/hr 0.00 in0.0 mm
05:25 AM 25.6°F-3.6°C 19.7°F-6.8°C 78% 12.0 mph N19.3 kmh N 14.0 mph22.5 kmh 30.53 in1033.9 mb 0.00 in0.0 mm 0.00 in/hr0.0 mm/hr 0.00 in0.0 mm
05:26 AM 25.6°F-3.6°C 19.7°F-6.8°C 78% 11.0 mph NW17.7 kmh NW 14.0 mph22.5 kmh 30.53 in1033.9 mb 0.00 in0.0 mm 0.00 in/hr0.0 mm/hr 0.00 in0.0 mm
05:27 AM 25.6°F-3.6°C 19.7°F-6.8°C 78% 11.0 mph NW17.7 kmh NW 14.0 mph22.5 kmh 30.53 in1033.9 mb 0.00 in0.0 mm 0.00 in/hr0.0 mm/hr 0.00 in0.0 mm
05:28 AM 25.6°F-3.6°C 19.7°F-6.8°C 78% 9.0 mph NW14.5 kmh NW 14.0 mph22.5 kmh 30.53 in1033.9 mb 0.00 in0.0 mm 0.00 in/hr0.0 mm/hr 0.00 in0.0 mm
05:29 AM 25.5°F-3.6°C 19.6°F-6.9°C 78% 9.0 mph NW14.5 kmh NW 14.0 mph22.5 kmh 30.53 in1033.9 mb 0.00 in0.0 mm 0.00 in/hr0.0 mm/hr 0.00 in0.0 mm
05:30 AM 25.5°F-3.6°C 19.6°F-6.9°C 78% 9.0 mph NW14.5 kmh NW 14.0 mph22.5 kmh 30.53 in1033.9 mb 0.00 in0.0 mm 0.00 in/hr0.0 mm/hr 0.00 in0.0 mm
05:31 AM 25.5°F-3.6°C 19.6°F-6.9°C 78% 11.0 mph NNW17.7 kmh NNW 14.0 mph22.5 kmh 30.53 in1033.9 mb 0.00 in0.0 mm 0.00 in/hr0.0 mm/hr 0.00 in0.0 mm
05:32 AM 25.5°F-3.6°C 19.6°F-6.9°C 78% 8.0 mph NW12.9 kmh NW 11.0 mph17.7 kmh 30.53 in1033.9 mb 0.00 in0.0 mm 0.00 in/hr0.0 mm/hr 0.00 in0.0 mm
05:33 AM 25.4°F-3.7°C 19.5°F-6.9°C 78% 11.0 mph NNW17.7 kmh NNW 11.0 mph17.7 kmh 30.53 in1033.9 mb 0.00 in0.0 mm 0.00 in/hr0.0 mm/hr 0.00 in0.0 mm
05:34 AM 25.4°F-3.7°C 19.8°F-6.8°C 79% 12.0 mph NW19.3 kmh NW 14.0 mph22.5 kmh 30.53 in1033.9 mb 0.00 in0.0 mm 0.00 in/hr0.0 mm/hr 0.00 in0.0 mm
05:35 AM 25.4°F-3.7°C 19.8°F-6.8°C 79% 10.0 mph NW16.1 kmh NW 14.0 mph22.5 kmh 30.53 in1033.9 mb 0.00 in0.0 mm 0.00 in/hr0.0 mm/hr 0.00 in0.0 mm
05:36 AM 25.5°F-3.6°C 19.9°F-6.7°C 79% 12.0 mph NW19.3 kmh NW 14.0 mph22.5 kmh 30.53 in1033.9 mb 0.00 in0.0 mm 0.00 in/hr0.0 mm/hr 0.00 in0.0 mm
05:37 AM 25.6°F-3.6°C 20.0°F-6.7°C 79% 13.0 mph NW20.9 kmh NW 14.0 mph22.5 kmh 30.53 in1033.9 mb 0.00 in0.0 mm 0.00 in/hr0.0 mm/hr 0.00 in0.0 mm
05:38 AM 25.6°F-3.6°C 20.0°F-6.7°C 79% 12.0 mph NNW19.3 kmh NNW 14.0 mph22.5 kmh 30.53 in1033.9 mb 0.00 in0.0 mm 0.00 in/hr0.0 mm/hr 0.00 in0.0 mm
05:39 AM 25.7°F-3.5°C 20.1°F-6.6°C 79% 12.0 mph NNW19.3 kmh NNW 14.0 mph22.5 kmh 30.53 in1033.9 mb 0.00 in0.0 mm 0.00 in/hr0.0 mm/hr 0.00 in0.0 mm
05:40 AM 25.8°F-3.4°C 19.9°F-6.7°C 78% 11.0 mph NW17.7 kmh NW 15.0 mph24.1 kmh 30.53 in1033.9 mb 0.00 in0.0 mm 0.00 in/hr0.0 mm/hr 0.00 in0.0 mm
05:41 AM 25.8°F-3.4°C 19.9°F-6.7°C 78% 9.0 mph NW14.5 kmh NW 15.0 mph24.1 kmh 30.53 in1033.9 mb 0.00 in0.0 mm 0.00 in/hr0.0 mm/hr 0.00 in0.0 mm
05:42 AM 25.8°F-3.4°C 19.9°F-6.7°C 78% 10.0 mph NW16.1 kmh NW 15.0 mph24.1 kmh 30.53 in1033.9 mb 0.00 in0.0 mm 0.00 in/hr0.0 mm/hr 0.00 in0.0 mm
05:43 AM 25.9°F-3.4°C 20.0°F-6.7°C 78% 14.0 mph NNW22.5 kmh NNW 15.0 mph24.1 kmh 30.53 in1033.9 mb 0.00 in0.0 mm 0.00 in/hr0.0 mm/hr 0.00 in0.0 mm
05:44 AM 25.9°F-3.4°C 20.0°F-6.7°C 78% 13.0 mph NNW20.9 kmh NNW 17.0 mph27.4 kmh 30.53 in1033.9 mb 0.00 in0.0 mm 0.00 in/hr0.0 mm/hr 0.00 in0.0 mm
05:45 AM 25.9°F-3.4°C 20.0°F-6.7°C 78% 11.0 mph NW17.7 kmh NW 17.0 mph27.4 kmh 30.53 in1033.9 mb 0.00 in0.0 mm 0.00 in/hr0.0 mm/hr 0.00 in0.0 mm
05:46 AM 25.8°F-3.4°C 19.9°F-6.7°C 78% 8.0 mph NNW12.9 kmh NNW 17.0 mph27.4 kmh 30.53 in1033.9 mb 0.00 in0.0 mm 0.00 in/hr0.0 mm/hr 0.00 in0.0 mm
05:47 AM 25.9°F-3.4°C 20.0°F-6.7°C 78% 11.0 mph NW17.7 kmh NW 17.0 mph27.4 kmh 30.53 in1033.9 mb 0.00 in0.0 mm 0.00 in/hr0.0 mm/hr 0.00 in0.0 mm
05:48 AM 25.8°F-3.4°C 19.9°F-6.7°C 78% 9.0 mph NNW14.5 kmh NNW 17.0 mph27.4 kmh 30.53 in1033.9 mb 0.00 in0.0 mm 0.00 in/hr0.0 mm/hr 0.00 in0.0 mm
05:49 AM 25.8°F-3.4°C 19.9°F-6.7°C 78% 8.0 mph NNW12.9 kmh NNW 17.0 mph27.4 kmh 30.53 in1033.9 mb 0.00 in0.0 mm 0.00 in/hr0.0 mm/hr 0.00 in0.0 mm
05:50 AM 25.8°F-3.4°C 19.9°F-6.7°C 78% 10.0 mph NNW16.1 kmh NNW 17.0 mph27.4 kmh 30.53 in1033.9 mb 0.00 in0.0 mm 0.00 in/hr0.0 mm/hr 0.00 in0.0 mm
05:51 AM 25.8°F-3.4°C 19.9°F-6.7°C 78% 9.0 mph NW14.5 kmh NW 17.0 mph27.4 kmh 30.53 in1033.9 mb 0.00 in0.0 mm 0.00 in/hr0.0 mm/hr 0.00 in0.0 mm
05:52 AM 25.8°F-3.4°C 19.9°F-6.7°C 78% 8.0 mph NW12.9 kmh NW 17.0 mph27.4 kmh 30.53 in1033.9 mb 0.00 in0.0 mm 0.00 in/hr0.0 mm/hr 0.00 in0.0 mm
05:53 AM 25.7°F-3.5°C 19.8°F-6.8°C 78% 9.0 mph NW14.5 kmh NW 17.0 mph27.4 kmh 30.53 in1033.9 mb 0.00 in0.0 mm 0.00 in/hr0.0 mm/hr 0.00 in0.0 mm
05:54 AM 25.7°F-3.5°C 19.8°F-6.8°C 78% 10.0 mph NNW16.1 kmh NNW 17.0 mph27.4 kmh 30.53 in1033.9 mb 0.00 in0.0 mm 0.00 in/hr0.0 mm/hr 0.00 in0.0 mm
05:55 AM 25.7°F-3.5°C 19.8°F-6.8°C 78% 9.0 mph NNW14.5 kmh NNW 17.0 mph27.4 kmh 30.53 in1033.9 mb 0.00 in0.0 mm 0.00 in/hr0.0 mm/hr 0.00 in0.0 mm
05:56 AM 25.7°F-3.5°C 19.8°F-6.8°C 78% 10.0 mph NW16.1 kmh NW 17.0 mph27.4 kmh 30.53 in1033.9 mb 0.00 in0.0 mm 0.00 in/hr0.0 mm/hr 0.00 in0.0 mm
05:57 AM 25.7°F-3.5°C 19.8°F-6.8°C 78% 7.0 mph NW11.3 kmh NW 17.0 mph27.4 kmh 30.53 in1033.9 mb 0.00 in0.0 mm 0.00 in/hr0.0 mm/hr 0.00 in0.0 mm
05:58 AM 25.7°F-3.5°C 19.8°F-6.8°C 78% 9.0 mph NW14.5 kmh NW 17.0 mph27.4 kmh 30.53 in1033.9 mb 0.00 in0.0 mm 0.00 in/hr0.0 mm/hr 0.00 in0.0 mm
05:59 AM 25.7°F-3.5°C 19.8°F-6.8°C 78% 10.0 mph NNW16.1 kmh NNW 17.0 mph27.4 kmh 30.53 in1033.9 mb 0.00 in0.0 mm 0.00 in/hr0.0 mm/hr 0.00 in0.0 mm
06:00 AM 25.7°F-3.5°C 19.8°F-6.8°C 78% 8.0 mph NW12.9 kmh NW 17.0 mph27.4 kmh 30.53 in1033.9 mb 0.00 in0.0 mm 0.00 in/hr0.0 mm/hr 0.00 in0.0 mm
06:01 AM 25.6°F-3.6°C 19.7°F-6.8°C 78% 9.0 mph NW14.5 kmh NW 17.0 mph27.4 kmh 30.53 in1033.9 mb 0.00 in0.0 mm 0.00 in/hr0.0 mm/hr 0.00 in0.0 mm
06:02 AM 25.6°F-3.6°C 19.7°F-6.8°C 78% 8.0 mph NW12.9 kmh NW 8.0 mph12.9 kmh 30.53 in1033.9 mb 0.00 in0.0 mm 0.00 in/hr0.0 mm/hr 0.00 in0.0 mm
06:03 AM 25.6°F-3.6°C 19.7°F-6.8°C 78% 10.0 mph NW16.1 kmh NW 11.0 mph17.7 kmh 30.53 in1033.9 mb 0.00 in0.0 mm 0.00 in/hr0.0 mm/hr 0.00 in0.0 mm
06:04 AM 25.6°F-3.6°C 19.7°F-6.8°C 78% 9.0 mph NNW14.5 kmh NNW 11.0 mph17.7 kmh 30.53 in1033.9 mb 0.00 in0.0 mm 0.00 in/hr0.0 mm/hr 0.00 in0.0 mm
06:05 AM 25.6°F-3.6°C 19.7°F-6.8°C 78% 10.0 mph NNW16.1 kmh NNW 11.0 mph17.7 kmh 30.53 in1033.9 mb 0.00 in0.0 mm 0.00 in/hr0.0 mm/hr 0.00 in0.0 mm
06:06 AM 25.6°F-3.6°C 19.7°F-6.8°C 78% 8.0 mph NW12.9 kmh NW 11.0 mph17.7 kmh 30.53 in1033.9 mb 0.00 in0.0 mm 0.00 in/hr0.0 mm/hr 0.00 in0.0 mm
06:07 AM 25.6°F-3.6°C 19.7°F-6.8°C 78% 10.0 mph NNW16.1 kmh NNW 11.0 mph17.7 kmh 30.53 in1033.9 mb 0.00 in0.0 mm 0.00 in/hr0.0 mm/hr 0.00 in0.0 mm
06:08 AM 25.6°F-3.6°C 19.7°F-6.8°C 78% 8.0 mph NW12.9 kmh NW 11.0 mph17.7 kmh 30.53 in1033.9 mb 0.00 in0.0 mm 0.00 in/hr0.0 mm/hr 0.00 in0.0 mm
06:09 AM 25.6°F-3.6°C 19.7°F-6.8°C 78% 8.0 mph NNW12.9 kmh NNW 11.0 mph17.7 kmh 30.53 in1033.9 mb 0.00 in0.0 mm 0.00 in/hr0.0 mm/hr 0.00 in0.0 mm
06:10 AM 25.5°F-3.6°C 19.6°F-6.9°C 78% 9.0 mph NW14.5 kmh NW 11.0 mph17.7 kmh 30.53 in1033.9 mb 0.00 in0.0 mm 0.00 in/hr0.0 mm/hr 0.00 in0.0 mm
06:11 AM 25.6°F-3.6°C 19.7°F-6.8°C 78% 7.0 mph NW11.3 kmh NW 11.0 mph17.7 kmh 30.53 in1033.9 mb 0.00 in0.0 mm 0.00 in/hr0.0 mm/hr 0.00 in0.0 mm
06:12 AM 25.5°F-3.6°C 19.6°F-6.9°C 78% 7.0 mph NW11.3 kmh NW 11.0 mph17.7 kmh 30.53 in1033.9 mb 0.00 in0.0 mm 0.00 in/hr0.0 mm/hr 0.00 in0.0 mm
06:13 AM 25.4°F-3.7°C 19.5°F-6.9°C 78% 9.0 mph NW14.5 kmh NW 11.0 mph17.7 kmh 30.53 in1033.9 mb 0.00 in0.0 mm 0.00 in/hr0.0 mm/hr 0.00 in0.0 mm
06:14 AM 25.4°F-3.7°C 19.5°F-6.9°C 78% 9.0 mph NW14.5 kmh NW 11.0 mph17.7 kmh 30.53 in1033.9 mb 0.00 in0.0 mm 0.00 in/hr0.0 mm/hr 0.00 in0.0 mm
06:15 AM 25.4°F-3.7°C 19.5°F-6.9°C 78% 9.0 mph NW14.5 kmh NW 11.0 mph17.7 kmh 30.53 in1033.9 mb 0.00 in0.0 mm 0.00 in/hr0.0 mm/hr 0.00 in0.0 mm
06:16 AM 25.4°F-3.7°C 19.5°F-6.9°C 78% 9.0 mph NW14.5 kmh NW 11.0 mph17.7 kmh 30.53 in1033.9 mb 0.00 in0.0 mm 0.00 in/hr0.0 mm/hr 0.00 in0.0 mm
06:17 AM 25.4°F-3.7°C 19.5°F-6.9°C 78% 9.0 mph NW14.5 kmh NW 11.0 mph17.7 kmh 30.53 in1033.9 mb 0.00 in0.0 mm 0.00 in/hr0.0 mm/hr 0.00 in0.0 mm
06:18 AM 25.4°F-3.7°C 19.5°F-6.9°C 78% 9.0 mph NW14.5 kmh NW 11.0 mph17.7 kmh 30.54 in1034.2 mb 0.00 in0.0 mm 0.00 in/hr0.0 mm/hr 0.00 in0.0 mm
06:19 AM 25.0°F-3.9°C 19.4°F-7.0°C 79% 8.0 mph NW12.9 kmh NW 11.0 mph17.7 kmh 30.54 in1034.2 mb 0.00 in0.0 mm 0.00 in/hr0.0 mm/hr 0.00 in0.0 mm
06:20 AM 24.9°F-3.9°C 19.3°F-7.1°C 79% 8.0 mph NNW12.9 kmh NNW 11.0 mph17.7 kmh 30.54 in1034.2 mb 0.00 in0.0 mm 0.00 in/hr0.0 mm/hr 0.00 in0.0 mm
06:21 AM 24.8°F-4.0°C 19.2°F-7.1°C 79% 7.0 mph NW11.3 kmh NW 11.0 mph17.7 kmh 30.54 in1034.2 mb 0.00 in0.0 mm 0.00 in/hr0.0 mm/hr 0.00 in0.0 mm
06:22 AM 24.7°F-4.1°C 19.1°F-7.2°C 79% 9.0 mph NW14.5 kmh NW 11.0 mph17.7 kmh 30.54 in1034.2 mb 0.00 in0.0 mm 0.00 in/hr0.0 mm/hr 0.00 in0.0 mm
06:23 AM 24.7°F-4.1°C 19.4°F-7.0°C 80% 7.0 mph NW11.3 kmh NW 11.0 mph17.7 kmh 30.54 in1034.2 mb 0.00 in0.0 mm 0.00 in/hr0.0 mm/hr 0.00 in0.0 mm
06:24 AM 24.6°F-4.1°C 19.3°F-7.1°C 80% 8.0 mph NW12.9 kmh NW 11.0 mph17.7 kmh 30.54 in1034.2 mb 0.00 in0.0 mm 0.00 in/hr0.0 mm/hr 0.00 in0.0 mm
06:25 AM 24.6°F-4.1°C 19.3°F-7.1°C 80% 7.0 mph NW11.3 kmh NW 11.0 mph17.7 kmh 30.54 in1034.2 mb 0.00 in0.0 mm 0.00 in/hr0.0 mm/hr 0.00 in0.0 mm
06:26 AM 24.5°F-4.2°C 19.2°F-7.1°C 80% 8.0 mph NW12.9 kmh NW 11.0 mph17.7 kmh 30.54 in1034.2 mb 0.00 in0.0 mm 0.00 in/hr0.0 mm/hr 0.00 in0.0 mm
06:27 AM 24.4°F-4.2°C 19.1°F-7.2°C 80% 9.0 mph NW14.5 kmh NW 11.0 mph17.7 kmh 30.54 in1034.2 mb 0.00 in0.0 mm 0.00 in/hr0.0 mm/hr 0.00 in0.0 mm
06:28 AM 24.4°F-4.2°C 19.1°F-7.2°C 80% 9.0 mph NW14.5 kmh NW 11.0 mph17.7 kmh 30.54 in1034.2 mb 0.00 in0.0 mm 0.00 in/hr0.0 mm/hr 0.00 in0.0 mm
06:29 AM 24.3°F-4.3°C 19.0°F-7.2°C 80% 7.0 mph NW11.3 kmh NW 11.0 mph17.7 kmh 30.54 in1034.2 mb 0.00 in0.0 mm 0.00 in/hr0.0 mm/hr 0.00 in0.0 mm
06:30 AM 24.3°F-4.3°C 19.0°F-7.2°C 80% 7.0 mph NW11.3 kmh NW 11.0 mph17.7 kmh 30.54 in1034.2 mb 0.00 in0.0 mm 0.00 in/hr0.0 mm/hr 0.00 in0.0 mm
06:31 AM 24.3°F-4.3°C 19.0°F-7.2°C 80% 8.0 mph NW12.9 kmh NW 11.0 mph17.7 kmh 30.54 in1034.2 mb 0.00 in0.0 mm 0.00 in/hr0.0 mm/hr 0.00 in0.0 mm
06:32 AM 24.3°F-4.3°C 19.3°F-7.1°C 81% 8.0 mph NW12.9 kmh NW 9.0 mph14.5 kmh 30.54 in1034.2 mb 0.00 in0.0 mm 0.00 in/hr0.0 mm/hr 0.00 in0.0 mm
06:33 AM 24.2°F-4.3°C 19.2°F-7.1°C 81% 8.0 mph NW12.9 kmh NW 10.0 mph16.1 kmh 30.54 in1034.2 mb 0.00 in0.0 mm 0.00 in/hr0.0 mm/hr 0.00 in0.0 mm
06:34 AM 24.2°F-4.3°C 19.2°F-7.1°C 81% 8.0 mph NW12.9 kmh NW 10.0 mph16.1 kmh 30.54 in1034.2 mb 0.00 in0.0 mm 0.00 in/hr0.0 mm/hr 0.00 in0.0 mm
06:35 AM 24.2°F-4.3°C 19.2°F-7.1°C 81% 9.0 mph NW14.5 kmh NW 11.0 mph17.7 kmh 30.54 in1034.2 mb 0.00 in0.0 mm 0.00 in/hr0.0 mm/hr 0.00 in0.0 mm
06:36 AM 24.1°F-4.4°C 19.1°F-7.2°C 81% 9.0 mph NW14.5 kmh NW 11.0 mph17.7 kmh 30.54 in1034.2 mb 0.00 in0.0 mm 0.00 in/hr0.0 mm/hr 0.00 in0.0 mm
06:37 AM 24.1°F-4.4°C 19.1°F-7.2°C 81% 7.0 mph NW11.3 kmh NW 11.0 mph17.7 kmh 30.54 in1034.2 mb 0.00 in0.0 mm 0.00 in/hr0.0 mm/hr 0.00 in0.0 mm
06:38 AM 24.1°F-4.4°C 19.1°F-7.2°C 81% 9.0 mph NW14.5 kmh NW 11.0 mph17.7 kmh 30.54 in1034.2 mb 0.00 in0.0 mm 0.00 in/hr0.0 mm/hr 0.00 in0.0 mm
06:39 AM 24.1°F-4.4°C 19.1°F-7.2°C 81% 10.0 mph NW16.1 kmh NW 11.0 mph17.7 kmh 30.54 in1034.2 mb 0.00 in0.0 mm 0.00 in/hr0.0 mm/hr 0.00 in0.0 mm
06:40 AM 24.1°F-4.4°C 19.1°F-7.2°C 81% 9.0 mph NW14.5 kmh NW 11.0 mph17.7 kmh 30.54 in1034.2 mb 0.00 in0.0 mm 0.00 in/hr0.0 mm/hr 0.00 in0.0 mm
06:41 AM 24.1°F-4.4°C 19.1°F-7.2°C 81% 7.0 mph NW11.3 kmh NW 11.0 mph17.7 kmh 30.54 in1034.2 mb 0.00 in0.0 mm 0.00 in/hr0.0 mm/hr 0.00 in0.0 mm
06:42 AM 24.0°F-4.4°C 19.3°F-7.1°C 82% 10.0 mph NW16.1 kmh NW 11.0 mph17.7 kmh 30.54 in1034.2 mb 0.00 in0.0 mm 0.00 in/hr0.0 mm/hr 0.00 in0.0 mm
06:43 AM 24.0°F-4.4°C 19.3°F-7.1°C 82% 8.0 mph NW12.9 kmh NW 11.0 mph17.7 kmh 30.54 in1034.2 mb 0.00 in0.0 mm 0.00 in/hr0.0 mm/hr 0.00 in0.0 mm
06:44 AM 24.0°F-4.4°C 19.3°F-7.1°C 82% 9.0 mph NW14.5 kmh NW 11.0 mph17.7 kmh 30.54 in1034.2 mb 0.00 in0.0 mm 0.00 in/hr0.0 mm/hr 0.00 in0.0 mm
06:45 AM 24.0°F-4.4°C 19.3°F-7.1°C 82% 8.0 mph NW12.9 kmh NW 11.0 mph17.7 kmh 30.54 in1034.2 mb 0.00 in0.0 mm 0.00 in/hr0.0 mm/hr 0.00 in0.0 mm
06:46 AM 24.0°F-4.4°C 19.3°F-7.1°C 82% 10.0 mph NW16.1 kmh NW 12.0 mph19.3 kmh 30.54 in1034.2 mb 0.00 in0.0 mm 0.00 in/hr0.0 mm/hr 0.00 in0.0 mm
06:47 AM 24.0°F-4.4°C 19.3°F-7.1°C 82% 8.0 mph NNW12.9 kmh NNW 12.0 mph19.3 kmh 30.54 in1034.2 mb 0.00 in0.0 mm 0.00 in/hr0.0 mm/hr 0.00 in0.0 mm
06:48 AM 24.0°F-4.4°C 19.3°F-7.1°C 82% 8.0 mph NW12.9 kmh NW 12.0 mph19.3 kmh 30.54 in1034.2 mb 0.00 in0.0 mm 0.00 in/hr0.0 mm/hr 0.00 in0.0 mm
06:49 AM 24.1°F-4.4°C 19.4°F-7.0°C 82% 9.0 mph NNW14.5 kmh NNW 12.0 mph19.3 kmh 30.54 in1034.2 mb 0.00 in0.0 mm 0.00 in/hr0.0 mm/hr 0.00 in0.0 mm
06:50 AM 24.1°F-4.4°C 19.4°F-7.0°C 82% 9.0 mph NW14.5 kmh NW 12.0 mph19.3 kmh 30.54 in1034.2 mb 0.00 in0.0 mm 0.00 in/hr0.0 mm/hr 0.00 in0.0 mm
06:51 AM 24.1°F-4.4°C 19.4°F-7.0°C 82% 9.0 mph NW14.5 kmh NW 12.0 mph19.3 kmh 30.54 in1034.2 mb 0.00 in0.0 mm 0.00 in/hr0.0 mm/hr 0.00 in0.0 mm
06:52 AM 24.2°F-4.3°C 19.5°F-6.9°C 82% 8.0 mph NW12.9 kmh NW 12.0 mph19.3 kmh 30.54 in1034.2 mb 0.00 in0.0 mm 0.00 in/hr0.0 mm/hr 0.00 in0.0 mm
06:53 AM 24.2°F-4.3°C 19.5°F-6.9°C 82% 7.0 mph NW11.3 kmh NW 12.0 mph19.3 kmh 30.54 in1034.2 mb 0.00 in0.0 mm 0.00 in/hr0.0 mm/hr 0.00 in0.0 mm
06:54 AM 24.2°F-4.3°C 19.5°F-6.9°C 82% 10.0 mph NW16.1 kmh NW 12.0 mph19.3 kmh 30.54 in1034.2 mb 0.00 in0.0 mm 0.00 in/hr0.0 mm/hr 0.00 in0.0 mm
06:55 AM 24.3°F-4.3°C 19.6°F-6.9°C 82% 6.0 mph NNW9.7 kmh NNW 12.0 mph19.3 kmh 30.54 in1034.2 mb 0.00 in0.0 mm 0.00 in/hr0.0 mm/hr 0.00 in0.0 mm
06:56 AM 24.3°F-4.3°C 19.6°F-6.9°C 82% 7.0 mph NNW11.3 kmh NNW 12.0 mph19.3 kmh 30.54 in1034.2 mb 0.00 in0.0 mm 0.00 in/hr0.0 mm/hr 0.00 in0.0 mm
06:57 AM 24.4°F-4.2°C 19.7°F-6.8°C 82% 8.0 mph NW12.9 kmh NW 12.0 mph19.3 kmh 30.54 in1034.2 mb 0.00 in0.0 mm 0.00 in/hr0.0 mm/hr 0.00 in0.0 mm
06:58 AM 24.4°F-4.2°C 19.7°F-6.8°C 82% 8.0 mph NW12.9 kmh NW 12.0 mph19.3 kmh 30.54 in1034.2 mb 0.00 in0.0 mm 0.00 in/hr0.0 mm/hr 0.00 in0.0 mm
06:59 AM 24.4°F-4.2°C 19.7°F-6.8°C 82% 6.0 mph NW9.7 kmh NW 12.0 mph19.3 kmh 30.54 in1034.2 mb 0.00 in0.0 mm 0.00 in/hr0.0 mm/hr 0.00 in0.0 mm
07:00 AM 24.4°F-4.2°C 19.4°F-7.0°C 81% 7.0 mph NW11.3 kmh NW 12.0 mph19.3 kmh 30.54 in1034.2 mb 0.00 in0.0 mm 0.00 in/hr0.0 mm/hr 0.00 in0.0 mm
07:01 AM 24.4°F-4.2°C 19.4°F-7.0°C 81% 7.0 mph NW11.3 kmh NW 12.0 mph19.3 kmh 30.54 in1034.2 mb 0.00 in0.0 mm 0.00 in/hr0.0 mm/hr 0.00 in0.0 mm
07:02 AM 24.4°F-4.2°C 19.4°F-7.0°C 81% 7.0 mph NW11.3 kmh NW 9.0 mph14.5 kmh 30.54 in1034.2 mb 0.00 in0.0 mm 0.00 in/hr0.0 mm/hr 0.00 in0.0 mm
07:03 AM 24.5°F-4.2°C 19.5°F-6.9°C 81% 9.0 mph NNW14.5 kmh NNW 12.0 mph19.3 kmh 30.54 in1034.2 mb 0.00 in0.0 mm 0.00 in/hr0.0 mm/hr 0.00 in0.0 mm
07:04 AM 24.5°F-4.2°C 19.5°F-6.9°C 81% 8.0 mph NNW12.9 kmh NNW 12.0 mph19.3 kmh 30.54 in1034.2 mb 0.00 in0.0 mm 0.00 in/hr0.0 mm/hr 0.00 in0.0 mm
07:05 AM 24.6°F-4.1°C 19.6°F-6.9°C 81% 8.0 mph NW12.9 kmh NW 12.0 mph19.3 kmh 30.54 in1034.2 mb 0.00 in0.0 mm 0.00 in/hr0.0 mm/hr 0.00 in0.0 mm
07:06 AM 24.7°F-4.1°C 19.7°F-6.8°C 81% 8.0 mph NNW12.9 kmh NNW 12.0 mph19.3 kmh 30.54 in1034.2 mb 0.00 in0.0 mm 0.00 in/hr0.0 mm/hr 0.00 in0.0 mm
07:07 AM 24.7°F-4.1°C 19.7°F-6.8°C 81% 9.0 mph NW14.5 kmh NW 12.0 mph19.3 kmh 30.54 in1034.2 mb 0.00 in0.0 mm 0.00 in/hr0.0 mm/hr 0.00 in0.0 mm
07:08 AM 24.7°F-4.1°C 19.7°F-6.8°C 81% 7.0 mph NW11.3 kmh NW 12.0 mph19.3 kmh 30.54 in1034.2 mb 0.00 in0.0 mm 0.00 in/hr0.0 mm/hr 0.00 in0.0 mm
07:09 AM 24.7°F-4.1°C 19.7°F-6.8°C 81% 10.0 mph N16.1 kmh N 12.0 mph19.3 kmh 30.54 in1034.2 mb 0.00 in0.0 mm 0.00 in/hr0.0 mm/hr 0.00 in0.0 mm
07:10 AM 24.7°F-4.1°C 19.7°F-6.8°C 81% 9.0 mph NW14.5 kmh NW 12.0 mph19.3 kmh 30.54 in1034.2 mb 0.00 in0.0 mm 0.00 in/hr0.0 mm/hr 0.00 in0.0 mm
07:11 AM 24.6°F-4.1°C 19.6°F-6.9°C 81% 9.0 mph NW14.5 kmh NW 12.0 mph19.3 kmh 30.54 in1034.2 mb 0.00 in0.0 mm 0.00 in/hr0.0 mm/hr 0.00 in0.0 mm
07:12 AM 24.6°F-4.1°C 19.6°F-6.9°C 81% 8.0 mph NW12.9 kmh NW 12.0 mph19.3 kmh 30.54 in1034.2 mb 0.00 in0.0 mm 0.00 in/hr0.0 mm/hr 0.00 in0.0 mm
07:13 AM 24.6°F-4.1°C 19.6°F-6.9°C 81% 8.0 mph NW12.9 kmh NW 12.0 mph19.3 kmh 30.54 in1034.2 mb 0.00 in0.0 mm 0.00 in/hr0.0 mm/hr 0.00 in0.0 mm
07:14 AM 24.5°F-4.2°C 19.5°F-6.9°C 81% 7.0 mph NW11.3 kmh NW 12.0 mph19.3 kmh 30.54 in1034.2 mb 0.00 in0.0 mm 0.00 in/hr0.0 mm/hr 0.00 in0.0 mm
07:15 AM 24.5°F-4.2°C 19.5°F-6.9°C 81% 8.0 mph NW12.9 kmh NW 12.0 mph19.3 kmh 30.54 in1034.2 mb 0.00 in0.0 mm 0.00 in/hr0.0 mm/hr 0.00 in0.0 mm
07:16 AM 24.4°F-4.2°C 19.4°F-7.0°C 81% 9.0 mph NNW14.5 kmh NNW 12.0 mph19.3 kmh 30.54 in1034.2 mb 0.00 in0.0 mm 0.00 in/hr0.0 mm/hr 0.00 in0.0 mm
07:17 AM 24.4°F-4.2°C 19.4°F-7.0°C 81% 8.0 mph NW12.9 kmh NW 12.0 mph19.3 kmh 30.54 in1034.2 mb 0.00 in0.0 mm 0.00 in/hr0.0 mm/hr 0.00 in0.0 mm
07:18 AM 24.3°F-4.3°C 19.3°F-7.1°C 81% 8.0 mph NW12.9 kmh NW 12.0 mph19.3 kmh 30.54 in1034.2 mb 0.00 in0.0 mm 0.00 in/hr0.0 mm/hr 0.00 in0.0 mm
07:19 AM 24.3°F-4.3°C 19.3°F-7.1°C 81% 8.0 mph NW12.9 kmh NW 12.0 mph19.3 kmh 30.54 in1034.2 mb 0.00 in0.0 mm 0.00 in/hr0.0 mm/hr 0.00 in0.0 mm
07:20 AM 24.2°F-4.3°C 19.2°F-7.1°C 81% 7.0 mph NW11.3 kmh NW 12.0 mph19.3 kmh 30.54 in1034.2 mb 0.00 in0.0 mm 0.00 in/hr0.0 mm/hr 0.00 in0.0 mm
07:21 AM 24.2°F-4.3°C 19.2°F-7.1°C 81% 7.0 mph NW11.3 kmh NW 12.0 mph19.3 kmh 30.54 in1034.2 mb 0.00 in0.0 mm 0.00 in/hr0.0 mm/hr 0.00 in0.0 mm
07:22 AM 24.1°F-4.4°C 19.1°F-7.2°C 81% 7.0 mph NW11.3 kmh NW 12.0 mph19.3 kmh 30.54 in1034.2 mb 0.00 in0.0 mm 0.00 in/hr0.0 mm/hr 0.00 in0.0 mm
07:23 AM 24.0°F-4.4°C 19.0°F-7.2°C 81% 6.0 mph NW9.7 kmh NW 12.0 mph19.3 kmh 30.54 in1034.2 mb 0.00 in0.0 mm 0.00 in/hr0.0 mm/hr 0.00 in0.0 mm
07:24 AM 24.0°F-4.4°C 19.0°F-7.2°C 81% 8.0 mph NNW12.9 kmh NNW 12.0 mph19.3 kmh 30.54 in1034.2 mb 0.00 in0.0 mm 0.00 in/hr0.0 mm/hr 0.00 in0.0 mm
07:25 AM 23.9°F-4.5°C 18.9°F-7.3°C 81% 6.0 mph NW9.7 kmh NW 12.0 mph19.3 kmh 30.54 in1034.2 mb 0.00 in0.0 mm 0.00 in/hr0.0 mm/hr 0.00 in0.0 mm
07:26 AM 23.8°F-4.6°C 18.8°F-7.3°C 81% 7.0 mph NW11.3 kmh NW 12.0 mph19.3 kmh 30.54 in1034.2 mb 0.00 in0.0 mm 0.00 in/hr0.0 mm/hr 0.00 in0.0 mm
07:27 AM 23.8°F-4.6°C 18.8°F-7.3°C 81% 7.0 mph NW11.3 kmh NW 12.0 mph19.3 kmh 30.54 in1034.2 mb 0.00 in0.0 mm 0.00 in/hr0.0 mm/hr 0.00 in0.0 mm
07:28 AM 23.7°F-4.6°C 19.0°F-7.2°C 82% 6.0 mph NW9.7 kmh NW 12.0 mph19.3 kmh 30.54 in1034.2 mb 0.00 in0.0 mm 0.00 in/hr0.0 mm/hr 0.00 in0.0 mm
07:29 AM 23.7°F-4.6°C 19.0°F-7.2°C 82% 6.0 mph NW9.7 kmh NW 12.0 mph19.3 kmh 30.54 in1034.2 mb 0.00 in0.0 mm 0.00 in/hr0.0 mm/hr 0.00 in0.0 mm
07:30 AM 23.6°F-4.7°C 18.9°F-7.3°C 82% 7.0 mph NW11.3 kmh NW 12.0 mph19.3 kmh 30.54 in1034.2 mb 0.00 in0.0 mm 0.00 in/hr0.0 mm/hr 0.00 in0.0 mm
07:31 AM 23.6°F-4.7°C 18.9°F-7.3°C 82% 8.0 mph NW12.9 kmh NW 12.0 mph19.3 kmh 30.54 in1034.2 mb 0.00 in0.0 mm 0.00 in/hr0.0 mm/hr 0.00 in0.0 mm
07:32 AM 23.5°F-4.7°C 18.8°F-7.3°C 82% 7.0 mph NW11.3 kmh NW 8.0 mph12.9 kmh 30.54 in1034.2 mb 0.00 in0.0 mm 0.00 in/hr0.0 mm/hr 0.00 in0.0 mm
07:33 AM 23.5°F-4.7°C 18.8°F-7.3°C 82% 8.0 mph NW12.9 kmh NW 9.0 mph14.5 kmh 30.54 in1034.2 mb 0.00 in0.0 mm 0.00 in/hr0.0 mm/hr 0.00 in0.0 mm
07:34 AM 23.5°F-4.7°C 18.8°F-7.3°C 82% 7.0 mph NW11.3 kmh NW 9.0 mph14.5 kmh 30.55 in1034.5 mb 0.00 in0.0 mm 0.00 in/hr0.0 mm/hr 0.00 in0.0 mm
07:35 AM 23.4°F-4.8°C 18.7°F-7.4°C 82% 7.0 mph NW11.3 kmh NW 9.0 mph14.5 kmh 30.55 in1034.5 mb 0.00 in0.0 mm 0.00 in/hr0.0 mm/hr 0.00 in0.0 mm
07:36 AM 23.4°F-4.8°C 18.7°F-7.4°C 82% 8.0 mph NW12.9 kmh NW 9.0 mph14.5 kmh 30.55 in1034.5 mb 0.00 in0.0 mm 0.00 in/hr0.0 mm/hr 0.00 in0.0 mm
07:37 AM 23.4°F-4.8°C 19.0°F-7.2°C 83% 7.0 mph NW11.3 kmh NW 9.0 mph14.5 kmh 30.55 in1034.5 mb 0.00 in0.0 mm 0.00 in/hr0.0 mm/hr 0.00 in0.0 mm
07:38 AM 23.4°F-4.8°C 19.0°F-7.2°C 83% 6.0 mph NW9.7 kmh NW 9.0 mph14.5 kmh 30.55 in1034.5 mb 0.00 in0.0 mm 0.00 in/hr0.0 mm/hr 0.00 in0.0 mm
07:39 AM 23.4°F-4.8°C 19.0°F-7.2°C 83% 9.0 mph WNW14.5 kmh WNW 9.0 mph14.5 kmh 30.55 in1034.5 mb 0.00 in0.0 mm 0.00 in/hr0.0 mm/hr 0.00 in0.0 mm
07:40 AM 23.4°F-4.8°C 19.0°F-7.2°C 83% 7.0 mph NW11.3 kmh NW 9.0 mph14.5 kmh 30.55 in1034.5 mb 0.00 in0.0 mm 0.00 in/hr0.0 mm/hr 0.00 in0.0 mm
07:41 AM 23.3°F-4.8°C 18.9°F-7.3°C 83% 7.0 mph NW11.3 kmh NW 9.0 mph14.5 kmh 30.55 in1034.5 mb 0.00 in0.0 mm 0.00 in/hr0.0 mm/hr 0.00 in0.0 mm
07:42 AM 23.3°F-4.8°C 18.9°F-7.3°C 83% 6.0 mph NW9.7 kmh NW 9.0 mph14.5 kmh 30.55 in1034.5 mb 0.00 in0.0 mm 0.00 in/hr0.0 mm/hr 0.00 in0.0 mm
07:43 AM 23.3°F-4.8°C 18.9°F-7.3°C 83% 6.0 mph NW9.7 kmh NW 9.0 mph14.5 kmh 30.55 in1034.5 mb 0.00 in0.0 mm 0.00 in/hr0.0 mm/hr 0.00 in0.0 mm
07:44 AM 23.3°F-4.8°C 18.9°F-7.3°C 83% 6.0 mph NW9.7 kmh NW 9.0 mph14.5 kmh 30.55 in1034.5 mb 0.00 in0.0 mm 0.00 in/hr0.0 mm/hr 0.00 in0.0 mm
07:45 AM 23.3°F-4.8°C 18.9°F-7.3°C 83% 6.0 mph NW9.7 kmh NW 9.0 mph14.5 kmh 30.55 in1034.5 mb 0.00 in0.0 mm 0.00 in/hr0.0 mm/hr 0.00 in0.0 mm
07:46 AM 23.2°F-4.9°C 18.8°F-7.3°C 83% 6.0 mph NW9.7 kmh NW 9.0 mph14.5 kmh 30.55 in1034.5 mb 0.00 in0.0 mm 0.00 in/hr0.0 mm/hr 0.00 in0.0 mm
07:47 AM 23.1°F-4.9°C 18.7°F-7.4°C 83% 7.0 mph WNW11.3 kmh WNW 9.0 mph14.5 kmh 30.55 in1034.5 mb 0.00 in0.0 mm 0.00 in/hr0.0 mm/hr 0.00 in0.0 mm
07:48 AM 23.1°F-4.9°C 18.7°F-7.4°C 83% 7.0 mph NW11.3 kmh NW 9.0 mph14.5 kmh 30.55 in1034.5 mb 0.00 in0.0 mm 0.00 in/hr0.0 mm/hr 0.00 in0.0 mm
07:49 AM 23.1°F-4.9°C 18.7°F-7.4°C 83% 7.0 mph NW11.3 kmh NW 9.0 mph14.5 kmh 30.55 in1034.5 mb 0.00 in0.0 mm 0.00 in/hr0.0 mm/hr 0.00 in0.0 mm
07:50 AM 23.0°F-5.0°C 18.6°F-7.4°C 83% 7.0 mph NW11.3 kmh NW 9.0 mph14.5 kmh 30.56 in1034.9 mb 0.00 in0.0 mm 0.00 in/hr0.0 mm/hr 0.00 in0.0 mm
07:51 AM 23.0°F-5.0°C 18.6°F-7.4°C 83% 7.0 mph NW11.3 kmh NW 9.0 mph14.5 kmh 30.55 in1034.5 mb 0.00 in0.0 mm 0.00 in/hr0.0 mm/hr 0.00 in0.0 mm
07:52 AM 23.0°F-5.0°C 18.6°F-7.4°C 83% 7.0 mph NW11.3 kmh NW 9.0 mph14.5 kmh 30.55 in1034.5 mb 0.00 in0.0 mm 0.00 in/hr0.0 mm/hr 0.00 in0.0 mm
07:53 AM 23.0°F-5.0°C 18.6°F-7.4°C 83% 7.0 mph NW11.3 kmh NW 9.0 mph14.5 kmh 30.56 in1034.9 mb 0.00 in0.0 mm 0.00 in/hr0.0 mm/hr 0.00 in0.0 mm
07:54 AM 22.9°F-5.1°C 18.5°F-7.5°C 83% 8.0 mph NW12.9 kmh NW 9.0 mph14.5 kmh 30.56 in1034.9 mb 0.00 in0.0 mm 0.00 in/hr0.0 mm/hr 0.00 in0.0 mm
07:55 AM 22.9°F-5.1°C 18.5°F-7.5°C 83% 8.0 mph NW12.9 kmh NW 9.0 mph14.5 kmh 30.55 in1034.5 mb 0.00 in0.0 mm 0.00 in/hr0.0 mm/hr 0.00 in0.0 mm
07:56 AM 22.9°F-5.1°C 18.5°F-7.5°C 83% 6.0 mph NW9.7 kmh NW 9.0 mph14.5 kmh 30.56 in1034.9 mb 0.00 in0.0 mm 0.00 in/hr0.0 mm/hr 0.00 in0.0 mm
07:57 AM 22.9°F-5.1°C 18.5°F-7.5°C 83% 7.0 mph NW11.3 kmh NW 9.0 mph14.5 kmh 30.56 in1034.9 mb 0.00 in0.0 mm 0.00 in/hr0.0 mm/hr 0.00 in0.0 mm
07:58 AM 22.9°F-5.1°C 18.8°F-7.3°C 84% 6.0 mph NW9.7 kmh NW 9.0 mph14.5 kmh 30.56 in1034.9 mb 0.00 in0.0 mm 0.00 in/hr0.0 mm/hr 0.00 in0.0 mm
07:59 AM 22.9°F-5.1°C 18.8°F-7.3°C 84% 5.0 mph NW8.0 kmh NW 9.0 mph14.5 kmh 30.56 in1034.9 mb 0.00 in0.0 mm 0.00 in/hr0.0 mm/hr 0.00 in0.0 mm
08:00 AM 22.9°F-5.1°C 18.8°F-7.3°C 84% 6.0 mph NW9.7 kmh NW 9.0 mph14.5 kmh 30.56 in1034.9 mb 0.00 in0.0 mm 0.00 in/hr0.0 mm/hr 0.00 in0.0 mm
08:01 AM 22.9°F-5.1°C 18.8°F-7.3°C 84% 6.0 mph NW9.7 kmh NW 9.0 mph14.5 kmh 30.56 in1034.9 mb 0.00 in0.0 mm 0.00 in/hr0.0 mm/hr 0.00 in0.0 mm
08:02 AM 22.9°F-5.1°C 18.8°F-7.3°C 84% 7.0 mph NW11.3 kmh NW 7.0 mph11.3 kmh 30.56 in1034.9 mb 0.00 in0.0 mm 0.00 in/hr0.0 mm/hr 0.00 in0.0 mm
08:03 AM 22.9°F-5.1°C 18.8°F-7.3°C 84% 5.0 mph NW8.0 kmh NW 7.0 mph11.3 kmh 30.56 in1034.9 mb 0.00 in0.0 mm 0.00 in/hr0.0 mm/hr 0.00 in0.0 mm
08:04 AM 22.9°F-5.1°C 18.8°F-7.3°C 84% 6.0 mph NW9.7 kmh NW 8.0 mph12.9 kmh 30.56 in1034.9 mb 0.00 in0.0 mm 0.00 in/hr0.0 mm/hr 0.00 in0.0 mm
08:05 AM 22.9°F-5.1°C 18.8°F-7.3°C 84% 5.0 mph NW8.0 kmh NW 8.0 mph12.9 kmh 30.56 in1034.9 mb 0.00 in0.0 mm 0.00 in/hr0.0 mm/hr 0.00 in0.0 mm
08:06 AM 23.0°F-5.0°C 18.9°F-7.3°C 84% 6.0 mph NW9.7 kmh NW 8.0 mph12.9 kmh 30.56 in1034.9 mb 0.00 in0.0 mm 0.00 in/hr0.0 mm/hr 0.00 in0.0 mm
08:07 AM 23.0°F-5.0°C 18.9°F-7.3°C 84% 7.0 mph NW11.3 kmh NW 8.0 mph12.9 kmh 30.56 in1034.9 mb 0.00 in0.0 mm 0.00 in/hr0.0 mm/hr 0.00 in0.0 mm
08:08 AM 23.0°F-5.0°C 18.9°F-7.3°C 84% 7.0 mph NW11.3 kmh NW 9.0 mph14.5 kmh 30.56 in1034.9 mb 0.00 in0.0 mm 0.00 in/hr0.0 mm/hr 0.00 in0.0 mm
08:09 AM 23.0°F-5.0°C 18.9°F-7.3°C 84% 7.0 mph NW11.3 kmh NW 9.0 mph14.5 kmh 30.56 in1034.9 mb 0.00 in0.0 mm 0.00 in/hr0.0 mm/hr 0.00 in0.0 mm
08:10 AM 23.1°F-4.9°C 19.0°F-7.2°C 84% 8.0 mph NW12.9 kmh NW 9.0 mph14.5 kmh 30.56 in1034.9 mb 0.00 in0.0 mm 0.00 in/hr0.0 mm/hr 0.00 in0.0 mm
08:11 AM 23.1°F-4.9°C 19.0°F-7.2°C 84% 6.0 mph NW9.7 kmh NW 9.0 mph14.5 kmh 30.56 in1034.9 mb 0.00 in0.0 mm 0.00 in/hr0.0 mm/hr 0.00 in0.0 mm
08:12 AM 23.1°F-4.9°C 19.0°F-7.2°C 84% 8.0 mph NW12.9 kmh NW 9.0 mph14.5 kmh 30.56 in1034.9 mb 0.00 in0.0 mm 0.00 in/hr0.0 mm/hr 0.00 in0.0 mm
08:13 AM 23.1°F-4.9°C 19.0°F-7.2°C 84% 10.0 mph NW16.1 kmh NW 10.0 mph16.1 kmh 30.56 in1034.9 mb 0.00 in0.0 mm 0.00 in/hr0.0 mm/hr 0.00 in0.0 mm
08:14 AM 23.1°F-4.9°C 19.0°F-7.2°C 84% 8.0 mph NW12.9 kmh NW 10.0 mph16.1 kmh 30.56 in1034.9 mb 0.00 in0.0 mm 0.00 in/hr0.0 mm/hr 0.00 in0.0 mm
08:15 AM 23.1°F-4.9°C 19.0°F-7.2°C 84% 8.0 mph NW12.9 kmh NW 10.0 mph16.1 kmh 30.56 in1034.9 mb 0.00 in0.0 mm 0.00 in/hr0.0 mm/hr 0.00 in0.0 mm
08:16 AM 23.1°F-4.9°C 19.0°F-7.2°C 84% 8.0 mph NW12.9 kmh NW 10.0 mph16.1 kmh 30.56 in1034.9 mb 0.00 in0.0 mm 0.00 in/hr0.0 mm/hr 0.00 in0.0 mm
08:17 AM 23.1°F-4.9°C 19.0°F-7.2°C 84% 9.0 mph NW14.5 kmh NW 10.0 mph16.1 kmh 30.56 in1034.9 mb 0.00 in0.0 mm 0.00 in/hr0.0 mm/hr 0.00 in0.0 mm
08:18 AM 23.1°F-4.9°C 19.0°F-7.2°C 84% 6.0 mph NW9.7 kmh NW 10.0 mph16.1 kmh 30.56 in1034.9 mb 0.00 in0.0 mm 0.00 in/hr0.0 mm/hr 0.00 in0.0 mm
08:19 AM 23.2°F-4.9°C 19.1°F-7.2°C 84% 6.0 mph NW9.7 kmh NW 10.0 mph16.1 kmh 30.57 in1035.2 mb 0.00 in0.0 mm 0.00 in/hr0.0 mm/hr 0.00 in0.0 mm
08:20 AM 23.2°F-4.9°C 19.1°F-7.2°C 84% 7.0 mph NW11.3 kmh NW 10.0 mph16.1 kmh 30.57 in1035.2 mb 0.00 in0.0 mm 0.00 in/hr0.0 mm/hr 0.00 in0.0 mm
08:21 AM 23.3°F-4.8°C 19.2°F-7.1°C 84% 9.0 mph NW14.5 kmh NW 10.0 mph16.1 kmh 30.57 in1035.2 mb 0.00 in0.0 mm 0.00 in/hr0.0 mm/hr 0.00 in0.0 mm
08:22 AM 23.3°F-4.8°C 19.2°F-7.1°C 84% 7.0 mph NW11.3 kmh NW 10.0 mph16.1 kmh 30.57 in1035.2 mb 0.00 in0.0 mm 0.00 in/hr0.0 mm/hr 0.00 in0.0 mm
08:23 AM 23.4°F-4.8°C 19.3°F-7.1°C 84% 9.0 mph WNW14.5 kmh WNW 10.0 mph16.1 kmh 30.57 in1035.2 mb 0.00 in0.0 mm 0.00 in/hr0.0 mm/hr 0.00 in0.0 mm
08:24 AM 23.4°F-4.8°C 19.3°F-7.1°C 84% 8.0 mph NW12.9 kmh NW 10.0 mph16.1 kmh 30.57 in1035.2 mb 0.00 in0.0 mm 0.00 in/hr0.0 mm/hr 0.00 in0.0 mm
08:25 AM 23.4°F-4.8°C 19.3°F-7.1°C 84% 9.0 mph NW14.5 kmh NW 10.0 mph16.1 kmh 30.57 in1035.2 mb 0.00 in0.0 mm 0.00 in/hr0.0 mm/hr 0.00 in0.0 mm
08:26 AM 23.5°F-4.7°C 19.4°F-7.0°C 84% 7.0 mph NW11.3 kmh NW 10.0 mph16.1 kmh 30.57 in1035.2 mb 0.00 in0.0 mm 0.00 in/hr0.0 mm/hr 0.00 in0.0 mm
08:27 AM 23.5°F-4.7°C 19.4°F-7.0°C 84% 7.0 mph NW11.3 kmh NW 10.0 mph16.1 kmh 30.57 in1035.2 mb 0.00 in0.0 mm 0.00 in/hr0.0 mm/hr 0.00 in0.0 mm
08:28 AM 23.6°F-4.7°C 19.5°F-6.9°C 84% 7.0 mph NW11.3 kmh NW 11.0 mph17.7 kmh 30.57 in1035.2 mb 0.00 in0.0 mm 0.00 in/hr0.0 mm/hr 0.00 in0.0 mm
08:29 AM 23.7°F-4.6°C 19.6°F-6.9°C 84% 7.0 mph NW11.3 kmh NW 11.0 mph17.7 kmh 30.58 in1035.6 mb 0.00 in0.0 mm 0.00 in/hr0.0 mm/hr 0.00 in0.0 mm
08:30 AM 23.7°F-4.6°C 19.6°F-6.9°C 84% 9.0 mph NW14.5 kmh NW 11.0 mph17.7 kmh 30.58 in1035.6 mb 0.00 in0.0 mm 0.00 in/hr0.0 mm/hr 0.00 in0.0 mm
08:31 AM 23.8°F-4.6°C 19.7°F-6.8°C 84% 9.0 mph NW14.5 kmh NW 11.0 mph17.7 kmh 30.58 in1035.6 mb 0.00 in0.0 mm 0.00 in/hr0.0 mm/hr 0.00 in0.0 mm
08:32 AM 23.8°F-4.6°C 19.7°F-6.8°C 84% 8.0 mph NW12.9 kmh NW 8.0 mph12.9 kmh 30.58 in1035.6 mb 0.00 in0.0 mm 0.00 in/hr0.0 mm/hr 0.00 in0.0 mm
08:33 AM 23.9°F-4.5°C 19.8°F-6.8°C 84% 8.0 mph NW12.9 kmh NW 9.0 mph14.5 kmh 30.58 in1035.6 mb 0.00 in0.0 mm 0.00 in/hr0.0 mm/hr 0.00 in0.0 mm
08:34 AM 23.9°F-4.5°C 19.8°F-6.8°C 84% 9.0 mph NW14.5 kmh NW 9.0 mph14.5 kmh 30.58 in1035.6 mb 0.00 in0.0 mm 0.00 in/hr0.0 mm/hr 0.00 in0.0 mm
08:35 AM 24.0°F-4.4°C 19.9°F-6.7°C 84% 8.0 mph NW12.9 kmh NW 9.0 mph14.5 kmh 30.58 in1035.6 mb 0.00 in0.0 mm 0.00 in/hr0.0 mm/hr 0.00 in0.0 mm
08:36 AM 24.0°F-4.4°C 19.9°F-6.7°C 84% 10.0 mph NW16.1 kmh NW 10.0 mph16.1 kmh 30.58 in1035.6 mb 0.00 in0.0 mm 0.00 in/hr0.0 mm/hr 0.00 in0.0 mm
08:37 AM 24.1°F-4.4°C 20.0°F-6.7°C 84% 8.0 mph NW12.9 kmh NW 11.0 mph17.7 kmh 30.58 in1035.6 mb 0.00 in0.0 mm 0.00 in/hr0.0 mm/hr 0.00 in0.0 mm
08:38 AM 24.2°F-4.3°C 20.1°F-6.6°C 84% 8.0 mph NW12.9 kmh NW 11.0 mph17.7 kmh 30.58 in1035.6 mb 0.00 in0.0 mm 0.00 in/hr0.0 mm/hr 0.00 in0.0 mm
08:39 AM 24.3°F-4.3°C 20.2°F-6.6°C 84% 9.0 mph NW14.5 kmh NW 11.0 mph17.7 kmh 30.58 in1035.6 mb 0.00 in0.0 mm 0.00 in/hr0.0 mm/hr 0.00 in0.0 mm
08:40 AM 24.3°F-4.3°C 20.2°F-6.6°C 84% 9.0 mph NW14.5 kmh NW 11.0 mph17.7 kmh 30.58 in1035.6 mb 0.00 in0.0 mm 0.00 in/hr0.0 mm/hr 0.00 in0.0 mm
08:41 AM 24.4°F-4.2°C 20.0°F-6.7°C 83% 9.0 mph NW14.5 kmh NW 11.0 mph17.7 kmh 30.58 in1035.6 mb 0.00 in0.0 mm 0.00 in/hr0.0 mm/hr 0.00 in0.0 mm
08:42 AM 24.5°F-4.2°C 20.1°F-6.6°C 83% 8.0 mph WNW12.9 kmh WNW 11.0 mph17.7 kmh 30.58 in1035.6 mb 0.00 in0.0 mm 0.00 in/hr0.0 mm/hr 0.00 in0.0 mm
08:43 AM 24.5°F-4.2°C 20.1°F-6.6°C 83% 9.0 mph NW14.5 kmh NW 11.0 mph17.7 kmh 30.58 in1035.6 mb 0.00 in0.0 mm 0.00 in/hr0.0 mm/hr 0.00 in0.0 mm
08:44 AM 24.5°F-4.2°C 20.1°F-6.6°C 83% 10.0 mph NW16.1 kmh NW 11.0 mph17.7 kmh 30.58 in1035.6 mb 0.00 in0.0 mm 0.00 in/hr0.0 mm/hr 0.00 in0.0 mm
08:45 AM 24.6°F-4.1°C 20.2°F-6.6°C 83% 11.0 mph NW17.7 kmh NW 11.0 mph17.7 kmh 30.58 in1035.6 mb 0.00 in0.0 mm 0.00 in/hr0.0 mm/hr 0.00 in0.0 mm
08:46 AM 24.7°F-4.1°C 20.3°F-6.5°C 83% 9.0 mph WNW14.5 kmh WNW 11.0 mph17.7 kmh 30.58 in1035.6 mb 0.00 in0.0 mm 0.00 in/hr0.0 mm/hr 0.00 in0.0 mm
08:47 AM 24.7°F-4.1°C 20.3°F-6.5°C 83% 8.0 mph NW12.9 kmh NW 11.0 mph17.7 kmh 30.58 in1035.6 mb 0.00 in0.0 mm 0.00 in/hr0.0 mm/hr 0.00 in0.0 mm
08:48 AM 24.7°F-4.1°C 20.3°F-6.5°C 83% 7.0 mph NW11.3 kmh NW 11.0 mph17.7 kmh 30.58 in1035.6 mb 0.00 in0.0 mm 0.00 in/hr0.0 mm/hr 0.00 in0.0 mm
08:49 AM 24.8°F-4.0°C 20.4°F-6.4°C 83% 8.0 mph NW12.9 kmh NW 11.0 mph17.7 kmh 30.58 in1035.6 mb 0.00 in0.0 mm 0.00 in/hr0.0 mm/hr 0.00 in0.0 mm
08:50 AM 24.8°F-4.0°C 20.4°F-6.4°C 83% 9.0 mph NW14.5 kmh NW 11.0 mph17.7 kmh 30.58 in1035.6 mb 0.00 in0.0 mm 0.00 in/hr0.0 mm/hr 0.00 in0.0 mm
08:51 AM 24.8°F-4.0°C 20.4°F-6.4°C 83% 10.0 mph NW16.1 kmh NW 12.0 mph19.3 kmh 30.58 in1035.6 mb 0.00 in0.0 mm 0.00 in/hr0.0 mm/hr 0.00 in0.0 mm
08:52 AM 24.9°F-3.9°C 20.5°F-6.4°C 83% 10.0 mph NW16.1 kmh NW 12.0 mph19.3 kmh 30.58 in1035.6 mb 0.00 in0.0 mm 0.00 in/hr0.0 mm/hr 0.00 in0.0 mm
08:53 AM 24.9°F-3.9°C 20.5°F-6.4°C 83% 8.0 mph WNW12.9 kmh WNW 12.0 mph19.3 kmh 30.58 in1035.6 mb 0.00 in0.0 mm 0.00 in/hr0.0 mm/hr 0.00 in0.0 mm
08:54 AM 25.0°F-3.9°C 20.6°F-6.3°C 83% 10.0 mph NW16.1 kmh NW 12.0 mph19.3 kmh 30.58 in1035.6 mb 0.00 in0.0 mm 0.00 in/hr0.0 mm/hr 0.00 in0.0 mm
08:55 AM 25.0°F-3.9°C 20.6°F-6.3°C 83% 10.0 mph NW16.1 kmh NW 12.0 mph19.3 kmh 30.59 in1035.9 mb 0.00 in0.0 mm 0.00 in/hr0.0 mm/hr 0.00 in0.0 mm
08:56 AM 25.1°F-3.8°C 20.7°F-6.3°C 83% 7.0 mph NW11.3 kmh NW 12.0 mph19.3 kmh 30.58 in1035.6 mb 0.00 in0.0 mm 0.00 in/hr0.0 mm/hr 0.00 in0.0 mm
08:57 AM 25.1°F-3.8°C 20.7°F-6.3°C 83% 11.0 mph NW17.7 kmh NW 14.0 mph22.5 kmh 30.59 in1035.9 mb 0.00 in0.0 mm 0.00 in/hr0.0 mm/hr 0.00 in0.0 mm
08:58 AM 25.1°F-3.8°C 20.7°F-6.3°C 83% 8.0 mph NW12.9 kmh NW 14.0 mph22.5 kmh 30.59 in1035.9 mb 0.00 in0.0 mm 0.00 in/hr0.0 mm/hr 0.00 in0.0 mm
08:59 AM 25.2°F-3.8°C 20.5°F-6.4°C 82% 9.0 mph NW14.5 kmh NW 14.0 mph22.5 kmh 30.59 in1035.9 mb 0.00 in0.0 mm 0.00 in/hr0.0 mm/hr 0.00 in0.0 mm
09:00 AM 25.2°F-3.8°C 20.5°F-6.4°C 82% 10.0 mph NW16.1 kmh NW 14.0 mph22.5 kmh 30.59 in1035.9 mb 0.00 in0.0 mm 0.00 in/hr0.0 mm/hr 0.00 in0.0 mm
09:01 AM 25.2°F-3.8°C 20.5°F-6.4°C 82% 10.0 mph NW16.1 kmh NW 14.0 mph22.5 kmh 30.59 in1035.9 mb 0.00 in0.0 mm 0.00 in/hr0.0 mm/hr 0.00 in0.0 mm
09:02 AM 25.2°F-3.8°C 20.5°F-6.4°C 82% 8.0 mph NW12.9 kmh NW 10.0 mph16.1 kmh 30.59 in1035.9 mb 0.00 in0.0 mm 0.00 in/hr0.0 mm/hr 0.00 in0.0 mm
09:03 AM 25.3°F-3.7°C 20.9°F-6.2°C 83% 8.0 mph NW12.9 kmh NW 12.0 mph19.3 kmh 30.59 in1035.9 mb 0.00 in0.0 mm 0.00 in/hr0.0 mm/hr 0.00 in0.0 mm
09:04 AM 25.4°F-3.7°C 21.0°F-6.1°C 83% 7.0 mph NW11.3 kmh NW 12.0 mph19.3 kmh 30.59 in1035.9 mb 0.00 in0.0 mm 0.00 in/hr0.0 mm/hr 0.00 in0.0 mm
09:05 AM 25.4°F-3.7°C 21.0°F-6.1°C 83% 8.0 mph NW12.9 kmh NW 12.0 mph19.3 kmh 30.59 in1035.9 mb 0.00 in0.0 mm 0.00 in/hr0.0 mm/hr 0.00 in0.0 mm
09:06 AM 25.4°F-3.7°C 21.0°F-6.1°C 83% 11.0 mph NW17.7 kmh NW 12.0 mph19.3 kmh 30.59 in1035.9 mb 0.00 in0.0 mm 0.00 in/hr0.0 mm/hr 0.00 in0.0 mm
09:07 AM 25.5°F-3.6°C 20.8°F-6.2°C 82% 10.0 mph NW16.1 kmh NW 12.0 mph19.3 kmh 30.59 in1035.9 mb 0.00 in0.0 mm 0.00 in/hr0.0 mm/hr 0.00 in0.0 mm
09:08 AM 25.6°F-3.6°C 20.9°F-6.2°C 82% 8.0 mph NW12.9 kmh NW 12.0 mph19.3 kmh 30.59 in1035.9 mb 0.00 in0.0 mm 0.00 in/hr0.0 mm/hr 0.00 in0.0 mm
09:09 AM 25.6°F-3.6°C 20.9°F-6.2°C 82% 9.0 mph NNW14.5 kmh NNW 12.0 mph19.3 kmh 30.59 in1035.9 mb 0.00 in0.0 mm 0.00 in/hr0.0 mm/hr 0.00 in0.0 mm
09:10 AM 25.7°F-3.5°C 21.0°F-6.1°C 82% 11.0 mph NW17.7 kmh NW 12.0 mph19.3 kmh 30.59 in1035.9 mb 0.00 in0.0 mm 0.00 in/hr0.0 mm/hr 0.00 in0.0 mm
09:11 AM 25.8°F-3.4°C 21.1°F-6.1°C 82% 12.0 mph NW19.3 kmh NW 13.0 mph20.9 kmh 30.59 in1035.9 mb 0.00 in0.0 mm 0.00 in/hr0.0 mm/hr 0.00 in0.0 mm
09:12 AM 25.8°F-3.4°C 21.1°F-6.1°C 82% 9.0 mph NW14.5 kmh NW 13.0 mph20.9 kmh 30.59 in1035.9 mb 0.00 in0.0 mm 0.00 in/hr0.0 mm/hr 0.00 in0.0 mm
09:13 AM 25.9°F-3.4°C 21.2°F-6.0°C 82% 9.0 mph NW14.5 kmh NW 13.0 mph20.9 kmh 30.59 in1035.9 mb 0.00 in0.0 mm 0.00 in/hr0.0 mm/hr 0.00 in0.0 mm
09:14 AM 26.0°F-3.3°C 21.3°F-5.9°C 82% 10.0 mph NW16.1 kmh NW 13.0 mph20.9 kmh 30.59 in1035.9 mb 0.00 in0.0 mm 0.00 in/hr0.0 mm/hr 0.00 in0.0 mm
09:15 AM 26.1°F-3.3°C 21.4°F-5.9°C 82% 8.0 mph NW12.9 kmh NW 13.0 mph20.9 kmh 30.59 in1035.9 mb 0.00 in0.0 mm 0.00 in/hr0.0 mm/hr 0.00 in0.0 mm
09:16 AM 26.2°F-3.2°C 21.5°F-5.8°C 82% 9.0 mph N14.5 kmh N 13.0 mph20.9 kmh 30.59 in1035.9 mb 0.00 in0.0 mm 0.00 in/hr0.0 mm/hr 0.00 in0.0 mm
09:17 AM 26.3°F-3.2°C 21.6°F-5.8°C 82% 7.0 mph NNW11.3 kmh NNW 13.0 mph20.9 kmh 30.59 in1035.9 mb 0.00 in0.0 mm 0.00 in/hr0.0 mm/hr 0.00 in0.0 mm
09:18 AM 26.4°F-3.1°C 21.7°F-5.7°C 82% 12.0 mph NW19.3 kmh NW 13.0 mph20.9 kmh 30.59 in1035.9 mb 0.00 in0.0 mm 0.00 in/hr0.0 mm/hr 0.00 in0.0 mm
09:19 AM 26.5°F-3.1°C 21.5°F-5.8°C 81% 8.0 mph NW12.9 kmh NW 13.0 mph20.9 kmh 30.60 in1036.2 mb 0.00 in0.0 mm 0.00 in/hr0.0 mm/hr 0.00 in0.0 mm
09:20 AM 26.7°F-2.9°C 21.7°F-5.7°C 81% 10.0 mph NNW16.1 kmh NNW 13.0 mph20.9 kmh 30.60 in1036.2 mb 0.00 in0.0 mm 0.00 in/hr0.0 mm/hr 0.00 in0.0 mm
09:21 AM 26.7°F-2.9°C 21.7°F-5.7°C 81% 10.0 mph NNW16.1 kmh NNW 14.0 mph22.5 kmh 30.60 in1036.2 mb 0.00 in0.0 mm 0.00 in/hr0.0 mm/hr 0.00 in0.0 mm
09:22 AM 26.9°F-2.8°C 21.9°F-5.6°C 81% 10.0 mph NNW16.1 kmh NNW 14.0 mph22.5 kmh 30.60 in1036.2 mb 0.00 in0.0 mm 0.00 in/hr0.0 mm/hr 0.00 in0.0 mm
09:23 AM 27.0°F-2.8°C 21.7°F-5.7°C 80% 12.0 mph NNW19.3 kmh NNW 14.0 mph22.5 kmh 30.60 in1036.2 mb 0.00 in0.0 mm 0.00 in/hr0.0 mm/hr 0.00 in0.0 mm
09:24 AM 27.0°F-2.8°C 21.7°F-5.7°C 80% 10.0 mph NNW16.1 kmh NNW 14.0 mph22.5 kmh 30.60 in1036.2 mb 0.00 in0.0 mm 0.00 in/hr0.0 mm/hr 0.00 in0.0 mm
09:25 AM 27.1°F-2.7°C 21.8°F-5.7°C 80% 10.0 mph NW16.1 kmh NW 14.0 mph22.5 kmh 30.60 in1036.2 mb 0.00 in0.0 mm 0.00 in/hr0.0 mm/hr 0.00 in0.0 mm
09:26 AM 27.2°F-2.7°C 21.9°F-5.6°C 80% 7.0 mph N11.3 kmh N 14.0 mph22.5 kmh 30.60 in1036.2 mb 0.00 in0.0 mm 0.00 in/hr0.0 mm/hr 0.00 in0.0 mm
09:27 AM 27.3°F-2.6°C 21.7°F-5.7°C 79% 9.0 mph NW14.5 kmh NW 14.0 mph22.5 kmh 30.60 in1036.2 mb 0.00 in0.0 mm 0.00 in/hr0.0 mm/hr 0.00 in0.0 mm
09:28 AM 27.4°F-2.6°C 21.8°F-5.7°C 79% 14.0 mph NNW22.5 kmh NNW 14.0 mph22.5 kmh 30.60 in1036.2 mb 0.00 in0.0 mm 0.00 in/hr0.0 mm/hr 0.00 in0.0 mm
09:29 AM 27.5°F-2.5°C 21.9°F-5.6°C 79% 8.0 mph NW12.9 kmh NW 14.0 mph22.5 kmh 30.59 in1035.9 mb 0.00 in0.0 mm 0.00 in/hr0.0 mm/hr 0.00 in0.0 mm
09:30 AM 27.6°F-2.4°C 22.0°F-5.6°C 79% 11.0 mph NNW17.7 kmh NNW 14.0 mph22.5 kmh 30.59 in1035.9 mb 0.00 in0.0 mm 0.00 in/hr0.0 mm/hr 0.00 in0.0 mm
09:31 AM 27.7°F-2.4°C 22.1°F-5.5°C 79% 9.0 mph N14.5 kmh N 14.0 mph22.5 kmh 30.59 in1035.9 mb 0.00 in0.0 mm 0.00 in/hr0.0 mm/hr 0.00 in0.0 mm
09:32 AM 27.7°F-2.4°C 21.8°F-5.7°C 78% 10.0 mph NW16.1 kmh NW 12.0 mph19.3 kmh 30.60 in1036.2 mb 0.00 in0.0 mm 0.00 in/hr0.0 mm/hr 0.00 in0.0 mm
09:33 AM 27.8°F-2.3°C 21.9°F-5.6°C 78% 12.0 mph N19.3 kmh N 12.0 mph19.3 kmh 30.60 in1036.2 mb 0.00 in0.0 mm 0.00 in/hr0.0 mm/hr 0.00 in0.0 mm
09:34 AM 27.9°F-2.3°C 21.9°F-5.6°C 78% 11.0 mph N17.7 kmh N 12.0 mph19.3 kmh 30.60 in1036.2 mb 0.00 in0.0 mm 0.00 in/hr0.0 mm/hr 0.00 in0.0 mm
09:35 AM 27.9°F-2.3°C 21.6°F-5.8°C 77% 7.0 mph NNW11.3 kmh NNW 12.0 mph19.3 kmh 30.60 in1036.2 mb 0.00 in0.0 mm 0.00 in/hr0.0 mm/hr 0.00 in0.0 mm
09:36 AM 27.9°F-2.3°C 21.6°F-5.8°C 77% 8.0 mph NW12.9 kmh NW 12.0 mph19.3 kmh 30.60 in1036.2 mb 0.00 in0.0 mm 0.00 in/hr0.0 mm/hr 0.00 in0.0 mm
09:37 AM 28.0°F-2.2°C 21.7°F-5.7°C 77% 10.0 mph N16.1 kmh N 12.0 mph19.3 kmh 30.60 in1036.2 mb 0.00 in0.0 mm 0.00 in/hr0.0 mm/hr 0.00 in0.0 mm
09:38 AM 28.1°F-2.2°C 21.8°F-5.7°C 77% 11.0 mph NNW17.7 kmh NNW 12.0 mph19.3 kmh 30.60 in1036.2 mb 0.00 in0.0 mm 0.00 in/hr0.0 mm/hr 0.00 in0.0 mm
09:39 AM 28.1°F-2.2°C 21.8°F-5.7°C 77% 8.0 mph NW12.9 kmh NW 12.0 mph19.3 kmh 30.59 in1035.9 mb 0.00 in0.0 mm 0.00 in/hr0.0 mm/hr 0.00 in0.0 mm
09:40 AM 28.1°F-2.2°C 21.8°F-5.7°C 77% 8.0 mph N12.9 kmh N 12.0 mph19.3 kmh 30.59 in1035.9 mb 0.00 in0.0 mm 0.00 in/hr0.0 mm/hr 0.00 in0.0 mm
09:41 AM 28.2°F-2.1°C 21.9°F-5.6°C 77% 12.0 mph NNW19.3 kmh NNW 12.0 mph19.3 kmh 30.59 in1035.9 mb 0.00 in0.0 mm 0.00 in/hr0.0 mm/hr 0.00 in0.0 mm
09:42 AM 28.3°F-2.1°C 21.7°F-5.7°C 76% 13.0 mph N20.9 kmh N 13.0 mph20.9 kmh 30.59 in1035.9 mb 0.00 in0.0 mm 0.00 in/hr0.0 mm/hr 0.00 in0.0 mm
09:43 AM 28.3°F-2.1°C 21.7°F-5.7°C 76% 12.0 mph NW19.3 kmh NW 14.0 mph22.5 kmh 30.59 in1035.9 mb 0.00 in0.0 mm 0.00 in/hr0.0 mm/hr 0.00 in0.0 mm
09:44 AM 28.4°F-2.0°C 21.8°F-5.7°C 76% 11.0 mph N17.7 kmh N 16.0 mph25.7 kmh 30.59 in1035.9 mb 0.00 in0.0 mm 0.00 in/hr0.0 mm/hr 0.00 in0.0 mm
09:45 AM 28.4°F-2.0°C 21.8°F-5.7°C 76% 10.0 mph NW16.1 kmh NW 16.0 mph25.7 kmh 30.60 in1036.2 mb 0.00 in0.0 mm 0.00 in/hr0.0 mm/hr 0.00 in0.0 mm
09:46 AM 28.4°F-2.0°C 21.8°F-5.7°C 76% 10.0 mph N16.1 kmh N 16.0 mph25.7 kmh 30.60 in1036.2 mb 0.00 in0.0 mm 0.00 in/hr0.0 mm/hr 0.00 in0.0 mm
09:47 AM 28.4°F-2.0°C 21.8°F-5.7°C 76% 13.0 mph N20.9 kmh N 16.0 mph25.7 kmh 30.60 in1036.2 mb 0.00 in0.0 mm 0.00 in/hr0.0 mm/hr 0.00 in0.0 mm
09:48 AM 28.4°F-2.0°C 21.8°F-5.7°C 76% 13.0 mph N20.9 kmh N 16.0 mph25.7 kmh 30.60 in1036.2 mb 0.00 in0.0 mm 0.00 in/hr0.0 mm/hr 0.00 in0.0 mm
09:49 AM 28.4°F-2.0°C 21.8°F-5.7°C 76% 13.0 mph N20.9 kmh N 16.0 mph25.7 kmh 30.60 in1036.2 mb 0.00 in0.0 mm 0.00 in/hr0.0 mm/hr 0.00 in0.0 mm
09:50 AM 28.4°F-2.0°C 21.8°F-5.7°C 76% 8.0 mph N12.9 kmh N 16.0 mph25.7 kmh 30.60 in1036.2 mb 0.00 in0.0 mm 0.00 in/hr0.0 mm/hr 0.00 in0.0 mm
09:51 AM 28.6°F-1.9°C 22.0°F-5.6°C 76% 9.0 mph N14.5 kmh N 16.0 mph25.7 kmh 30.60 in1036.2 mb 0.00 in0.0 mm 0.00 in/hr0.0 mm/hr 0.00 in0.0 mm
09:52 AM 28.7°F-1.8°C 22.1°F-5.5°C 76% 13.0 mph N20.9 kmh N 16.0 mph25.7 kmh 30.60 in1036.2 mb 0.00 in0.0 mm 0.00 in/hr0.0 mm/hr 0.00 in0.0 mm
09:53 AM 28.7°F-1.8°C 21.8°F-5.7°C 75% 10.0 mph NNW16.1 kmh NNW 17.0 mph27.4 kmh 30.60 in1036.2 mb 0.00 in0.0 mm 0.00 in/hr0.0 mm/hr 0.00 in0.0 mm
09:54 AM 28.8°F-1.8°C 21.9°F-5.6°C 75% 10.0 mph N16.1 kmh N 17.0 mph27.4 kmh 30.60 in1036.2 mb 0.00 in0.0 mm 0.00 in/hr0.0 mm/hr 0.00 in0.0 mm
09:55 AM 28.9°F-1.7°C 22.0°F-5.6°C 75% 10.0 mph N16.1 kmh N 17.0 mph27.4 kmh 30.60 in1036.2 mb 0.00 in0.0 mm 0.00 in/hr0.0 mm/hr 0.00 in0.0 mm
09:56 AM 29.0°F-1.7°C 22.1°F-5.5°C 75% 10.0 mph N16.1 kmh N 17.0 mph27.4 kmh 30.60 in1036.2 mb 0.00 in0.0 mm 0.00 in/hr0.0 mm/hr 0.00 in0.0 mm
09:57 AM 29.1°F-1.6°C 22.2°F-5.4°C 75% 15.0 mph N24.1 kmh N 17.0 mph27.4 kmh 30.60 in1036.2 mb 0.00 in0.0 mm 0.00 in/hr0.0 mm/hr 0.00 in0.0 mm
09:58 AM 29.2°F-1.6°C 22.3°F-5.4°C 75% 14.0 mph N22.5 kmh N 17.0 mph27.4 kmh 30.60 in1036.2 mb 0.00 in0.0 mm 0.00 in/hr0.0 mm/hr 0.00 in0.0 mm
09:59 AM 29.3°F-1.5°C 22.1°F-5.5°C 74% 9.0 mph NNW14.5 kmh NNW 17.0 mph27.4 kmh 30.60 in1036.2 mb 0.00 in0.0 mm 0.00 in/hr0.0 mm/hr 0.00 in0.0 mm
10:00 AM 29.4°F-1.4°C 22.2°F-5.4°C 74% 12.0 mph N19.3 kmh N 17.0 mph27.4 kmh 30.60 in1036.2 mb 0.00 in0.0 mm 0.00 in/hr0.0 mm/hr 0.00 in0.0 mm
10:01 AM 29.5°F-1.4°C 22.3°F-5.4°C 74% 11.0 mph N17.7 kmh N 17.0 mph27.4 kmh 30.60 in1036.2 mb 0.00 in0.0 mm 0.00 in/hr0.0 mm/hr 0.00 in0.0 mm
10:02 AM 29.7°F-1.3°C 22.4°F-5.3°C 74% 14.0 mph NNW22.5 kmh NNW 14.0 mph22.5 kmh 30.60 in1036.2 mb 0.00 in0.0 mm 0.00 in/hr0.0 mm/hr 0.00 in0.0 mm
10:03 AM 29.7°F-1.3°C 22.4°F-5.3°C 74% 13.0 mph N20.9 kmh N 16.0 mph25.7 kmh 30.60 in1036.2 mb 0.00 in0.0 mm 0.00 in/hr0.0 mm/hr 0.00 in0.0 mm
10:04 AM 29.7°F-1.3°C 22.1°F-5.5°C 73% 12.0 mph N19.3 kmh N 16.0 mph25.7 kmh 30.60 in1036.2 mb 0.00 in0.0 mm 0.00 in/hr0.0 mm/hr 0.00 in0.0 mm
10:05 AM 29.8°F-1.2°C 22.2°F-5.4°C 73% 12.0 mph NNW19.3 kmh NNW 16.0 mph25.7 kmh 30.59 in1035.9 mb 0.00 in0.0 mm 0.00 in/hr0.0 mm/hr 0.00 in0.0 mm
10:06 AM 29.8°F-1.2°C 22.2°F-5.4°C 73% 10.0 mph N16.1 kmh N 16.0 mph25.7 kmh 30.60 in1036.2 mb 0.00 in0.0 mm 0.00 in/hr0.0 mm/hr 0.00 in0.0 mm
10:07 AM 29.9°F-1.2°C 22.3°F-5.4°C 73% 12.0 mph NNE19.3 kmh NNE 16.0 mph25.7 kmh 30.60 in1036.2 mb 0.00 in0.0 mm 0.00 in/hr0.0 mm/hr 0.00 in0.0 mm
10:08 AM 29.9°F-1.2°C 22.3°F-5.4°C 73% 16.0 mph NW25.7 kmh NW 16.0 mph25.7 kmh 30.60 in1036.2 mb 0.00 in0.0 mm 0.00 in/hr0.0 mm/hr 0.00 in0.0 mm
10:09 AM 29.9°F-1.2°C 22.0°F-5.6°C 72% 15.0 mph N24.1 kmh N 18.0 mph29.0 kmh 30.60 in1036.2 mb 0.00 in0.0 mm 0.00 in/hr0.0 mm/hr 0.00 in0.0 mm
10:10 AM 29.9°F-1.2°C 22.0°F-5.6°C 72% 13.0 mph NNE20.9 kmh NNE 18.0 mph29.0 kmh 30.60 in1036.2 mb 0.00 in0.0 mm 0.00 in/hr0.0 mm/hr 0.00 in0.0 mm
10:11 AM 30.0°F-1.1°C 22.1°F-5.5°C 72% 14.0 mph N22.5 kmh N 18.0 mph29.0 kmh 30.60 in1036.2 mb 0.00 in0.0 mm 0.00 in/hr0.0 mm/hr 0.00 in0.0 mm
10:12 AM 30.0°F-1.1°C 22.1°F-5.5°C 72% 11.0 mph N17.7 kmh N 18.0 mph29.0 kmh 30.60 in1036.2 mb 0.00 in0.0 mm 0.00 in/hr0.0 mm/hr 0.00 in0.0 mm
10:13 AM 30.1°F-1.1°C 22.2°F-5.4°C 72% 17.0 mph NW27.4 kmh NW 20.0 mph32.2 kmh 30.60 in1036.2 mb 0.00 in0.0 mm 0.00 in/hr0.0 mm/hr 0.00 in0.0 mm
10:14 AM 30.1°F-1.1°C 22.2°F-5.4°C 72% 14.0 mph N22.5 kmh N 20.0 mph32.2 kmh 30.60 in1036.2 mb 0.00 in0.0 mm 0.00 in/hr0.0 mm/hr 0.00 in0.0 mm
10:15 AM 30.1°F-1.1°C 21.9°F-5.6°C 71% 12.0 mph NNW19.3 kmh NNW 20.0 mph32.2 kmh 30.60 in1036.2 mb 0.00 in0.0 mm 0.00 in/hr0.0 mm/hr 0.00 in0.0 mm
10:16 AM 30.1°F-1.1°C 21.9°F-5.6°C 71% 14.0 mph N22.5 kmh N 20.0 mph32.2 kmh 30.60 in1036.2 mb 0.00 in0.0 mm 0.00 in/hr0.0 mm/hr 0.00 in0.0 mm
10:17 AM 30.2°F-1.0°C 21.9°F-5.6°C 71% 12.0 mph N19.3 kmh N 20.0 mph32.2 kmh 30.60 in1036.2 mb 0.00 in0.0 mm 0.00 in/hr0.0 mm/hr 0.00 in0.0 mm
10:18 AM 30.2°F-1.0°C 21.9°F-5.6°C 71% 11.0 mph NNW17.7 kmh NNW 20.0 mph32.2 kmh 30.59 in1035.9 mb 0.00 in0.0 mm 0.00 in/hr0.0 mm/hr 0.00 in0.0 mm
10:19 AM 30.2°F-1.0°C 21.6°F-5.8°C 70% 16.0 mph N25.7 kmh N 20.0 mph32.2 kmh 30.60 in1036.2 mb 0.00 in0.0 mm 0.00 in/hr0.0 mm/hr 0.00 in0.0 mm
10:20 AM 30.2°F-1.0°C 21.6°F-5.8°C 70% 14.0 mph NNE22.5 kmh NNE 20.0 mph32.2 kmh 30.60 in1036.2 mb 0.00 in0.0 mm 0.00 in/hr0.0 mm/hr 0.00 in0.0 mm
10:21 AM 30.3°F-0.9°C 22.0°F-5.6°C 71% 16.0 mph NNE25.7 kmh NNE 20.0 mph32.2 kmh 30.60 in1036.2 mb 0.00 in0.0 mm 0.00 in/hr0.0 mm/hr 0.00 in0.0 mm
10:22 AM 30.4°F-0.9°C 22.1°F-5.5°C 71% 15.0 mph N24.1 kmh N 20.0 mph32.2 kmh 30.60 in1036.2 mb 0.00 in0.0 mm 0.00 in/hr0.0 mm/hr 0.00 in0.0 mm
10:23 AM 30.5°F-0.8°C 22.2°F-5.4°C 71% 16.0 mph N25.7 kmh N 20.0 mph32.2 kmh 30.60 in1036.2 mb 0.00 in0.0 mm 0.00 in/hr0.0 mm/hr 0.00 in0.0 mm
10:24 AM 30.5°F-0.8°C 21.9°F-5.6°C 70% 14.0 mph N22.5 kmh N 20.0 mph32.2 kmh 30.60 in1036.2 mb 0.00 in0.0 mm 0.00 in/hr0.0 mm/hr 0.00 in0.0 mm
10:25 AM 30.6°F-0.8°C 22.0°F-5.6°C 70% 16.0 mph N25.7 kmh N 20.0 mph32.2 kmh 30.60 in1036.2 mb 0.00 in0.0 mm 0.00 in/hr0.0 mm/hr 0.00 in0.0 mm
10:26 AM 30.6°F-0.8°C 22.0°F-5.6°C 70% 15.0 mph N24.1 kmh N 20.0 mph32.2 kmh 30.60 in1036.2 mb 0.00 in0.0 mm 0.00 in/hr0.0 mm/hr 0.00 in0.0 mm
10:27 AM 30.7°F-0.7°C 21.8°F-5.7°C 69% 17.0 mph N27.4 kmh N 20.0 mph32.2 kmh 30.60 in1036.2 mb 0.00 in0.0 mm 0.00 in/hr0.0 mm/hr 0.00 in0.0 mm
10:28 AM 30.7°F-0.7°C 21.8°F-5.7°C 69% 15.0 mph N24.1 kmh N 20.0 mph32.2 kmh 30.60 in1036.2 mb 0.00 in0.0 mm 0.00 in/hr0.0 mm/hr 0.00 in0.0 mm
10:29 AM 30.9°F-0.6°C 22.6°F-5.2°C 71% 12.0 mph NNE19.3 kmh NNE 20.0 mph32.2 kmh 30.60 in1036.2 mb 0.00 in0.0 mm 0.00 in/hr0.0 mm/hr 0.00 in0.0 mm
10:30 AM 31.1°F-0.5°C 22.5°F-5.3°C 70% 12.0 mph N19.3 kmh N 20.0 mph32.2 kmh 30.60 in1036.2 mb 0.00 in0.0 mm 0.00 in/hr0.0 mm/hr 0.00 in0.0 mm
10:31 AM 31.2°F-0.4°C 22.2°F-5.4°C 69% 15.0 mph N24.1 kmh N 20.0 mph32.2 kmh 30.60 in1036.2 mb 0.00 in0.0 mm 0.00 in/hr0.0 mm/hr 0.00 in0.0 mm
10:32 AM 31.2°F-0.4°C 21.9°F-5.6°C 68% 15.0 mph NNE24.1 kmh NNE 15.0 mph24.1 kmh 30.60 in1036.2 mb 0.00 in0.0 mm 0.00 in/hr0.0 mm/hr 0.00 in0.0 mm
10:33 AM 31.2°F-0.4°C 21.9°F-5.6°C 68% 18.0 mph N29.0 kmh N 18.0 mph29.0 kmh 30.60 in1036.2 mb 0.00 in0.0 mm 0.00 in/hr0.0 mm/hr 0.00 in0.0 mm
10:34 AM 31.2°F-0.4°C 21.9°F-5.6°C 68% 13.0 mph NNE20.9 kmh NNE 18.0 mph29.0 kmh 30.60 in1036.2 mb 0.00 in0.0 mm 0.00 in/hr0.0 mm/hr 0.00 in0.0 mm
10:35 AM 31.2°F-0.4°C 21.9°F-5.6°C 68% 15.0 mph NNE24.1 kmh NNE 18.0 mph29.0 kmh 30.60 in1036.2 mb 0.00 in0.0 mm 0.00 in/hr0.0 mm/hr 0.00 in0.0 mm
10:36 AM 31.1°F-0.5°C 21.8°F-5.7°C 68% 16.0 mph N25.7 kmh N 18.0 mph29.0 kmh 30.60 in1036.2 mb 0.00 in0.0 mm 0.00 in/hr0.0 mm/hr 0.00 in0.0 mm
10:37 AM 31.2°F-0.4°C 21.9°F-5.6°C 68% 14.0 mph NNE22.5 kmh NNE 18.0 mph29.0 kmh 30.60 in1036.2 mb 0.00 in0.0 mm 0.00 in/hr0.0 mm/hr 0.00 in0.0 mm
10:38 AM 31.2°F-0.4°C 22.2°F-5.4°C 69% 16.0 mph N25.7 kmh N 18.0 mph29.0 kmh 30.60 in1036.2 mb 0.00 in0.0 mm 0.00 in/hr0.0 mm/hr 0.00 in0.0 mm
10:39 AM 31.3°F-0.4°C 22.0°F-5.6°C 68% 17.0 mph N27.4 kmh N 19.0 mph30.6 kmh 30.60 in1036.2 mb 0.00 in0.0 mm 0.00 in/hr0.0 mm/hr 0.00 in0.0 mm
10:40 AM 31.4°F-0.3°C 22.4°F-5.3°C 69% 13.0 mph NNW20.9 kmh NNW 19.0 mph30.6 kmh 30.60 in1036.2 mb 0.00 in0.0 mm 0.00 in/hr0.0 mm/hr 0.00 in0.0 mm
10:41 AM 31.4°F-0.3°C 22.1°F-5.5°C 68% 13.0 mph N20.9 kmh N 19.0 mph30.6 kmh 30.60 in1036.2 mb 0.00 in0.0 mm 0.00 in/hr0.0 mm/hr 0.00 in0.0 mm
10:42 AM 31.5°F-0.3°C 22.2°F-5.4°C 68% 13.0 mph N20.9 kmh N 19.0 mph30.6 kmh 30.60 in1036.2 mb 0.00 in0.0 mm 0.00 in/hr0.0 mm/hr 0.00 in0.0 mm
10:43 AM 31.6°F-0.2°C 22.6°F-5.2°C 69% 14.0 mph NNE22.5 kmh NNE 19.0 mph30.6 kmh 30.60 in1036.2 mb 0.00 in0.0 mm 0.00 in/hr0.0 mm/hr 0.00 in0.0 mm
10:44 AM 31.7°F-0.2°C 22.4°F-5.3°C 68% 18.0 mph N29.0 kmh N 21.0 mph33.8 kmh 30.60 in1036.2 mb 0.00 in0.0 mm 0.00 in/hr0.0 mm/hr 0.00 in0.0 mm
10:45 AM 31.6°F-0.2°C 22.3°F-5.4°C 68% 15.0 mph N24.1 kmh N 21.0 mph33.8 kmh 30.60 in1036.2 mb 0.00 in0.0 mm 0.00 in/hr0.0 mm/hr 0.00 in0.0 mm
10:46 AM 31.6°F-0.2°C 21.9°F-5.6°C 67% 12.0 mph NNE19.3 kmh NNE 21.0 mph33.8 kmh 30.60 in1036.2 mb 0.00 in0.0 mm 0.00 in/hr0.0 mm/hr 0.00 in0.0 mm
10:47 AM 31.6°F-0.2°C 22.3°F-5.4°C 68% 17.0 mph N27.4 kmh N 21.0 mph33.8 kmh 30.60 in1036.2 mb 0.00 in0.0 mm 0.00 in/hr0.0 mm/hr 0.00 in0.0 mm
10:48 AM 31.6°F-0.2°C 22.3°F-5.4°C 68% 12.0 mph N19.3 kmh N 21.0 mph33.8 kmh 30.60 in1036.2 mb 0.00 in0.0 mm 0.00 in/hr0.0 mm/hr 0.00 in0.0 mm
10:49 AM 31.5°F-0.3°C 22.2°F-5.4°C 68% 16.0 mph N25.7 kmh N 21.0 mph33.8 kmh 30.60 in1036.2 mb 0.00 in0.0 mm 0.00 in/hr0.0 mm/hr 0.00 in0.0 mm
10:50 AM 31.5°F-0.3°C 21.8°F-5.7°C 67% 16.0 mph N25.7 kmh N 21.0 mph33.8 kmh 30.60 in1036.2 mb 0.00 in0.0 mm 0.00 in/hr0.0 mm/hr 0.00 in0.0 mm
10:51 AM 31.5°F-0.3°C 21.8°F-5.7°C 67% 11.0 mph N17.7 kmh N 21.0 mph33.8 kmh 30.60 in1036.2 mb 0.00 in0.0 mm 0.00 in/hr0.0 mm/hr 0.00 in0.0 mm
10:52 AM 31.4°F-0.3°C 21.7°F-5.7°C 67% 12.0 mph N19.3 kmh N 21.0 mph33.8 kmh 30.60 in1036.2 mb 0.00 in0.0 mm 0.00 in/hr0.0 mm/hr 0.00 in0.0 mm
10:53 AM 31.5°F-0.3°C 21.8°F-5.7°C 67% 16.0 mph N25.7 kmh N 21.0 mph33.8 kmh 30.60 in1036.2 mb 0.00 in0.0 mm 0.00 in/hr0.0 mm/hr 0.00 in0.0 mm
10:54 AM 31.5°F-0.3°C 22.2°F-5.4°C 68% 14.0 mph NNE22.5 kmh NNE 21.0 mph33.8 kmh 30.60 in1036.2 mb 0.00 in0.0 mm 0.00 in/hr0.0 mm/hr 0.00 in0.0 mm
10:55 AM 31.6°F-0.2°C 22.3°F-5.4°C 68% 14.0 mph NNE22.5 kmh NNE 21.0 mph33.8 kmh 30.60 in1036.2 mb 0.00 in0.0 mm 0.00 in/hr0.0 mm/hr 0.00 in0.0 mm
10:56 AM 31.6°F-0.2°C 21.9°F-5.6°C 67% 13.0 mph NE20.9 kmh NE 21.0 mph33.8 kmh 30.60 in1036.2 mb 0.00 in0.0 mm 0.00 in/hr0.0 mm/hr 0.00 in0.0 mm
10:57 AM 31.7°F-0.2°C 22.0°F-5.6°C 67% 13.0 mph N20.9 kmh N 21.0 mph33.8 kmh 30.60 in1036.2 mb 0.00 in0.0 mm 0.00 in/hr0.0 mm/hr 0.00 in0.0 mm
10:58 AM 31.7°F-0.2°C 22.0°F-5.6°C 67% 13.0 mph N20.9 kmh N 21.0 mph33.8 kmh 30.61 in1036.6 mb 0.00 in0.0 mm 0.00 in/hr0.0 mm/hr 0.00 in0.0 mm
10:59 AM 31.8°F-0.1°C 22.5°F-5.3°C 68% 14.0 mph N22.5 kmh N 21.0 mph33.8 kmh 30.61 in1036.6 mb 0.00 in0.0 mm 0.00 in/hr0.0 mm/hr 0.00 in0.0 mm
11:00 AM 31.9°F-0.1°C 22.6°F-5.2°C 68% 13.0 mph N20.9 kmh N 21.0 mph33.8 kmh 30.61 in1036.6 mb 0.00 in0.0 mm 0.00 in/hr0.0 mm/hr 0.00 in0.0 mm
11:01 AM 32.0°F0.0°C 22.3°F-5.4°C 67% 15.0 mph NNW24.1 kmh NNW 21.0 mph33.8 kmh 30.61 in1036.6 mb 0.00 in0.0 mm 0.00 in/hr0.0 mm/hr 0.00 in0.0 mm
11:02 AM 32.0°F0.0°C 22.3°F-5.4°C 67% 17.0 mph N27.4 kmh N 17.0 mph27.4 kmh 30.61 in1036.6 mb 0.00 in0.0 mm 0.00 in/hr0.0 mm/hr 0.00 in0.0 mm
11:03 AM 32.0°F0.0°C 22.3°F-5.4°C 67% 11.0 mph N17.7 kmh N 17.0 mph27.4 kmh 30.61 in1036.6 mb 0.00 in0.0 mm 0.00 in/hr0.0 mm/hr 0.00 in0.0 mm
11:04 AM 32.0°F0.0°C 22.3°F-5.4°C 67% 16.0 mph N25.7 kmh N 17.0 mph27.4 kmh 30.61 in1036.6 mb 0.00 in0.0 mm 0.00 in/hr0.0 mm/hr 0.00 in0.0 mm
11:05 AM 32.1°F0.1°C 22.4°F-5.3°C 67% 16.0 mph NNE25.7 kmh NNE 18.0 mph29.0 kmh 30.61 in1036.6 mb 0.00 in0.0 mm 0.00 in/hr0.0 mm/hr 0.00 in0.0 mm
11:06 AM 32.1°F0.1°C 22.4°F-5.3°C 67% 9.0 mph N14.5 kmh N 18.0 mph29.0 kmh 30.61 in1036.6 mb 0.00 in0.0 mm 0.00 in/hr0.0 mm/hr 0.00 in0.0 mm
11:07 AM 32.2°F0.1°C 22.5°F-5.3°C 67% 9.0 mph NNE14.5 kmh NNE 18.0 mph29.0 kmh 30.61 in1036.6 mb 0.00 in0.0 mm 0.00 in/hr0.0 mm/hr 0.00 in0.0 mm
11:08 AM 32.2°F0.1°C 22.5°F-5.3°C 67% 9.0 mph NNE14.5 kmh NNE 18.0 mph29.0 kmh 30.61 in1036.6 mb 0.00 in0.0 mm 0.00 in/hr0.0 mm/hr 0.00 in0.0 mm
11:09 AM 32.2°F0.1°C 22.5°F-5.3°C 67% 12.0 mph N19.3 kmh N 18.0 mph29.0 kmh 30.61 in1036.6 mb 0.00 in0.0 mm 0.00 in/hr0.0 mm/hr 0.00 in0.0 mm
11:10 AM 32.3°F0.2°C 22.6°F-5.2°C 67% 14.0 mph N22.5 kmh N 18.0 mph29.0 kmh 30.60 in1036.2 mb 0.00 in0.0 mm 0.00 in/hr0.0 mm/hr 0.00 in0.0 mm
11:11 AM 32.3°F0.2°C 22.2°F-5.4°C 66% 14.0 mph N22.5 kmh N 18.0 mph29.0 kmh 30.61 in1036.6 mb 0.00 in0.0 mm 0.00 in/hr0.0 mm/hr 0.00 in0.0 mm
11:12 AM 32.3°F0.2°C 22.2°F-5.4°C 66% 12.0 mph N19.3 kmh N 18.0 mph29.0 kmh 30.61 in1036.6 mb 0.00 in0.0 mm 0.00 in/hr0.0 mm/hr 0.00 in0.0 mm
11:13 AM 32.3°F0.2°C 22.2°F-5.4°C 66% 11.0 mph N17.7 kmh N 18.0 mph29.0 kmh 30.61 in1036.6 mb 0.00 in0.0 mm 0.00 in/hr0.0 mm/hr 0.00 in0.0 mm
11:14 AM 32.4°F0.2°C 22.3°F-5.4°C 66% 13.0 mph N20.9 kmh N 18.0 mph29.0 kmh 30.61 in1036.6 mb 0.00 in0.0 mm 0.00 in/hr0.0 mm/hr 0.00 in0.0 mm
11:15 AM 32.4°F0.2°C 22.3°F-5.4°C 66% 11.0 mph N17.7 kmh N 18.0 mph29.0 kmh 30.61 in1036.6 mb 0.00 in0.0 mm 0.00 in/hr0.0 mm/hr 0.00 in0.0 mm
11:16 AM 32.4°F0.2°C 22.3°F-5.4°C 66% 9.0 mph N14.5 kmh N 18.0 mph29.0 kmh 30.61 in1036.6 mb 0.00 in0.0 mm 0.00 in/hr0.0 mm/hr 0.00 in0.0 mm
11:17 AM 32.5°F0.3°C 22.4°F-5.3°C 66% 11.0 mph N17.7 kmh N 18.0 mph29.0 kmh 30.61 in1036.6 mb 0.00 in0.0 mm 0.00 in/hr0.0 mm/hr 0.00 in0.0 mm
11:18 AM 32.5°F0.3°C 22.4°F-5.3°C 66% 10.0 mph N16.1 kmh N 18.0 mph29.0 kmh 30.61 in1036.6 mb 0.00 in0.0 mm 0.00 in/hr0.0 mm/hr 0.00 in0.0 mm
11:19 AM 32.6°F0.3°C 22.5°F-5.3°C 66% 8.0 mph NNW12.9 kmh NNW 18.0 mph29.0 kmh 30.61 in1036.6 mb 0.00 in0.0 mm 0.00 in/hr0.0 mm/hr 0.00 in0.0 mm
11:20 AM 32.5°F0.3°C 22.1°F-5.5°C 65% 9.0 mph NNW14.5 kmh NNW 18.0 mph29.0 kmh 30.61 in1036.6 mb 0.00 in0.0 mm 0.00 in/hr0.0 mm/hr 0.00 in0.0 mm
11:21 AM 32.6°F0.3°C 22.2°F-5.4°C 65% 11.0 mph N17.7 kmh N 18.0 mph29.0 kmh 30.61 in1036.6 mb 0.00 in0.0 mm 0.00 in/hr0.0 mm/hr 0.00 in0.0 mm
11:22 AM 32.7°F0.4°C 22.6°F-5.2°C 66% 14.0 mph N22.5 kmh N 18.0 mph29.0 kmh 30.61 in1036.6 mb 0.00 in0.0 mm 0.00 in/hr0.0 mm/hr 0.00 in0.0 mm
11:23 AM 32.7°F0.4°C 22.3°F-5.4°C 65% 9.0 mph N14.5 kmh N 18.0 mph29.0 kmh 30.61 in1036.6 mb 0.00 in0.0 mm 0.00 in/hr0.0 mm/hr 0.00 in0.0 mm
11:24 AM 32.8°F0.4°C 22.3°F-5.4°C 65% 6.0 mph NNE9.7 kmh NNE 18.0 mph29.0 kmh 30.61 in1036.6 mb 0.00 in0.0 mm 0.00 in/hr0.0 mm/hr 0.00 in0.0 mm
11:25 AM 32.9°F0.5°C 22.4°F-5.3°C 65% 12.0 mph NNE19.3 kmh NNE 18.0 mph29.0 kmh 30.61 in1036.6 mb 0.00 in0.0 mm 0.00 in/hr0.0 mm/hr 0.00 in0.0 mm
11:26 AM 33.0°F0.6°C 22.5°F-5.3°C 65% 13.0 mph NNE20.9 kmh NNE 18.0 mph29.0 kmh 30.61 in1036.6 mb 0.00 in0.0 mm 0.00 in/hr0.0 mm/hr 0.00 in0.0 mm
11:27 AM 33.0°F0.6°C 22.2°F-5.4°C 64% 13.0 mph NNE20.9 kmh NNE 18.0 mph29.0 kmh 30.61 in1036.6 mb 0.00 in0.0 mm 0.00 in/hr0.0 mm/hr 0.00 in0.0 mm
11:28 AM 33.1°F0.6°C 22.3°F-5.4°C 64% 13.0 mph NNE20.9 kmh NNE 18.0 mph29.0 kmh 30.61 in1036.6 mb 0.00 in0.0 mm 0.00 in/hr0.0 mm/hr 0.00 in0.0 mm
11:29 AM 33.1°F0.6°C 21.5°F-5.8°C 62% 13.0 mph NE20.9 kmh NE 18.0 mph29.0 kmh 30.61 in1036.6 mb 0.00 in0.0 mm 0.00 in/hr0.0 mm/hr 0.00 in0.0 mm
11:30 AM 33.2°F0.7°C 22.0°F-5.6°C 63% 11.0 mph NNE17.7 kmh NNE 18.0 mph29.0 kmh 30.61 in1036.6 mb 0.00 in0.0 mm 0.00 in/hr0.0 mm/hr 0.00 in0.0 mm
11:31 AM 33.2°F0.7°C 22.0°F-5.6°C 63% 12.0 mph N19.3 kmh N 18.0 mph29.0 kmh 30.61 in1036.6 mb 0.00 in0.0 mm 0.00 in/hr0.0 mm/hr 0.00 in0.0 mm
11:32 AM 33.2°F0.7°C 22.0°F-5.6°C 63% 13.0 mph NNW20.9 kmh NNW 13.0 mph20.9 kmh 30.61 in1036.6 mb 0.00 in0.0 mm 0.00 in/hr0.0 mm/hr 0.00 in0.0 mm
11:33 AM 33.2°F0.7°C 22.0°F-5.6°C 63% 11.0 mph N17.7 kmh N 15.0 mph24.1 kmh 30.61 in1036.6 mb 0.00 in0.0 mm 0.00 in/hr0.0 mm/hr 0.00 in0.0 mm
11:34 AM 33.3°F0.7°C 22.1°F-5.5°C 63% 8.0 mph NNW12.9 kmh NNW 15.0 mph24.1 kmh 30.61 in1036.6 mb 0.00 in0.0 mm 0.00 in/hr0.0 mm/hr 0.00 in0.0 mm
11:35 AM 33.3°F0.7°C 22.1°F-5.5°C 63% 7.0 mph N11.3 kmh N 15.0 mph24.1 kmh 30.61 in1036.6 mb 0.00 in0.0 mm 0.00 in/hr0.0 mm/hr 0.00 in0.0 mm
11:36 AM 33.3°F0.7°C 22.5°F-5.3°C 64% 14.0 mph NNE22.5 kmh NNE 17.0 mph27.4 kmh 30.61 in1036.6 mb 0.00 in0.0 mm 0.00 in/hr0.0 mm/hr 0.00 in0.0 mm
11:37 AM 33.4°F0.8°C 22.6°F-5.2°C 64% 11.0 mph N17.7 kmh N 17.0 mph27.4 kmh 30.61 in1036.6 mb 0.00 in0.0 mm 0.00 in/hr0.0 mm/hr 0.00 in0.0 mm
11:38 AM 33.6°F0.9°C 22.4°F-5.3°C 63% 10.0 mph N16.1 kmh N 17.0 mph27.4 kmh 30.61 in1036.6 mb 0.00 in0.0 mm 0.00 in/hr0.0 mm/hr 0.00 in0.0 mm
11:39 AM 33.6°F0.9°C 22.0°F-5.6°C 62% 12.0 mph N19.3 kmh N 17.0 mph27.4 kmh 30.61 in1036.6 mb 0.00 in0.0 mm 0.00 in/hr0.0 mm/hr 0.00 in0.0 mm
11:40 AM 33.6°F0.9°C 22.0°F-5.6°C 62% 10.0 mph NNW16.1 kmh NNW 17.0 mph27.4 kmh 30.61 in1036.6 mb 0.00 in0.0 mm 0.00 in/hr0.0 mm/hr 0.00 in0.0 mm
11:41 AM 33.6°F0.9°C 22.0°F-5.6°C 62% 7.0 mph NNE11.3 kmh NNE 17.0 mph27.4 kmh 30.61 in1036.6 mb 0.00 in0.0 mm 0.00 in/hr0.0 mm/hr 0.00 in0.0 mm
11:42 AM 33.6°F0.9°C 22.0°F-5.6°C 62% 10.0 mph NW16.1 kmh NW 17.0 mph27.4 kmh 30.61 in1036.6 mb 0.00 in0.0 mm 0.00 in/hr0.0 mm/hr 0.00 in0.0 mm
11:43 AM 33.6°F0.9°C 22.0°F-5.6°C 62% 8.0 mph N12.9 kmh N 17.0 mph27.4 kmh 30.61 in1036.6 mb 0.00 in0.0 mm 0.00 in/hr0.0 mm/hr 0.00 in0.0 mm
11:44 AM 33.6°F0.9°C 22.0°F-5.6°C 62% 9.0 mph NNW14.5 kmh NNW 17.0 mph27.4 kmh 30.61 in1036.6 mb 0.00 in0.0 mm 0.00 in/hr0.0 mm/hr 0.00 in0.0 mm
11:45 AM 33.6°F0.9°C 22.0°F-5.6°C 62% 10.0 mph NNW16.1 kmh NNW 17.0 mph27.4 kmh 30.61 in1036.6 mb 0.00 in0.0 mm 0.00 in/hr0.0 mm/hr 0.00 in0.0 mm
11:46 AM 33.6°F0.9°C 22.0°F-5.6°C 62% 11.0 mph NNW17.7 kmh NNW 17.0 mph27.4 kmh 30.61 in1036.6 mb 0.00 in0.0 mm 0.00 in/hr0.0 mm/hr 0.00 in0.0 mm
11:47 AM 33.6°F0.9°C 22.0°F-5.6°C 62% 12.0 mph NNW19.3 kmh NNW 17.0 mph27.4 kmh 30.61 in1036.6 mb 0.00 in0.0 mm 0.00 in/hr0.0 mm/hr 0.00 in0.0 mm
11:48 AM 33.6°F0.9°C 22.0°F-5.6°C 62% 7.0 mph NW11.3 kmh NW 17.0 mph27.4 kmh 30.61 in1036.6 mb 0.00 in0.0 mm 0.00 in/hr0.0 mm/hr 0.00 in0.0 mm
11:49 AM 33.6°F0.9°C 22.0°F-5.6°C 62% 13.0 mph N20.9 kmh N 17.0 mph27.4 kmh 30.61 in1036.6 mb 0.00 in0.0 mm 0.00 in/hr0.0 mm/hr 0.00 in0.0 mm
11:50 AM 33.6°F0.9°C 22.0°F-5.6°C 62% 11.0 mph NNW17.7 kmh NNW 17.0 mph27.4 kmh 30.61 in1036.6 mb 0.00 in0.0 mm 0.00 in/hr0.0 mm/hr 0.00 in0.0 mm
11:51 AM 33.7°F0.9°C 22.1°F-5.5°C 62% 11.0 mph NW17.7 kmh NW 17.0 mph27.4 kmh 30.61 in1036.6 mb 0.00 in0.0 mm 0.00 in/hr0.0 mm/hr 0.00 in0.0 mm
11:52 AM 33.7°F0.9°C 21.7°F-5.7°C 61% 11.0 mph N17.7 kmh N 17.0 mph27.4 kmh 30.61 in1036.6 mb 0.00 in0.0 mm 0.00 in/hr0.0 mm/hr 0.00 in0.0 mm
11:53 AM 33.7°F0.9°C 21.7°F-5.7°C 61% 12.0 mph NNW19.3 kmh NNW 17.0 mph27.4 kmh 30.61 in1036.6 mb 0.00 in0.0 mm 0.00 in/hr0.0 mm/hr 0.00 in0.0 mm
11:54 AM 33.7°F0.9°C 22.1°F-5.5°C 62% 12.0 mph N19.3 kmh N 17.0 mph27.4 kmh 30.61 in1036.6 mb 0.00 in0.0 mm 0.00 in/hr0.0 mm/hr 0.00 in0.0 mm
11:55 AM 33.7°F0.9°C 21.7°F-5.7°C 61% 15.0 mph N24.1 kmh N 17.0 mph27.4 kmh 30.61 in1036.6 mb 0.00 in0.0 mm 0.00 in/hr0.0 mm/hr 0.00 in0.0 mm
11:56 AM 33.8°F1.0°C 21.8°F-5.7°C 61% 12.0 mph N19.3 kmh N 17.0 mph27.4 kmh 30.61 in1036.6 mb 0.00 in0.0 mm 0.00 in/hr0.0 mm/hr 0.00 in0.0 mm
11:57 AM 33.8°F1.0°C 21.8°F-5.7°C 61% 11.0 mph N17.7 kmh N 17.0 mph27.4 kmh 30.61 in1036.6 mb 0.00 in0.0 mm 0.00 in/hr0.0 mm/hr 0.00 in0.0 mm
11:58 AM 33.8°F1.0°C 21.4°F-5.9°C 60% 7.0 mph N11.3 kmh N 17.0 mph27.4 kmh 30.61 in1036.6 mb 0.00 in0.0 mm 0.00 in/hr0.0 mm/hr 0.00 in0.0 mm
11:59 AM 33.7°F0.9°C 21.3°F-5.9°C 60% 10.0 mph N16.1 kmh N 17.0 mph27.4 kmh 30.61 in1036.6 mb 0.00 in0.0 mm 0.00 in/hr0.0 mm/hr 0.00 in0.0 mm
12:00 PM 33.7°F0.9°C 21.7°F-5.7°C 61% 11.0 mph N17.7 kmh N 17.0 mph27.4 kmh 30.61 in1036.6 mb 0.00 in0.0 mm 0.00 in/hr0.0 mm/hr 0.00 in0.0 mm
12:01 PM 33.8°F1.0°C 21.8°F-5.7°C 61% 8.0 mph N12.9 kmh N 17.0 mph27.4 kmh 30.61 in1036.6 mb 0.00 in0.0 mm 0.00 in/hr0.0 mm/hr 0.00 in0.0 mm
12:02 PM 33.8°F1.0°C 21.8°F-5.7°C 61% 7.0 mph NW11.3 kmh NW 9.0 mph14.5 kmh 30.61 in1036.6 mb 0.00 in0.0 mm 0.00 in/hr0.0 mm/hr 0.00 in0.0 mm
12:03 PM 33.9°F1.1°C 22.7°F-5.2°C 63% 15.0 mph NW24.1 kmh NW 15.0 mph24.1 kmh 30.61 in1036.6 mb 0.00 in0.0 mm 0.00 in/hr0.0 mm/hr 0.00 in0.0 mm
12:04 PM 34.0°F1.1°C 22.7°F-5.2°C 63% 8.0 mph NNW12.9 kmh NNW 16.0 mph25.7 kmh 30.61 in1036.6 mb 0.00 in0.0 mm 0.00 in/hr0.0 mm/hr 0.00 in0.0 mm
12:05 PM 34.0°F1.1°C 22.7°F-5.2°C 63% 10.0 mph NNW16.1 kmh NNW 16.0 mph25.7 kmh 30.61 in1036.6 mb 0.00 in0.0 mm 0.00 in/hr0.0 mm/hr 0.00 in0.0 mm
12:06 PM 34.1°F1.2°C 23.2°F-4.9°C 64% 10.0 mph NNW16.1 kmh NNW 16.0 mph25.7 kmh 30.61 in1036.6 mb 0.00 in0.0 mm 0.00 in/hr0.0 mm/hr 0.00 in0.0 mm
12:07 PM 34.1°F1.2°C 22.8°F-5.1°C 63% 11.0 mph N17.7 kmh N 16.0 mph25.7 kmh 30.61 in1036.6 mb 0.00 in0.0 mm 0.00 in/hr0.0 mm/hr 0.00 in0.0 mm
12:08 PM 34.1°F1.2°C 22.8°F-5.1°C 63% 11.0 mph N17.7 kmh N 17.0 mph27.4 kmh 30.60 in1036.2 mb 0.00 in0.0 mm 0.00 in/hr0.0 mm/hr 0.00 in0.0 mm
12:09 PM 34.2°F1.2°C 22.9°F-5.1°C 63% 11.0 mph N17.7 kmh N 17.0 mph27.4 kmh 30.61 in1036.6 mb 0.00 in0.0 mm 0.00 in/hr0.0 mm/hr 0.00 in0.0 mm
12:10 PM 34.3°F1.3°C 22.3°F-5.4°C 61% 11.0 mph N17.7 kmh N 17.0 mph27.4 kmh 30.61 in1036.6 mb 0.00 in0.0 mm 0.00 in/hr0.0 mm/hr 0.00 in0.0 mm
12:11 PM 34.4°F1.3°C 22.4°F-5.3°C 61% 7.0 mph N11.3 kmh N 17.0 mph27.4 kmh 30.61 in1036.6 mb 0.00 in0.0 mm 0.00 in/hr0.0 mm/hr 0.00 in0.0 mm
12:12 PM 34.4°F1.3°C 22.4°F-5.3°C 61% 7.0 mph N11.3 kmh N 17.0 mph27.4 kmh 30.60 in1036.2 mb 0.00 in0.0 mm 0.00 in/hr0.0 mm/hr 0.00 in0.0 mm
12:13 PM 34.5°F1.4°C 22.5°F-5.3°C 61% 9.0 mph N14.5 kmh N 17.0 mph27.4 kmh 30.61 in1036.6 mb 0.00 in0.0 mm 0.00 in/hr0.0 mm/hr 0.00 in0.0 mm
12:14 PM 34.6°F1.4°C 22.6°F-5.2°C 61% 7.0 mph N11.3 kmh N 17.0 mph27.4 kmh 30.61 in1036.6 mb 0.00 in0.0 mm 0.00 in/hr0.0 mm/hr 0.00 in0.0 mm
12:15 PM 34.7°F1.5°C 23.0°F-5.0°C 62% 12.0 mph NW19.3 kmh NW 17.0 mph27.4 kmh 30.61 in1036.6 mb 0.00 in0.0 mm 0.00 in/hr0.0 mm/hr 0.00 in0.0 mm
12:16 PM 34.8°F1.6°C 23.5°F-4.7°C 63% 9.0 mph NW14.5 kmh NW 17.0 mph27.4 kmh 30.60 in1036.2 mb 0.00 in0.0 mm 0.00 in/hr0.0 mm/hr 0.00 in0.0 mm
12:17 PM 34.8°F1.6°C 23.1°F-4.9°C 62% 11.0 mph NW17.7 kmh NW 17.0 mph27.4 kmh 30.60 in1036.2 mb 0.00 in0.0 mm 0.00 in/hr0.0 mm/hr 0.00 in0.0 mm
12:18 PM 34.8°F1.6°C 23.1°F-4.9°C 62% 8.0 mph N12.9 kmh N 17.0 mph27.4 kmh 30.60 in1036.2 mb 0.00 in0.0 mm 0.00 in/hr0.0 mm/hr 0.00 in0.0 mm
12:19 PM 34.8°F1.6°C 23.5°F-4.7°C 63% 7.0 mph N11.3 kmh N 17.0 mph27.4 kmh 30.60 in1036.2 mb 0.00 in0.0 mm 0.00 in/hr0.0 mm/hr 0.00 in0.0 mm
12:20 PM 34.8°F1.6°C 23.5°F-4.7°C 63% 8.0 mph NNW12.9 kmh NNW 17.0 mph27.4 kmh 30.60 in1036.2 mb 0.00 in0.0 mm 0.00 in/hr0.0 mm/hr 0.00 in0.0 mm
12:21 PM 34.8°F1.6°C 23.5°F-4.7°C 63% 13.0 mph NNE20.9 kmh NNE 17.0 mph27.4 kmh 30.60 in1036.2 mb 0.00 in0.0 mm 0.00 in/hr0.0 mm/hr 0.00 in0.0 mm
12:22 PM 34.9°F1.6°C 23.2°F-4.9°C 62% 8.0 mph N12.9 kmh N 17.0 mph27.4 kmh 30.60 in1036.2 mb 0.00 in0.0 mm 0.00 in/hr0.0 mm/hr 0.00 in0.0 mm
12:23 PM 35.0°F1.7°C 23.7°F-4.6°C 63% 13.0 mph NNW20.9 kmh NNW 17.0 mph27.4 kmh 30.60 in1036.2 mb 0.00 in0.0 mm 0.00 in/hr0.0 mm/hr 0.00 in0.0 mm
12:24 PM 35.0°F1.7°C 23.3°F-4.8°C 62% 7.0 mph N11.3 kmh N 17.0 mph27.4 kmh 30.60 in1036.2 mb 0.00 in0.0 mm 0.00 in/hr0.0 mm/hr 0.00 in0.0 mm
12:25 PM 34.9°F1.6°C 22.8°F-5.1°C 61% 9.0 mph NE14.5 kmh NE 17.0 mph27.4 kmh 30.60 in1036.2 mb 0.00 in0.0 mm 0.00 in/hr0.0 mm/hr 0.00 in0.0 mm
12:26 PM 35.0°F1.7°C 22.9°F-5.1°C 61% 7.0 mph NNE11.3 kmh NNE 17.0 mph27.4 kmh 30.60 in1036.2 mb 0.00 in0.0 mm 0.00 in/hr0.0 mm/hr 0.00 in0.0 mm
12:27 PM 35.0°F1.7°C 22.9°F-5.1°C 61% 9.0 mph N14.5 kmh N 17.0 mph27.4 kmh 30.60 in1036.2 mb 0.00 in0.0 mm 0.00 in/hr0.0 mm/hr 0.00 in0.0 mm
12:28 PM 35.1°F1.7°C 23.0°F-5.0°C 61% 6.0 mph NW9.7 kmh NW 17.0 mph27.4 kmh 30.60 in1036.2 mb 0.00 in0.0 mm 0.00 in/hr0.0 mm/hr 0.00 in0.0 mm
12:29 PM 35.2°F1.8°C 23.1°F-4.9°C 61% 8.0 mph NNE12.9 kmh NNE 17.0 mph27.4 kmh 30.60 in1036.2 mb 0.00 in0.0 mm 0.00 in/hr0.0 mm/hr 0.00 in0.0 mm
12:30 PM 35.3°F1.8°C 23.6°F-4.7°C 62% 10.0 mph NNW16.1 kmh NNW 17.0 mph27.4 kmh 30.60 in1036.2 mb 0.00 in0.0 mm 0.00 in/hr0.0 mm/hr 0.00 in0.0 mm
12:31 PM 35.3°F1.8°C 23.2°F-4.9°C 61% 9.0 mph N14.5 kmh N 17.0 mph27.4 kmh 30.60 in1036.2 mb 0.00 in0.0 mm 0.00 in/hr0.0 mm/hr 0.00 in0.0 mm
12:32 PM 35.2°F1.8°C 22.7°F-5.2°C 60% 8.0 mph N12.9 kmh N 11.0 mph17.7 kmh 30.59 in1035.9 mb 0.00 in0.0 mm 0.00 in/hr0.0 mm/hr 0.00 in0.0 mm
12:33 PM 35.3°F1.8°C 23.2°F-4.9°C 61% 12.0 mph N19.3 kmh N 15.0 mph24.1 kmh 30.59 in1035.9 mb 0.00 in0.0 mm 0.00 in/hr0.0 mm/hr 0.00 in0.0 mm
12:34 PM 35.3°F1.8°C 22.8°F-5.1°C 60% 11.0 mph NNE17.7 kmh NNE 15.0 mph24.1 kmh 30.59 in1035.9 mb 0.00 in0.0 mm 0.00 in/hr0.0 mm/hr 0.00 in0.0 mm
12:35 PM 35.3°F1.8°C 22.8°F-5.1°C 60% 8.0 mph N12.9 kmh N 15.0 mph24.1 kmh 30.59 in1035.9 mb 0.00 in0.0 mm 0.00 in/hr0.0 mm/hr 0.00 in0.0 mm
12:36 PM 35.3°F1.8°C 22.4°F-5.3°C 59% 10.0 mph NNE16.1 kmh NNE 15.0 mph24.1 kmh 30.59 in1035.9 mb 0.00 in0.0 mm 0.00 in/hr0.0 mm/hr 0.00 in0.0 mm
12:37 PM 35.3°F1.8°C 22.4°F-5.3°C 59% 8.0 mph NNW12.9 kmh NNW 15.0 mph24.1 kmh 30.59 in1035.9 mb 0.00 in0.0 mm 0.00 in/hr0.0 mm/hr 0.00 in0.0 mm
12:38 PM 35.2°F1.8°C 22.7°F-5.2°C 60% 13.0 mph N20.9 kmh N 15.0 mph24.1 kmh 30.59 in1035.9 mb 0.00 in0.0 mm 0.00 in/hr0.0 mm/hr 0.00 in0.0 mm
12:39 PM 35.2°F1.8°C 22.7°F-5.2°C 60% 12.0 mph NNW19.3 kmh NNW 15.0 mph24.1 kmh 30.59 in1035.9 mb 0.00 in0.0 mm 0.00 in/hr0.0 mm/hr 0.00 in0.0 mm
12:40 PM 35.1°F1.7°C 23.0°F-5.0°C 61% 9.0 mph N14.5 kmh N 15.0 mph24.1 kmh 30.59 in1035.9 mb 0.00 in0.0 mm 0.00 in/hr0.0 mm/hr 0.00 in0.0 mm
12:41 PM 35.2°F1.8°C 23.1°F-4.9°C 61% 7.0 mph N11.3 kmh N 15.0 mph24.1 kmh 30.59 in1035.9 mb 0.00 in0.0 mm 0.00 in/hr0.0 mm/hr 0.00 in0.0 mm
12:42 PM 35.2°F1.8°C 23.1°F-4.9°C 61% 9.0 mph N14.5 kmh N 15.0 mph24.1 kmh 30.59 in1035.9 mb 0.00 in0.0 mm 0.00 in/hr0.0 mm/hr 0.00 in0.0 mm
12:43 PM 35.2°F1.8°C 23.1°F-4.9°C 61% 5.0 mph NNW8.0 kmh NNW 15.0 mph24.1 kmh 30.59 in1035.9 mb 0.00 in0.0 mm 0.00 in/hr0.0 mm/hr 0.00 in0.0 mm
12:44 PM 35.2°F1.8°C 23.1°F-4.9°C 61% 10.0 mph NNW16.1 kmh NNW 15.0 mph24.1 kmh 30.59 in1035.9 mb 0.00 in0.0 mm 0.00 in/hr0.0 mm/hr 0.00 in0.0 mm
12:45 PM 35.2°F1.8°C 22.7°F-5.2°C 60% 8.0 mph NNW12.9 kmh NNW 15.0 mph24.1 kmh 30.59 in1035.9 mb 0.00 in0.0 mm 0.00 in/hr0.0 mm/hr 0.00 in0.0 mm
12:46 PM 35.2°F1.8°C 22.7°F-5.2°C 60% 7.0 mph N11.3 kmh N 15.0 mph24.1 kmh 30.59 in1035.9 mb 0.00 in0.0 mm 0.00 in/hr0.0 mm/hr 0.00 in0.0 mm
12:47 PM 35.2°F1.8°C 22.7°F-5.2°C 60% 7.0 mph NNW11.3 kmh NNW 15.0 mph24.1 kmh 30.59 in1035.9 mb 0.00 in0.0 mm 0.00 in/hr0.0 mm/hr 0.00 in0.0 mm
12:48 PM 35.2°F1.8°C 23.1°F-4.9°C 61% 10.0 mph NNW16.1 kmh NNW 15.0 mph24.1 kmh 30.59 in1035.9 mb 0.00 in0.0 mm 0.00 in/hr0.0 mm/hr 0.00 in0.0 mm
12:49 PM 35.2°F1.8°C 23.1°F-4.9°C 61% 8.0 mph NNE12.9 kmh NNE 15.0 mph24.1 kmh 30.59 in1035.9 mb 0.00 in0.0 mm 0.00 in/hr0.0 mm/hr 0.00 in0.0 mm
12:50 PM 35.2°F1.8°C 22.7°F-5.2°C 60% 7.0 mph N11.3 kmh N 15.0 mph24.1 kmh 30.59 in1035.9 mb 0.00 in0.0 mm 0.00 in/hr0.0 mm/hr 0.00 in0.0 mm
12:51 PM 35.3°F1.8°C 22.4°F-5.3°C 59% 8.0 mph NNE12.9 kmh NNE 15.0 mph24.1 kmh 30.59 in1035.9 mb 0.00 in0.0 mm 0.00 in/hr0.0 mm/hr 0.00 in0.0 mm
12:52 PM 35.4°F1.9°C 22.5°F-5.3°C 59% 8.0 mph N12.9 kmh N 15.0 mph24.1 kmh 30.59 in1035.9 mb 0.00 in0.0 mm 0.00 in/hr0.0 mm/hr 0.00 in0.0 mm
12:53 PM 35.5°F1.9°C 22.6°F-5.2°C 59% 15.0 mph NW24.1 kmh NW 15.0 mph24.1 kmh 30.59 in1035.9 mb 0.00 in0.0 mm 0.00 in/hr0.0 mm/hr 0.00 in0.0 mm
12:54 PM 35.5°F1.9°C 23.0°F-5.0°C 60% 7.0 mph N11.3 kmh N 16.0 mph25.7 kmh 30.59 in1035.9 mb 0.00 in0.0 mm 0.00 in/hr0.0 mm/hr 0.00 in0.0 mm
12:55 PM 35.5°F1.9°C 23.4°F-4.8°C 61% 11.0 mph NW17.7 kmh NW 16.0 mph25.7 kmh 30.59 in1035.9 mb 0.00 in0.0 mm 0.00 in/hr0.0 mm/hr 0.00 in0.0 mm
12:56 PM 35.5°F1.9°C 23.0°F-5.0°C 60% 6.0 mph NW9.7 kmh NW 16.0 mph25.7 kmh 30.59 in1035.9 mb 0.00 in0.0 mm 0.00 in/hr0.0 mm/hr 0.00 in0.0 mm
12:57 PM 35.6°F2.0°C 23.1°F-4.9°C 60% 5.0 mph N8.0 kmh N 16.0 mph25.7 kmh 30.58 in1035.6 mb 0.00 in0.0 mm 0.00 in/hr0.0 mm/hr 0.00 in0.0 mm
12:58 PM 35.6°F2.0°C 23.1°F-4.9°C 60% 7.0 mph N11.3 kmh N 16.0 mph25.7 kmh 30.58 in1035.6 mb 0.00 in0.0 mm 0.00 in/hr0.0 mm/hr 0.00 in0.0 mm
12:59 PM 35.6°F2.0°C 23.1°F-4.9°C 60% 8.0 mph NW12.9 kmh NW 16.0 mph25.7 kmh 30.58 in1035.6 mb 0.00 in0.0 mm 0.00 in/hr0.0 mm/hr 0.00 in0.0 mm
01:00 PM 35.6°F2.0°C 22.7°F-5.2°C 59% 8.0 mph N12.9 kmh N 16.0 mph25.7 kmh 30.58 in1035.6 mb 0.00 in0.0 mm 0.00 in/hr0.0 mm/hr 0.00 in0.0 mm
01:01 PM 35.7°F2.1°C 22.4°F-5.3°C 58% 6.0 mph NE9.7 kmh NE 16.0 mph25.7 kmh 30.58 in1035.6 mb 0.00 in0.0 mm 0.00 in/hr0.0 mm/hr 0.00 in0.0 mm
01:02 PM 35.7°F2.1°C 22.8°F-5.1°C 59% 8.0 mph NNW12.9 kmh NNW 11.0 mph17.7 kmh 30.58 in1035.6 mb 0.00 in0.0 mm 0.00 in/hr0.0 mm/hr 0.00 in0.0 mm
01:03 PM 35.9°F2.2°C 23.4°F-4.8°C 60% 10.0 mph NNW16.1 kmh NNW 16.0 mph25.7 kmh 30.58 in1035.6 mb 0.00 in0.0 mm 0.00 in/hr0.0 mm/hr 0.00 in0.0 mm
01:04 PM 36.0°F2.2°C 23.9°F-4.5°C 61% 11.0 mph NNW17.7 kmh NNW 16.0 mph25.7 kmh 30.58 in1035.6 mb 0.00 in0.0 mm 0.00 in/hr0.0 mm/hr 0.00 in0.0 mm
01:05 PM 36.0°F2.2°C 23.5°F-4.7°C 60% 7.0 mph NNW11.3 kmh NNW 16.0 mph25.7 kmh 30.58 in1035.6 mb 0.00 in0.0 mm 0.00 in/hr0.0 mm/hr 0.00 in0.0 mm
01:06 PM 36.0°F2.2°C 23.1°F-4.9°C 59% 8.0 mph NW12.9 kmh NW 16.0 mph25.7 kmh 30.58 in1035.6 mb 0.00 in0.0 mm 0.00 in/hr0.0 mm/hr 0.00 in0.0 mm
01:07 PM 35.9°F2.2°C 23.0°F-5.0°C 59% 6.0 mph NE9.7 kmh NE 16.0 mph25.7 kmh 30.58 in1035.6 mb 0.00 in0.0 mm 0.00 in/hr0.0 mm/hr 0.00 in0.0 mm
01:08 PM 35.9°F2.2°C 23.0°F-5.0°C 59% 9.0 mph NNE14.5 kmh NNE 16.0 mph25.7 kmh 30.58 in1035.6 mb 0.00 in0.0 mm 0.00 in/hr0.0 mm/hr 0.00 in0.0 mm
01:09 PM 36.0°F2.2°C 23.1°F-4.9°C 59% 14.0 mph NNW22.5 kmh NNW 16.0 mph25.7 kmh 30.58 in1035.6 mb 0.00 in0.0 mm 0.00 in/hr0.0 mm/hr 0.00 in0.0 mm
01:10 PM 36.1°F2.3°C 23.6°F-4.7°C 60% 7.0 mph NNW11.3 kmh NNW 16.0 mph25.7 kmh 30.58 in1035.6 mb 0.00 in0.0 mm 0.00 in/hr0.0 mm/hr 0.00 in0.0 mm
01:11 PM 36.2°F2.3°C 24.1°F-4.4°C 61% 7.0 mph N11.3 kmh N 16.0 mph25.7 kmh 30.58 in1035.6 mb 0.00 in0.0 mm 0.00 in/hr0.0 mm/hr 0.00 in0.0 mm
01:12 PM 36.2°F2.3°C 23.7°F-4.6°C 60% 6.0 mph NW9.7 kmh NW 16.0 mph25.7 kmh 30.58 in1035.6 mb 0.00 in0.0 mm 0.00 in/hr0.0 mm/hr 0.00 in0.0 mm
01:13 PM 36.3°F2.4°C 23.8°F-4.6°C 60% 8.0 mph NW12.9 kmh NW 16.0 mph25.7 kmh 30.58 in1035.6 mb 0.00 in0.0 mm 0.00 in/hr0.0 mm/hr 0.00 in0.0 mm
01:14 PM 36.4°F2.4°C 24.3°F-4.3°C 61% 11.0 mph NNE17.7 kmh NNE 16.0 mph25.7 kmh 30.58 in1035.6 mb 0.00 in0.0 mm 0.00 in/hr0.0 mm/hr 0.00 in0.0 mm
01:15 PM 36.4°F2.4°C 23.9°F-4.5°C 60% 6.0 mph N9.7 kmh N 16.0 mph25.7 kmh 30.58 in1035.6 mb 0.00 in0.0 mm 0.00 in/hr0.0 mm/hr 0.00 in0.0 mm
01:16 PM 36.5°F2.5°C 24.0°F-4.4°C 60% 9.0 mph N14.5 kmh N 16.0 mph25.7 kmh 30.58 in1035.6 mb 0.00 in0.0 mm 0.00 in/hr0.0 mm/hr 0.00 in0.0 mm
01:17 PM 36.5°F2.5°C 23.1°F-4.9°C 58% 7.0 mph N11.3 kmh N 16.0 mph25.7 kmh 30.58 in1035.6 mb 0.00 in0.0 mm 0.00 in/hr0.0 mm/hr 0.00 in0.0 mm
01:18 PM 36.5°F2.5°C 23.6°F-4.7°C 59% 12.0 mph N19.3 kmh N 16.0 mph25.7 kmh 30.58 in1035.6 mb 0.00 in0.0 mm 0.00 in/hr0.0 mm/hr 0.00 in0.0 mm
01:19 PM 36.4°F2.4°C 23.1°F-4.9°C 58% 5.0 mph NNE8.0 kmh NNE 16.0 mph25.7 kmh 30.58 in1035.6 mb 0.00 in0.0 mm 0.00 in/hr0.0 mm/hr 0.00 in0.0 mm
01:20 PM 36.4°F2.4°C 22.6°F-5.2°C 57% 7.0 mph NNE11.3 kmh NNE 16.0 mph25.7 kmh 30.58 in1035.6 mb 0.00 in0.0 mm 0.00 in/hr0.0 mm/hr 0.00 in0.0 mm
01:21 PM 36.4°F2.4°C 22.6°F-5.2°C 57% 9.0 mph N14.5 kmh N 16.0 mph25.7 kmh 30.58 in1035.6 mb 0.00 in0.0 mm 0.00 in/hr0.0 mm/hr 0.00 in0.0 mm
01:22 PM 36.4°F2.4°C 22.6°F-5.2°C 57% 10.0 mph NNE16.1 kmh NNE 16.0 mph25.7 kmh 30.57 in1035.2 mb 0.00 in0.0 mm 0.00 in/hr0.0 mm/hr 0.00 in0.0 mm
01:23 PM 36.4°F2.4°C 22.2°F-5.4°C 56% 9.0 mph NNE14.5 kmh NNE 16.0 mph25.7 kmh 30.57 in1035.2 mb 0.00 in0.0 mm 0.00 in/hr0.0 mm/hr 0.00 in0.0 mm
01:24 PM 36.5°F2.5°C 22.3°F-5.4°C 56% 11.0 mph N17.7 kmh N 16.0 mph25.7 kmh 30.57 in1035.2 mb 0.00 in0.0 mm 0.00 in/hr0.0 mm/hr 0.00 in0.0 mm
01:25 PM 36.6°F2.6°C 22.8°F-5.1°C 57% 13.0 mph NNE20.9 kmh NNE 16.0 mph25.7 kmh 30.57 in1035.2 mb 0.00 in0.0 mm 0.00 in/hr0.0 mm/hr 0.00 in0.0 mm
01:26 PM 36.6°F2.6°C 22.8°F-5.1°C 57% 7.0 mph N11.3 kmh N 16.0 mph25.7 kmh 30.57 in1035.2 mb 0.00 in0.0 mm 0.00 in/hr0.0 mm/hr 0.00 in0.0 mm
01:27 PM 36.7°F2.6°C 22.9°F-5.1°C 57% 15.0 mph N24.1 kmh N 16.0 mph25.7 kmh 30.57 in1035.2 mb 0.00 in0.0 mm 0.00 in/hr0.0 mm/hr 0.00 in0.0 mm
01:28 PM 36.7°F2.6°C 23.3°F-4.8°C 58% 10.0 mph NNW16.1 kmh NNW 16.0 mph25.7 kmh 30.57 in1035.2 mb 0.00 in0.0 mm 0.00 in/hr0.0 mm/hr 0.00 in0.0 mm
01:29 PM 36.7°F2.6°C 23.7°F-4.6°C 59% 6.0 mph NNW9.7 kmh NNW 16.0 mph25.7 kmh 30.57 in1035.2 mb 0.00 in0.0 mm 0.00 in/hr0.0 mm/hr 0.00 in0.0 mm
01:30 PM 36.7°F2.6°C 23.7°F-4.6°C 59% 8.0 mph NNW12.9 kmh NNW 16.0 mph25.7 kmh 30.57 in1035.2 mb 0.00 in0.0 mm 0.00 in/hr0.0 mm/hr 0.00 in0.0 mm
01:31 PM 36.7°F2.6°C 23.3°F-4.8°C 58% 6.0 mph N9.7 kmh N 16.0 mph25.7 kmh 30.57 in1035.2 mb 0.00 in0.0 mm 0.00 in/hr0.0 mm/hr 0.00 in0.0 mm
01:32 PM 36.7°F2.6°C 23.3°F-4.8°C 58% 8.0 mph NNE12.9 kmh NNE 10.0 mph16.1 kmh 30.57 in1035.2 mb 0.00 in0.0 mm 0.00 in/hr0.0 mm/hr 0.00 in0.0 mm
01:33 PM 36.8°F2.7°C 23.8°F-4.6°C 59% 11.0 mph N17.7 kmh N 13.0 mph20.9 kmh 30.57 in1035.2 mb 0.00 in0.0 mm 0.00 in/hr0.0 mm/hr 0.00 in0.0 mm
01:34 PM 36.8°F2.7°C 23.4°F-4.8°C 58% 12.0 mph N19.3 kmh N 15.0 mph24.1 kmh 30.57 in1035.2 mb 0.00 in0.0 mm 0.00 in/hr0.0 mm/hr 0.00 in0.0 mm
01:35 PM 36.8°F2.7°C 23.4°F-4.8°C 58% 11.0 mph N17.7 kmh N 15.0 mph24.1 kmh 30.57 in1035.2 mb 0.00 in0.0 mm 0.00 in/hr0.0 mm/hr 0.00 in0.0 mm
01:36 PM 36.7°F2.6°C 22.5°F-5.3°C 56% 8.0 mph NW12.9 kmh NW 15.0 mph24.1 kmh 30.57 in1035.2 mb 0.00 in0.0 mm 0.00 in/hr0.0 mm/hr 0.00 in0.0 mm
01:37 PM 36.7°F2.6°C 22.5°F-5.3°C 56% 10.0 mph NNW16.1 kmh NNW 15.0 mph24.1 kmh 30.57 in1035.2 mb 0.00 in0.0 mm 0.00 in/hr0.0 mm/hr 0.00 in0.0 mm
01:38 PM 36.6°F2.6°C 22.4°F-5.3°C 56% 11.0 mph N17.7 kmh N 15.0 mph24.1 kmh 30.57 in1035.2 mb 0.00 in0.0 mm 0.00 in/hr0.0 mm/hr 0.00 in0.0 mm
01:39 PM 36.6°F2.6°C 22.8°F-5.1°C 57% 5.0 mph NNW8.0 kmh NNW 15.0 mph24.1 kmh 30.57 in1035.2 mb 0.00 in0.0 mm 0.00 in/hr0.0 mm/hr 0.00 in0.0 mm
01:40 PM 36.6°F2.6°C 22.4°F-5.3°C 56% 9.0 mph N14.5 kmh N 15.0 mph24.1 kmh 30.57 in1035.2 mb 0.00 in0.0 mm 0.00 in/hr0.0 mm/hr 0.00 in0.0 mm
01:41 PM 36.6°F2.6°C 23.2°F-4.9°C 58% 12.0 mph NNE19.3 kmh NNE 15.0 mph24.1 kmh 30.57 in1035.2 mb 0.00 in0.0 mm 0.00 in/hr0.0 mm/hr 0.00 in0.0 mm
01:42 PM 36.7°F2.6°C 23.7°F-4.6°C 59% 8.0 mph NNW12.9 kmh NNW 15.0 mph24.1 kmh 30.57 in1035.2 mb 0.00 in0.0 mm 0.00 in/hr0.0 mm/hr 0.00 in0.0 mm
01:43 PM 36.8°F2.7°C 23.4°F-4.8°C 58% 8.0 mph N12.9 kmh N 15.0 mph24.1 kmh 30.57 in1035.2 mb 0.00 in0.0 mm 0.00 in/hr0.0 mm/hr 0.00 in0.0 mm
01:44 PM 36.8°F2.7°C 22.6°F-5.2°C 56% 8.0 mph N12.9 kmh N 15.0 mph24.1 kmh 30.57 in1035.2 mb 0.00 in0.0 mm 0.00 in/hr0.0 mm/hr 0.00 in0.0 mm
01:45 PM 36.8°F2.7°C 23.0°F-5.0°C 57% 9.0 mph N14.5 kmh N 15.0 mph24.1 kmh 30.57 in1035.2 mb 0.00 in0.0 mm 0.00 in/hr0.0 mm/hr 0.00 in0.0 mm
01:46 PM 36.9°F2.7°C 23.5°F-4.7°C 58% 10.0 mph NW16.1 kmh NW 15.0 mph24.1 kmh 30.57 in1035.2 mb 0.00 in0.0 mm 0.00 in/hr0.0 mm/hr 0.00 in0.0 mm
01:47 PM 36.9°F2.7°C 23.1°F-4.9°C 57% 7.0 mph N11.3 kmh N 15.0 mph24.1 kmh 30.57 in1035.2 mb 0.00 in0.0 mm 0.00 in/hr0.0 mm/hr 0.00 in0.0 mm
01:48 PM 36.9°F2.7°C 22.7°F-5.2°C 56% 7.0 mph N11.3 kmh N 15.0 mph24.1 kmh 30.57 in1035.2 mb 0.00 in0.0 mm 0.00 in/hr0.0 mm/hr 0.00 in0.0 mm
01:49 PM 36.9°F2.7°C 23.1°F-4.9°C 57% 11.0 mph N17.7 kmh N 15.0 mph24.1 kmh 30.57 in1035.2 mb 0.00 in0.0 mm 0.00 in/hr0.0 mm/hr 0.00 in0.0 mm
01:50 PM 37.0°F2.8°C 24.0°F-4.4°C 59% 14.0 mph NNE22.5 kmh NNE 15.0 mph24.1 kmh 30.57 in1035.2 mb 0.00 in0.0 mm 0.00 in/hr0.0 mm/hr 0.00 in0.0 mm
01:51 PM 37.1°F2.8°C 22.9°F-5.1°C 56% 9.0 mph NNE14.5 kmh NNE 15.0 mph24.1 kmh 30.57 in1035.2 mb 0.00 in0.0 mm 0.00 in/hr0.0 mm/hr 0.00 in0.0 mm
01:52 PM 37.1°F2.8°C 22.4°F-5.3°C 55% 7.0 mph NW11.3 kmh NW 15.0 mph24.1 kmh 30.57 in1035.2 mb 0.00 in0.0 mm 0.00 in/hr0.0 mm/hr 0.00 in0.0 mm
01:53 PM 37.1°F2.8°C 22.0°F-5.6°C 54% 3.0 mph N4.8 kmh N 15.0 mph24.1 kmh 30.56 in1034.9 mb 0.00 in0.0 mm 0.00 in/hr0.0 mm/hr 0.00 in0.0 mm
01:54 PM 37.1°F2.8°C 22.0°F-5.6°C 54% 6.0 mph NE9.7 kmh NE 15.0 mph24.1 kmh 30.56 in1034.9 mb 0.00 in0.0 mm 0.00 in/hr0.0 mm/hr 0.00 in0.0 mm
01:55 PM 37.1°F2.8°C 21.6°F-5.8°C 53% 9.0 mph N14.5 kmh N 15.0 mph24.1 kmh 30.56 in1034.9 mb 0.00 in0.0 mm 0.00 in/hr0.0 mm/hr 0.00 in0.0 mm
01:56 PM 37.1°F2.8°C 21.6°F-5.8°C 53% 12.0 mph N19.3 kmh N 15.0 mph24.1 kmh 30.56 in1034.9 mb 0.00 in0.0 mm 0.00 in/hr0.0 mm/hr 0.00 in0.0 mm
01:57 PM 37.1°F2.8°C 22.0°F-5.6°C 54% 7.0 mph N11.3 kmh N 15.0 mph24.1 kmh 30.56 in1034.9 mb 0.00 in0.0 mm 0.00 in/hr0.0 mm/hr 0.00 in0.0 mm
01:58 PM 37.2°F2.9°C 22.5°F-5.3°C 55% 8.0 mph NNE12.9 kmh NNE 15.0 mph24.1 kmh 30.56 in1034.9 mb 0.00 in0.0 mm 0.00 in/hr0.0 mm/hr 0.00 in0.0 mm
01:59 PM 37.3°F2.9°C 22.6°F-5.2°C 55% 7.0 mph NNE11.3 kmh NNE 15.0 mph24.1 kmh 30.56 in1034.9 mb 0.00 in0.0 mm 0.00 in/hr0.0 mm/hr 0.00 in0.0 mm
02:00 PM 37.3°F2.9°C 21.8°F-5.7°C 53% 4.0 mph N6.4 kmh N 15.0 mph24.1 kmh 30.56 in1034.9 mb 0.00 in0.0 mm 0.00 in/hr0.0 mm/hr 0.00 in0.0 mm
02:01 PM 37.3°F2.9°C 22.2°F-5.4°C 54% 11.0 mph N17.7 kmh N 15.0 mph24.1 kmh 30.56 in1034.9 mb 0.00 in0.0 mm 0.00 in/hr0.0 mm/hr 0.00 in0.0 mm
02:02 PM 37.3°F2.9°C 22.6°F-5.2°C 55% 8.0 mph NNW12.9 kmh NNW 10.0 mph16.1 kmh 30.56 in1034.9 mb 0.00 in0.0 mm 0.00 in/hr0.0 mm/hr 0.00 in0.0 mm
02:03 PM 37.3°F2.9°C 23.1°F-4.9°C 56% 8.0 mph N12.9 kmh N 12.0 mph19.3 kmh 30.56 in1034.9 mb 0.00 in0.0 mm 0.00 in/hr0.0 mm/hr 0.00 in0.0 mm
02:04 PM 37.4°F3.0°C 22.7°F-5.2°C 55% 12.0 mph N19.3 kmh N 12.0 mph19.3 kmh 30.56 in1034.9 mb 0.00 in0.0 mm 0.00 in/hr0.0 mm/hr 0.00 in0.0 mm
02:05 PM 37.4°F3.0°C 22.7°F-5.2°C 55% 9.0 mph N14.5 kmh N 14.0 mph22.5 kmh 30.56 in1034.9 mb 0.00 in0.0 mm 0.00 in/hr0.0 mm/hr 0.00 in0.0 mm
02:06 PM 37.4°F3.0°C 22.7°F-5.2°C 55% 9.0 mph NNE14.5 kmh NNE 14.0 mph22.5 kmh 30.56 in1034.9 mb 0.00 in0.0 mm 0.00 in/hr0.0 mm/hr 0.00 in0.0 mm
02:07 PM 37.5°F3.1°C 23.3°F-4.8°C 56% 11.0 mph NNE17.7 kmh NNE 14.0 mph22.5 kmh 30.56 in1034.9 mb 0.00 in0.0 mm 0.00 in/hr0.0 mm/hr 0.00 in0.0 mm
02:08 PM 37.5°F3.1°C 22.8°F-5.1°C 55% 9.0 mph N14.5 kmh N 14.0 mph22.5 kmh 30.56 in1034.9 mb 0.00 in0.0 mm 0.00 in/hr0.0 mm/hr 0.00 in0.0 mm
02:09 PM 37.5°F3.1°C 22.4°F-5.3°C 54% 6.0 mph N9.7 kmh N 14.0 mph22.5 kmh 30.56 in1034.9 mb 0.00 in0.0 mm 0.00 in/hr0.0 mm/hr 0.00 in0.0 mm
02:10 PM 37.5°F3.1°C 21.9°F-5.6°C 53% 11.0 mph N17.7 kmh N 14.0 mph22.5 kmh 30.56 in1034.9 mb 0.00 in0.0 mm 0.00 in/hr0.0 mm/hr 0.00 in0.0 mm
02:11 PM 37.5°F3.1°C 21.9°F-5.6°C 53% 7.0 mph NNE11.3 kmh NNE 14.0 mph22.5 kmh 30.56 in1034.9 mb 0.00 in0.0 mm 0.00 in/hr0.0 mm/hr 0.00 in0.0 mm
02:12 PM 37.5°F3.1°C 21.5°F-5.8°C 52% 7.0 mph NE11.3 kmh NE 14.0 mph22.5 kmh 30.56 in1034.9 mb 0.00 in0.0 mm 0.00 in/hr0.0 mm/hr 0.00 in0.0 mm
02:13 PM 37.5°F3.1°C 21.9°F-5.6°C 53% 8.0 mph NNW12.9 kmh NNW 14.0 mph22.5 kmh 30.55 in1034.5 mb 0.00 in0.0 mm 0.00 in/hr0.0 mm/hr 0.00 in0.0 mm
02:14 PM 37.6°F3.1°C 22.0°F-5.6°C 53% 11.0 mph NNW17.7 kmh NNW 14.0 mph22.5 kmh 30.55 in1034.5 mb 0.00 in0.0 mm 0.00 in/hr0.0 mm/hr 0.00 in0.0 mm
02:15 PM 37.7°F3.2°C 22.1°F-5.5°C 53% 10.0 mph NW16.1 kmh NW 14.0 mph22.5 kmh 30.55 in1034.5 mb 0.00 in0.0 mm 0.00 in/hr0.0 mm/hr 0.00 in0.0 mm
02:16 PM 37.7°F3.2°C 21.7°F-5.7°C 52% 10.0 mph NW16.1 kmh NW 14.0 mph22.5 kmh 30.55 in1034.5 mb 0.00 in0.0 mm 0.00 in/hr0.0 mm/hr 0.00 in0.0 mm
02:17 PM 37.7°F3.2°C 22.1°F-5.5°C 53% 8.0 mph NNW12.9 kmh NNW 14.0 mph22.5 kmh 30.55 in1034.5 mb 0.00 in0.0 mm 0.00 in/hr0.0 mm/hr 0.00 in0.0 mm
02:18 PM 37.7°F3.2°C 22.1°F-5.5°C 53% 6.0 mph NNW9.7 kmh NNW 14.0 mph22.5 kmh 30.55 in1034.5 mb 0.00 in0.0 mm 0.00 in/hr0.0 mm/hr 0.00 in0.0 mm
02:19 PM 37.7°F3.2°C 21.7°F-5.7°C 52% 9.0 mph NNE14.5 kmh NNE 14.0 mph22.5 kmh 30.55 in1034.5 mb 0.00 in0.0 mm 0.00 in/hr0.0 mm/hr 0.00 in0.0 mm
02:20 PM 37.7°F3.2°C 22.1°F-5.5°C 53% 4.0 mph NE6.4 kmh NE 14.0 mph22.5 kmh 30.55 in1034.5 mb 0.00 in0.0 mm 0.00 in/hr0.0 mm/hr 0.00 in0.0 mm
02:21 PM 37.6°F3.1°C 21.6°F-5.8°C 52% 9.0 mph N14.5 kmh N 14.0 mph22.5 kmh 30.55 in1034.5 mb 0.00 in0.0 mm 0.00 in/hr0.0 mm/hr 0.00 in0.0 mm
02:22 PM 37.6°F3.1°C 21.6°F-5.8°C 52% 8.0 mph N12.9 kmh N 14.0 mph22.5 kmh 30.55 in1034.5 mb 0.00 in0.0 mm 0.00 in/hr0.0 mm/hr 0.00 in0.0 mm
02:23 PM 37.6°F3.1°C 22.0°F-5.6°C 53% 10.0 mph N16.1 kmh N 14.0 mph22.5 kmh 30.55 in1034.5 mb 0.00 in0.0 mm 0.00 in/hr0.0 mm/hr 0.00 in0.0 mm
02:24 PM 37.7°F3.2°C 22.6°F-5.2°C 54% 11.0 mph N17.7 kmh N 14.0 mph22.5 kmh 30.55 in1034.5 mb 0.00 in0.0 mm 0.00 in/hr0.0 mm/hr 0.00 in0.0 mm
02:25 PM 37.7°F3.2°C 22.6°F-5.2°C 54% 11.0 mph NNW17.7 kmh NNW 14.0 mph22.5 kmh 30.55 in1034.5 mb 0.00 in0.0 mm 0.00 in/hr0.0 mm/hr 0.00 in0.0 mm
02:26 PM 37.7°F3.2°C 22.1°F-5.5°C 53% 3.0 mph NNW4.8 kmh NNW 14.0 mph22.5 kmh 30.55 in1034.5 mb 0.00 in0.0 mm 0.00 in/hr0.0 mm/hr 0.00 in0.0 mm
02:27 PM 37.8°F3.2°C 22.2°F-5.4°C 53% 10.0 mph NNE16.1 kmh NNE 14.0 mph22.5 kmh 30.55 in1034.5 mb 0.00 in0.0 mm 0.00 in/hr0.0 mm/hr 0.00 in0.0 mm
02:28 PM 37.8°F3.2°C 22.2°F-5.4°C 53% 6.0 mph N9.7 kmh N 14.0 mph22.5 kmh 30.55 in1034.5 mb 0.00 in0.0 mm 0.00 in/hr0.0 mm/hr 0.00 in0.0 mm
02:29 PM 37.8°F3.2°C 22.2°F-5.4°C 53% 7.0 mph NNW11.3 kmh NNW 14.0 mph22.5 kmh 30.55 in1034.5 mb 0.00 in0.0 mm 0.00 in/hr0.0 mm/hr 0.00 in0.0 mm
02:30 PM 37.9°F3.3°C 22.8°F-5.1°C 54% 5.0 mph NW8.0 kmh NW 14.0 mph22.5 kmh 30.55 in1034.5 mb 0.00 in0.0 mm 0.00 in/hr0.0 mm/hr 0.00 in0.0 mm
02:31 PM 37.9°F3.3°C 21.9°F-5.6°C 52% 1.0 mph NNW1.6 kmh NNW 14.0 mph22.5 kmh 30.55 in1034.5 mb 0.00 in0.0 mm 0.00 in/hr0.0 mm/hr 0.00 in0.0 mm
02:32 PM 37.9°F3.3°C 21.9°F-5.6°C 52% 4.0 mph NNW6.4 kmh NNW 5.0 mph8.0 kmh 30.55 in1034.5 mb 0.00 in0.0 mm 0.00 in/hr0.0 mm/hr 0.00 in0.0 mm
02:33 PM 38.0°F3.3°C 22.0°F-5.6°C 52% 5.0 mph N8.0 kmh N 5.0 mph8.0 kmh 30.55 in1034.5 mb 0.00 in0.0 mm 0.00 in/hr0.0 mm/hr 0.00 in0.0 mm
02:34 PM 38.0°F3.3°C 21.5°F-5.8°C 51% 10.0 mph NNE16.1 kmh NNE 11.0 mph17.7 kmh 30.55 in1034.5 mb 0.00 in0.0 mm 0.00 in/hr0.0 mm/hr 0.00 in0.0 mm
02:35 PM 38.1°F3.4°C 21.1°F-6.1°C 50% 6.0 mph NNE9.7 kmh NNE 11.0 mph17.7 kmh 30.55 in1034.5 mb 0.00 in0.0 mm 0.00 in/hr0.0 mm/hr 0.00 in0.0 mm
02:36 PM 38.2°F3.4°C 21.7°F-5.7°C 51% 9.0 mph N14.5 kmh N 11.0 mph17.7 kmh 30.55 in1034.5 mb 0.00 in0.0 mm 0.00 in/hr0.0 mm/hr 0.00 in0.0 mm
02:37 PM 38.2°F3.4°C 22.1°F-5.5°C 52% 7.0 mph N11.3 kmh N 11.0 mph17.7 kmh 30.54 in1034.2 mb 0.00 in0.0 mm 0.00 in/hr0.0 mm/hr 0.00 in0.0 mm
02:38 PM 38.2°F3.4°C 21.7°F-5.7°C 51% 8.0 mph NNE12.9 kmh NNE 11.0 mph17.7 kmh 30.55 in1034.5 mb 0.00 in0.0 mm 0.00 in/hr0.0 mm/hr 0.00 in0.0 mm
02:39 PM 38.2°F3.4°C 21.2°F-6.0°C 50% 3.0 mph NNW4.8 kmh NNW 11.0 mph17.7 kmh 30.54 in1034.2 mb 0.00 in0.0 mm 0.00 in/hr0.0 mm/hr 0.00 in0.0 mm
02:40 PM 38.2°F3.4°C 21.2°F-6.0°C 50% 11.0 mph N17.7 kmh N 11.0 mph17.7 kmh 30.55 in1034.5 mb 0.00 in0.0 mm 0.00 in/hr0.0 mm/hr 0.00 in0.0 mm
02:41 PM 38.2°F3.4°C 21.2°F-6.0°C 50% 8.0 mph NE12.9 kmh NE 11.0 mph17.7 kmh 30.54 in1034.2 mb 0.00 in0.0 mm 0.00 in/hr0.0 mm/hr 0.00 in0.0 mm
02:42 PM 38.2°F3.4°C 20.7°F-6.3°C 49% 12.0 mph NE19.3 kmh NE 14.0 mph22.5 kmh 30.54 in1034.2 mb 0.00 in0.0 mm 0.00 in/hr0.0 mm/hr 0.00 in0.0 mm
02:43 PM 38.4°F3.6°C 21.9°F-5.6°C 51% 9.0 mph N14.5 kmh N 14.0 mph22.5 kmh 30.54 in1034.2 mb 0.00 in0.0 mm 0.00 in/hr0.0 mm/hr 0.00 in0.0 mm
02:44 PM 38.5°F3.6°C 22.4°F-5.3°C 52% 7.0 mph N11.3 kmh N 14.0 mph22.5 kmh 30.55 in1034.5 mb 0.00 in0.0 mm 0.00 in/hr0.0 mm/hr 0.00 in0.0 mm
02:45 PM 38.5°F3.6°C 22.4°F-5.3°C 52% 5.0 mph N8.0 kmh N 14.0 mph22.5 kmh 30.55 in1034.5 mb 0.00 in0.0 mm 0.00 in/hr0.0 mm/hr 0.00 in0.0 mm
02:46 PM 38.5°F3.6°C 21.5°F-5.8°C 50% 3.0 mph NNW4.8 kmh NNW 14.0 mph22.5 kmh 30.54 in1034.2 mb 0.00 in0.0 mm 0.00 in/hr0.0 mm/hr 0.00 in0.0 mm
02:47 PM 38.5°F3.6°C 21.5°F-5.8°C 50% 7.0 mph N11.3 kmh N 14.0 mph22.5 kmh 30.54 in1034.2 mb 0.00 in0.0 mm 0.00 in/hr0.0 mm/hr 0.00 in0.0 mm
02:48 PM 38.5°F3.6°C 22.0°F-5.6°C 51% 7.0 mph N11.3 kmh N 14.0 mph22.5 kmh 30.54 in1034.2 mb 0.00 in0.0 mm 0.00 in/hr0.0 mm/hr 0.00 in0.0 mm
02:49 PM 38.6°F3.7°C 21.6°F-5.8°C 50% 8.0 mph NNW12.9 kmh NNW 14.0 mph22.5 kmh 30.54 in1034.2 mb 0.00 in0.0 mm 0.00 in/hr0.0 mm/hr 0.00 in0.0 mm
02:50 PM 38.6°F3.7°C 22.1°F-5.5°C 51% 5.0 mph NNW8.0 kmh NNW 14.0 mph22.5 kmh 30.54 in1034.2 mb 0.00 in0.0 mm 0.00 in/hr0.0 mm/hr 0.00 in0.0 mm
02:51 PM 38.6°F3.7°C 21.6°F-5.8°C 50% 8.0 mph NE12.9 kmh NE 14.0 mph22.5 kmh 30.55 in1034.5 mb 0.00 in0.0 mm 0.00 in/hr0.0 mm/hr 0.00 in0.0 mm
02:52 PM 38.7°F3.7°C 21.7°F-5.7°C 50% 9.0 mph NNE14.5 kmh NNE 14.0 mph22.5 kmh 30.55 in1034.5 mb 0.00 in0.0 mm 0.00 in/hr0.0 mm/hr 0.00 in0.0 mm
02:53 PM 38.7°F3.7°C 21.2°F-6.0°C 49% 5.0 mph NE8.0 kmh NE 14.0 mph22.5 kmh 30.55 in1034.5 mb 0.00 in0.0 mm 0.00 in/hr0.0 mm/hr 0.00 in0.0 mm
02:54 PM 38.7°F3.7°C 20.7°F-6.3°C 48% 7.0 mph NNE11.3 kmh NNE 14.0 mph22.5 kmh 30.54 in1034.2 mb 0.00 in0.0 mm 0.00 in/hr0.0 mm/hr 0.00 in0.0 mm
02:55 PM 38.7°F3.7°C 21.2°F-6.0°C 49% 5.0 mph N8.0 kmh N 14.0 mph22.5 kmh 30.54 in1034.2 mb 0.00 in0.0 mm 0.00 in/hr0.0 mm/hr 0.00 in0.0 mm
02:56 PM 38.7°F3.7°C 21.7°F-5.7°C 50% 4.0 mph NNE6.4 kmh NNE 14.0 mph22.5 kmh 30.54 in1034.2 mb 0.00 in0.0 mm 0.00 in/hr0.0 mm/hr 0.00 in0.0 mm
02:57 PM 38.7°F3.7°C 21.2°F-6.0°C 49% 8.0 mph NNE12.9 kmh NNE 14.0 mph22.5 kmh 30.54 in1034.2 mb 0.00 in0.0 mm 0.00 in/hr0.0 mm/hr 0.00 in0.0 mm
02:58 PM 38.7°F3.7°C 21.2°F-6.0°C 49% 9.0 mph NE14.5 kmh NE 14.0 mph22.5 kmh 30.54 in1034.2 mb 0.00 in0.0 mm 0.00 in/hr0.0 mm/hr 0.00 in0.0 mm
02:59 PM 38.7°F3.7°C 21.2°F-6.0°C 49% 10.0 mph N16.1 kmh N 14.0 mph22.5 kmh 30.54 in1034.2 mb 0.00 in0.0 mm 0.00 in/hr0.0 mm/hr 0.00 in0.0 mm
03:00 PM 38.8°F3.8°C 21.8°F-5.7°C 50% 8.0 mph NNE12.9 kmh NNE 14.0 mph22.5 kmh 30.54 in1034.2 mb 0.00 in0.0 mm 0.00 in/hr0.0 mm/hr 0.00 in0.0 mm
03:01 PM 38.8°F3.8°C 21.3°F-5.9°C 49% 4.0 mph N6.4 kmh N 14.0 mph22.5 kmh 30.54 in1034.2 mb 0.00 in0.0 mm 0.00 in/hr0.0 mm/hr 0.00 in0.0 mm
03:02 PM 38.8°F3.8°C 20.8°F-6.2°C 48% 4.0 mph N6.4 kmh N 6.0 mph9.7 kmh 30.54 in1034.2 mb 0.00 in0.0 mm 0.00 in/hr0.0 mm/hr 0.00 in0.0 mm
03:03 PM 38.9°F3.8°C 21.4°F-5.9°C 49% 5.0 mph NNE8.0 kmh NNE 8.0 mph12.9 kmh 30.54 in1034.2 mb 0.00 in0.0 mm 0.00 in/hr0.0 mm/hr 0.00 in0.0 mm
03:04 PM 38.9°F3.8°C 20.9°F-6.2°C 48% 7.0 mph NE11.3 kmh NE 8.0 mph12.9 kmh 30.54 in1034.2 mb 0.00 in0.0 mm 0.00 in/hr0.0 mm/hr 0.00 in0.0 mm
03:05 PM 38.9°F3.8°C 20.4°F-6.4°C 47% 5.0 mph N8.0 kmh N 9.0 mph14.5 kmh 30.54 in1034.2 mb 0.00 in0.0 mm 0.00 in/hr0.0 mm/hr 0.00 in0.0 mm
03:06 PM 38.9°F3.8°C 20.4°F-6.4°C 47% 7.0 mph NE11.3 kmh NE 9.0 mph14.5 kmh 30.54 in1034.2 mb 0.00 in0.0 mm 0.00 in/hr0.0 mm/hr 0.00 in0.0 mm
03:07 PM 38.9°F3.8°C 20.9°F-6.2°C 48% 10.0 mph N16.1 kmh N 11.0 mph17.7 kmh 30.54 in1034.2 mb 0.00 in0.0 mm 0.00 in/hr0.0 mm/hr 0.00 in0.0 mm
03:08 PM 38.9°F3.8°C 20.9°F-6.2°C 48% 8.0 mph N12.9 kmh N 11.0 mph17.7 kmh 30.54 in1034.2 mb 0.00 in0.0 mm 0.00 in/hr0.0 mm/hr 0.00 in0.0 mm
03:09 PM 38.9°F3.8°C 21.4°F-5.9°C 49% 5.0 mph N8.0 kmh N 11.0 mph17.7 kmh 30.54 in1034.2 mb 0.00 in0.0 mm 0.00 in/hr0.0 mm/hr 0.00 in0.0 mm
03:10 PM 38.9°F3.8°C 20.9°F-6.2°C 48% 4.0 mph NNW6.4 kmh NNW 11.0 mph17.7 kmh 30.53 in1033.9 mb 0.00 in0.0 mm 0.00 in/hr0.0 mm/hr 0.00 in0.0 mm
03:11 PM 38.9°F3.8°C 21.4°F-5.9°C 49% 7.0 mph NNW11.3 kmh NNW 11.0 mph17.7 kmh 30.54 in1034.2 mb 0.00 in0.0 mm 0.00 in/hr0.0 mm/hr 0.00 in0.0 mm
03:12 PM 38.9°F3.8°C 21.4°F-5.9°C 49% 5.0 mph NW8.0 kmh NW 11.0 mph17.7 kmh 30.54 in1034.2 mb 0.00 in0.0 mm 0.00 in/hr0.0 mm/hr 0.00 in0.0 mm
03:13 PM 38.9°F3.8°C 21.4°F-5.9°C 49% 8.0 mph N12.9 kmh N 11.0 mph17.7 kmh 30.54 in1034.2 mb 0.00 in0.0 mm 0.00 in/hr0.0 mm/hr 0.00 in0.0 mm
03:14 PM 38.9°F3.8°C 21.9°F-5.6°C 50% 10.0 mph N16.1 kmh N 11.0 mph17.7 kmh 30.53 in1033.9 mb 0.00 in0.0 mm 0.00 in/hr0.0 mm/hr 0.00 in0.0 mm
03:15 PM 39.0°F3.9°C 22.9°F-5.1°C 52% 7.0 mph N11.3 kmh N 11.0 mph17.7 kmh 30.53 in1033.9 mb 0.00 in0.0 mm 0.00 in/hr0.0 mm/hr 0.00 in0.0 mm
03:16 PM 39.0°F3.9°C 21.5°F-5.8°C 49% 5.0 mph NNW8.0 kmh NNW 11.0 mph17.7 kmh 30.53 in1033.9 mb 0.00 in0.0 mm 0.00 in/hr0.0 mm/hr 0.00 in0.0 mm
03:17 PM 39.0°F3.9°C 21.0°F-6.1°C 48% 8.0 mph N12.9 kmh N 11.0 mph17.7 kmh 30.53 in1033.9 mb 0.00 in0.0 mm 0.00 in/hr0.0 mm/hr 0.00 in0.0 mm
03:18 PM 39.0°F3.9°C 21.5°F-5.8°C 49% 9.0 mph N14.5 kmh N 11.0 mph17.7 kmh 30.53 in1033.9 mb 0.00 in0.0 mm 0.00 in/hr0.0 mm/hr 0.00 in0.0 mm
03:19 PM 39.0°F3.9°C 21.0°F-6.1°C 48% 8.0 mph NNW12.9 kmh NNW 11.0 mph17.7 kmh 30.53 in1033.9 mb 0.00 in0.0 mm 0.00 in/hr0.0 mm/hr 0.00 in0.0 mm
03:20 PM 39.1°F3.9°C 21.6°F-5.8°C 49% 6.0 mph N9.7 kmh N 11.0 mph17.7 kmh 30.53 in1033.9 mb 0.00 in0.0 mm 0.00 in/hr0.0 mm/hr 0.00 in0.0 mm
03:21 PM 39.1°F3.9°C 21.1°F-6.1°C 48% 11.0 mph NNW17.7 kmh NNW 11.0 mph17.7 kmh 30.53 in1033.9 mb 0.00 in0.0 mm 0.00 in/hr0.0 mm/hr 0.00 in0.0 mm
03:22 PM 39.2°F4.0°C 22.1°F-5.5°C 50% 7.0 mph NW11.3 kmh NW 11.0 mph17.7 kmh 30.53 in1033.9 mb 0.00 in0.0 mm 0.00 in/hr0.0 mm/hr 0.00 in0.0 mm
03:23 PM 39.2°F4.0°C 21.7°F-5.7°C 49% 6.0 mph N9.7 kmh N 11.0 mph17.7 kmh 30.53 in1033.9 mb 0.00 in0.0 mm 0.00 in/hr0.0 mm/hr 0.00 in0.0 mm
03:24 PM 39.3°F4.1°C 22.7°F-5.2°C 51% 7.0 mph NNW11.3 kmh NNW 11.0 mph17.7 kmh 30.53 in1033.9 mb 0.00 in0.0 mm 0.00 in/hr0.0 mm/hr 0.00 in0.0 mm
03:25 PM 39.3°F4.1°C 22.2°F-5.4°C 50% 5.0 mph NNW8.0 kmh NNW 11.0 mph17.7 kmh 30.53 in1033.9 mb 0.00 in0.0 mm 0.00 in/hr0.0 mm/hr 0.00 in0.0 mm
03:26 PM 39.3°F4.1°C 21.8°F-5.7°C 49% 6.0 mph NW9.7 kmh NW 11.0 mph17.7 kmh 30.53 in1033.9 mb 0.00 in0.0 mm 0.00 in/hr0.0 mm/hr 0.00 in0.0 mm
03:27 PM 39.3°F4.1°C 21.3°F-5.9°C 48% 5.0 mph N8.0 kmh N 11.0 mph17.7 kmh 30.53 in1033.9 mb 0.00 in0.0 mm 0.00 in/hr0.0 mm/hr 0.00 in0.0 mm
03:28 PM 39.3°F4.1°C 20.8°F-6.2°C 47% 4.0 mph N6.4 kmh N 11.0 mph17.7 kmh 30.53 in1033.9 mb 0.00 in0.0 mm 0.00 in/hr0.0 mm/hr 0.00 in0.0 mm
03:29 PM 39.2°F4.0°C 20.7°F-6.3°C 47% 2.0 mph NNE3.2 kmh NNE 11.0 mph17.7 kmh 30.53 in1033.9 mb 0.00 in0.0 mm 0.00 in/hr0.0 mm/hr 0.00 in0.0 mm
03:30 PM 39.2°F4.0°C 20.7°F-6.3°C 47% 7.0 mph NW11.3 kmh NW 11.0 mph17.7 kmh 30.53 in1033.9 mb 0.00 in0.0 mm 0.00 in/hr0.0 mm/hr 0.00 in0.0 mm
03:31 PM 39.2°F4.0°C 20.7°F-6.3°C 47% 6.0 mph N9.7 kmh N 11.0 mph17.7 kmh 30.53 in1033.9 mb 0.00 in0.0 mm 0.00 in/hr0.0 mm/hr 0.00 in0.0 mm
03:32 PM 39.3°F4.1°C 21.3°F-5.9°C 48% 8.0 mph N12.9 kmh N 8.0 mph12.9 kmh 30.53 in1033.9 mb 0.00 in0.0 mm 0.00 in/hr0.0 mm/hr 0.00 in0.0 mm
03:33 PM 39.3°F4.1°C 21.3°F-5.9°C 48% 7.0 mph N11.3 kmh N 9.0 mph14.5 kmh 30.53 in1033.9 mb 0.00 in0.0 mm 0.00 in/hr0.0 mm/hr 0.00 in0.0 mm
03:34 PM 39.3°F4.1°C 20.8°F-6.2°C 47% 9.0 mph NE14.5 kmh NE 11.0 mph17.7 kmh 30.53 in1033.9 mb 0.00 in0.0 mm 0.00 in/hr0.0 mm/hr 0.00 in0.0 mm
03:35 PM 39.3°F4.1°C 20.3°F-6.5°C 46% 7.0 mph NE11.3 kmh NE 11.0 mph17.7 kmh 30.53 in1033.9 mb 0.00 in0.0 mm 0.00 in/hr0.0 mm/hr 0.00 in0.0 mm
03:36 PM 39.3°F4.1°C 20.8°F-6.2°C 47% 5.0 mph NNE8.0 kmh NNE 11.0 mph17.7 kmh 30.53 in1033.9 mb 0.00 in0.0 mm 0.00 in/hr0.0 mm/hr 0.00 in0.0 mm
03:37 PM 39.4°F4.1°C 20.4°F-6.4°C 46% 7.0 mph NNE11.3 kmh NNE 11.0 mph17.7 kmh 30.53 in1033.9 mb 0.00 in0.0 mm 0.00 in/hr0.0 mm/hr 0.00 in0.0 mm
03:38 PM 39.5°F4.2°C 21.0°F-6.1°C 47% 5.0 mph NE8.0 kmh NE 11.0 mph17.7 kmh 30.53 in1033.9 mb 0.00 in0.0 mm 0.00 in/hr0.0 mm/hr 0.00 in0.0 mm
03:39 PM 39.4°F4.1°C 20.4°F-6.4°C 46% 4.0 mph NE6.4 kmh NE 11.0 mph17.7 kmh 30.53 in1033.9 mb 0.00 in0.0 mm 0.00 in/hr0.0 mm/hr 0.00 in0.0 mm
03:40 PM 39.5°F4.2°C 20.5°F-6.4°C 46% 8.0 mph N12.9 kmh N 11.0 mph17.7 kmh 30.53 in1033.9 mb 0.00 in0.0 mm 0.00 in/hr0.0 mm/hr 0.00 in0.0 mm
03:41 PM 39.5°F4.2°C 21.0°F-6.1°C 47% 8.0 mph NNW12.9 kmh NNW 11.0 mph17.7 kmh 30.53 in1033.9 mb 0.00 in0.0 mm 0.00 in/hr0.0 mm/hr 0.00 in0.0 mm
03:42 PM 39.5°F4.2°C 21.5°F-5.8°C 48% 6.0 mph N9.7 kmh N 11.0 mph17.7 kmh 30.53 in1033.9 mb 0.00 in0.0 mm 0.00 in/hr0.0 mm/hr 0.00 in0.0 mm
03:43 PM 39.5°F4.2°C 21.9°F-5.6°C 49% 3.0 mph NNE4.8 kmh NNE 11.0 mph17.7 kmh 30.53 in1033.9 mb 0.00 in0.0 mm 0.00 in/hr0.0 mm/hr 0.00 in0.0 mm
03:44 PM 39.5°F4.2°C 21.5°F-5.8°C 48% 3.0 mph N4.8 kmh N 11.0 mph17.7 kmh 30.53 in1033.9 mb 0.00 in0.0 mm 0.00 in/hr0.0 mm/hr 0.00 in0.0 mm
03:45 PM 39.6°F4.2°C 21.5°F-5.8°C 48% 9.0 mph N14.5 kmh N 11.0 mph17.7 kmh 30.53 in1033.9 mb 0.00 in0.0 mm 0.00 in/hr0.0 mm/hr 0.00 in0.0 mm
03:46 PM 39.6°F4.2°C 21.5°F-5.8°C 48% 6.0 mph NNE9.7 kmh NNE 11.0 mph17.7 kmh 30.53 in1033.9 mb 0.00 in0.0 mm 0.00 in/hr0.0 mm/hr 0.00 in0.0 mm
03:47 PM 39.6°F4.2°C 21.1°F-6.1°C 47% 8.0 mph NNW12.9 kmh NNW 11.0 mph17.7 kmh 30.53 in1033.9 mb 0.00 in0.0 mm 0.00 in/hr0.0 mm/hr 0.00 in0.0 mm
03:48 PM 39.6°F4.2°C 21.1°F-6.1°C 47% 6.0 mph N9.7 kmh N 11.0 mph17.7 kmh 30.53 in1033.9 mb 0.00 in0.0 mm 0.00 in/hr0.0 mm/hr 0.00 in0.0 mm
03:49 PM 39.6°F4.2°C 21.5°F-5.8°C 48% 3.0 mph NW4.8 kmh NW 11.0 mph17.7 kmh 30.53 in1033.9 mb 0.00 in0.0 mm 0.00 in/hr0.0 mm/hr 0.00 in0.0 mm
03:50 PM 39.6°F4.2°C 21.1°F-6.1°C 47% 4.0 mph NNW6.4 kmh NNW 11.0 mph17.7 kmh 30.53 in1033.9 mb 0.00 in0.0 mm 0.00 in/hr0.0 mm/hr 0.00 in0.0 mm
03:51 PM 39.5°F4.2°C 21.0°F-6.1°C 47% 4.0 mph N6.4 kmh N 11.0 mph17.7 kmh 30.53 in1033.9 mb 0.00 in0.0 mm 0.00 in/hr0.0 mm/hr 0.00 in0.0 mm
03:52 PM 39.5°F4.2°C 21.0°F-6.1°C 47% 4.0 mph N6.4 kmh N 11.0 mph17.7 kmh 30.53 in1033.9 mb 0.00 in0.0 mm 0.00 in/hr0.0 mm/hr 0.00 in0.0 mm
03:53 PM 39.5°F4.2°C 21.0°F-6.1°C 47% 4.0 mph NW6.4 kmh NW 11.0 mph17.7 kmh 30.53 in1033.9 mb 0.00 in0.0 mm 0.00 in/hr0.0 mm/hr 0.00 in0.0 mm
03:54 PM 39.5°F4.2°C 21.5°F-5.8°C 48% 7.0 mph NNW11.3 kmh NNW 11.0 mph17.7 kmh 30.53 in1033.9 mb 0.00 in0.0 mm 0.00 in/hr0.0 mm/hr 0.00 in0.0 mm
03:55 PM 39.5°F4.2°C 21.5°F-5.8°C 48% 7.0 mph NW11.3 kmh NW 11.0 mph17.7 kmh 30.53 in1033.9 mb 0.00 in0.0 mm 0.00 in/hr0.0 mm/hr 0.00 in0.0 mm
03:56 PM 39.5°F4.2°C 21.0°F-6.1°C 47% 5.0 mph NNW8.0 kmh NNW 11.0 mph17.7 kmh 30.53 in1033.9 mb 0.00 in0.0 mm 0.00 in/hr0.0 mm/hr 0.00 in0.0 mm
03:57 PM 39.6°F4.2°C 22.0°F-5.6°C 49% 7.0 mph NNW11.3 kmh NNW 11.0 mph17.7 kmh 30.53 in1033.9 mb 0.00 in0.0 mm 0.00 in/hr0.0 mm/hr 0.00 in0.0 mm
03:58 PM 39.6°F4.2°C 22.0°F-5.6°C 49% 4.0 mph NNE6.4 kmh NNE 11.0 mph17.7 kmh 30.53 in1033.9 mb 0.00 in0.0 mm 0.00 in/hr0.0 mm/hr 0.00 in0.0 mm
03:59 PM 39.6°F4.2°C 21.5°F-5.8°C 48% 5.0 mph N8.0 kmh N 11.0 mph17.7 kmh 30.53 in1033.9 mb 0.00 in0.0 mm 0.00 in/hr0.0 mm/hr 0.00 in0.0 mm
04:00 PM 39.6°F4.2°C 21.5°F-5.8°C 48% 5.0 mph N8.0 kmh N 11.0 mph17.7 kmh 30.53 in1033.9 mb 0.00 in0.0 mm 0.00 in/hr0.0 mm/hr 0.00 in0.0 mm
04:01 PM 39.6°F4.2°C 21.1°F-6.1°C 47% 5.0 mph N8.0 kmh N 11.0 mph17.7 kmh 30.53 in1033.9 mb 0.00 in0.0 mm 0.00 in/hr0.0 mm/hr 0.00 in0.0 mm
04:02 PM 39.6°F4.2°C 21.1°F-6.1°C 47% 7.0 mph NE11.3 kmh NE 9.0 mph14.5 kmh 30.53 in1033.9 mb 0.00 in0.0 mm 0.00 in/hr0.0 mm/hr 0.00 in0.0 mm
04:03 PM 39.6°F4.2°C 20.0°F-6.7°C 45% 8.0 mph NE12.9 kmh NE 9.0 mph14.5 kmh 30.53 in1033.9 mb 0.00 in0.0 mm 0.00 in/hr0.0 mm/hr 0.00 in0.0 mm
04:04 PM 39.6°F4.2°C 20.0°F-6.7°C 45% 7.0 mph NE11.3 kmh NE 9.0 mph14.5 kmh 30.53 in1033.9 mb 0.00 in0.0 mm 0.00 in/hr0.0 mm/hr 0.00 in0.0 mm
04:05 PM 39.6°F4.2°C 20.0°F-6.7°C 45% 5.0 mph NE8.0 kmh NE 9.0 mph14.5 kmh 30.53 in1033.9 mb 0.00 in0.0 mm 0.00 in/hr0.0 mm/hr 0.00 in0.0 mm
04:06 PM 39.5°F4.2°C 19.9°F-6.7°C 45% 5.0 mph NE8.0 kmh NE 9.0 mph14.5 kmh 30.53 in1033.9 mb 0.00 in0.0 mm 0.00 in/hr0.0 mm/hr 0.00 in0.0 mm
04:07 PM 39.5°F4.2°C 19.9°F-6.7°C 45% 5.0 mph N8.0 kmh N 9.0 mph14.5 kmh 30.53 in1033.9 mb 0.00 in0.0 mm 0.00 in/hr0.0 mm/hr 0.00 in0.0 mm
04:08 PM 39.5°F4.2°C 19.9°F-6.7°C 45% 7.0 mph N11.3 kmh N 10.0 mph16.1 kmh 30.53 in1033.9 mb 0.00 in0.0 mm 0.00 in/hr0.0 mm/hr 0.00 in0.0 mm
04:09 PM 39.5°F4.2°C 20.5°F-6.4°C 46% 7.0 mph NNE11.3 kmh NNE 10.0 mph16.1 kmh 30.53 in1033.9 mb 0.00 in0.0 mm 0.00 in/hr0.0 mm/hr 0.00 in0.0 mm
04:10 PM 39.5°F4.2°C 19.9°F-6.7°C 45% 5.0 mph NE8.0 kmh NE 10.0 mph16.1 kmh 30.53 in1033.9 mb 0.00 in0.0 mm 0.00 in/hr0.0 mm/hr 0.00 in0.0 mm
04:11 PM 39.5°F4.2°C 19.9°F-6.7°C 45% 6.0 mph N9.7 kmh N 10.0 mph16.1 kmh 30.53 in1033.9 mb 0.00 in0.0 mm 0.00 in/hr0.0 mm/hr 0.00 in0.0 mm
04:12 PM 39.5°F4.2°C 19.9°F-6.7°C 45% 6.0 mph NE9.7 kmh NE 10.0 mph16.1 kmh 30.53 in1033.9 mb 0.00 in0.0 mm 0.00 in/hr0.0 mm/hr 0.00 in0.0 mm
04:13 PM 39.5°F4.2°C 19.9°F-6.7°C 45% 7.0 mph NE11.3 kmh NE 10.0 mph16.1 kmh 30.53 in1033.9 mb 0.00 in0.0 mm 0.00 in/hr0.0 mm/hr 0.00 in0.0 mm
04:14 PM 39.5°F4.2°C 19.4°F-7.0°C 44% 7.0 mph NE11.3 kmh NE 10.0 mph16.1 kmh 30.53 in1033.9 mb 0.00 in0.0 mm 0.00 in/hr0.0 mm/hr 0.00 in0.0 mm
04:15 PM 39.5°F4.2°C 19.4°F-7.0°C 44% 4.0 mph NE6.4 kmh NE 10.0 mph16.1 kmh 30.53 in1033.9 mb 0.00 in0.0 mm 0.00 in/hr0.0 mm/hr 0.00 in0.0 mm
04:16 PM 39.5°F4.2°C 19.4°F-7.0°C 44% 4.0 mph NE6.4 kmh NE 10.0 mph16.1 kmh 30.53 in1033.9 mb 0.00 in0.0 mm 0.00 in/hr0.0 mm/hr 0.00 in0.0 mm
04:17 PM 39.5°F4.2°C 19.4°F-7.0°C 44% 9.0 mph N14.5 kmh N 10.0 mph16.1 kmh 30.53 in1033.9 mb 0.00 in0.0 mm 0.00 in/hr0.0 mm/hr 0.00 in0.0 mm
04:18 PM 39.4°F4.1°C 19.3°F-7.1°C 44% 7.0 mph N11.3 kmh N 10.0 mph16.1 kmh 30.53 in1033.9 mb 0.00 in0.0 mm 0.00 in/hr0.0 mm/hr 0.00 in0.0 mm
04:19 PM 39.4°F4.1°C 19.8°F-6.8°C 45% 7.0 mph N11.3 kmh N 10.0 mph16.1 kmh 30.54 in1034.2 mb 0.00 in0.0 mm 0.00 in/hr0.0 mm/hr 0.00 in0.0 mm
04:20 PM 39.4°F4.1°C 19.8°F-6.8°C 45% 5.0 mph N8.0 kmh N 10.0 mph16.1 kmh 30.54 in1034.2 mb 0.00 in0.0 mm 0.00 in/hr0.0 mm/hr 0.00 in0.0 mm
04:21 PM 39.4°F4.1°C 20.9°F-6.2°C 47% 5.0 mph NNE8.0 kmh NNE 10.0 mph16.1 kmh 30.54 in1034.2 mb 0.00 in0.0 mm 0.00 in/hr0.0 mm/hr 0.00 in0.0 mm
04:22 PM 39.4°F4.1°C 20.9°F-6.2°C 47% 6.0 mph N9.7 kmh N 10.0 mph16.1 kmh 30.53 in1033.9 mb 0.00 in0.0 mm 0.00 in/hr0.0 mm/hr 0.00 in0.0 mm
04:23 PM 39.5°F4.2°C 20.5°F-6.4°C 46% 5.0 mph N8.0 kmh N 10.0 mph16.1 kmh 30.54 in1034.2 mb 0.00 in0.0 mm 0.00 in/hr0.0 mm/hr 0.00 in0.0 mm
04:24 PM 39.5°F4.2°C 21.0°F-6.1°C 47% 5.0 mph N8.0 kmh N 10.0 mph16.1 kmh 30.53 in1033.9 mb 0.00 in0.0 mm 0.00 in/hr0.0 mm/hr 0.00 in0.0 mm
04:25 PM 39.5°F4.2°C 21.0°F-6.1°C 47% 5.0 mph N8.0 kmh N 10.0 mph16.1 kmh 30.53 in1033.9 mb 0.00 in0.0 mm 0.00 in/hr0.0 mm/hr 0.00 in0.0 mm
04:26 PM 39.5°F4.2°C 20.5°F-6.4°C 46% 5.0 mph NE8.0 kmh NE 10.0 mph16.1 kmh 30.53 in1033.9 mb 0.00 in0.0 mm 0.00 in/hr0.0 mm/hr 0.00 in0.0 mm
04:27 PM 39.5°F4.2°C 20.5°F-6.4°C 46% 3.0 mph N4.8 kmh N 10.0 mph16.1 kmh 30.54 in1034.2 mb 0.00 in0.0 mm 0.00 in/hr0.0 mm/hr 0.00 in0.0 mm
04:28 PM 39.5°F4.2°C 19.9°F-6.7°C 45% 6.0 mph N9.7 kmh N 10.0 mph16.1 kmh 30.53 in1033.9 mb 0.00 in0.0 mm 0.00 in/hr0.0 mm/hr 0.00 in0.0 mm
04:29 PM 39.5°F4.2°C 20.5°F-6.4°C 46% 6.0 mph N9.7 kmh N 10.0 mph16.1 kmh 30.54 in1034.2 mb 0.00 in0.0 mm 0.00 in/hr0.0 mm/hr 0.00 in0.0 mm
04:30 PM 39.5°F4.2°C 19.9°F-6.7°C 45% 3.0 mph N4.8 kmh N 10.0 mph16.1 kmh 30.54 in1034.2 mb 0.00 in0.0 mm 0.00 in/hr0.0 mm/hr 0.00 in0.0 mm
04:31 PM 39.5°F4.2°C 19.9°F-6.7°C 45% 4.0 mph N6.4 kmh N 10.0 mph16.1 kmh 30.54 in1034.2 mb 0.00 in0.0 mm 0.00 in/hr0.0 mm/hr 0.00 in0.0 mm
04:32 PM 39.5°F4.2°C 20.5°F-6.4°C 46% 7.0 mph N11.3 kmh N 7.0 mph11.3 kmh 30.53 in1033.9 mb 0.00 in0.0 mm 0.00 in/hr0.0 mm/hr 0.00 in0.0 mm
04:33 PM 39.5°F4.2°C 19.9°F-6.7°C 45% 3.0 mph NNE4.8 kmh NNE 7.0 mph11.3 kmh 30.54 in1034.2 mb 0.00 in0.0 mm 0.00 in/hr0.0 mm/hr 0.00 in0.0 mm
04:34 PM 39.4°F4.1°C 19.8°F-6.8°C 45% 6.0 mph N9.7 kmh N 9.0 mph14.5 kmh 30.54 in1034.2 mb 0.00 in0.0 mm 0.00 in/hr0.0 mm/hr 0.00 in0.0 mm
04:35 PM 39.4°F4.1°C 19.8°F-6.8°C 45% 3.0 mph N4.8 kmh N 9.0 mph14.5 kmh 30.54 in1034.2 mb 0.00 in0.0 mm 0.00 in/hr0.0 mm/hr 0.00 in0.0 mm
04:36 PM 39.3°F4.1°C 19.2°F-7.1°C 44% 7.0 mph N11.3 kmh N 9.0 mph14.5 kmh 30.53 in1033.9 mb 0.00 in0.0 mm 0.00 in/hr0.0 mm/hr 0.00 in0.0 mm
04:37 PM 39.3°F4.1°C 19.2°F-7.1°C 44% 9.0 mph N14.5 kmh N 9.0 mph14.5 kmh 30.53 in1033.9 mb 0.00 in0.0 mm 0.00 in/hr0.0 mm/hr 0.00 in0.0 mm
04:38 PM 39.3°F4.1°C 20.3°F-6.5°C 46% 4.0 mph N6.4 kmh N 9.0 mph14.5 kmh 30.53 in1033.9 mb 0.00 in0.0 mm 0.00 in/hr0.0 mm/hr 0.00 in0.0 mm
04:39 PM 39.2°F4.0°C 19.7°F-6.8°C 45% 7.0 mph NNE11.3 kmh NNE 9.0 mph14.5 kmh 30.53 in1033.9 mb 0.00 in0.0 mm 0.00 in/hr0.0 mm/hr 0.00 in0.0 mm
04:40 PM 39.2°F4.0°C 19.7°F-6.8°C 45% 6.0 mph N9.7 kmh N 9.0 mph14.5 kmh 30.53 in1033.9 mb 0.00 in0.0 mm 0.00 in/hr0.0 mm/hr 0.00 in0.0 mm
04:41 PM 39.2°F4.0°C 20.2°F-6.6°C 46% 5.0 mph N8.0 kmh N 9.0 mph14.5 kmh 30.53 in1033.9 mb 0.00 in0.0 mm 0.00 in/hr0.0 mm/hr 0.00 in0.0 mm
04:42 PM 39.2°F4.0°C 20.2°F-6.6°C 46% 4.0 mph NNW6.4 kmh NNW 9.0 mph14.5 kmh 30.54 in1034.2 mb 0.00 in0.0 mm 0.00 in/hr0.0 mm/hr 0.00 in0.0 mm
04:43 PM 39.2°F4.0°C 20.2°F-6.6°C 46% 7.0 mph NE11.3 kmh NE 9.0 mph14.5 kmh 30.54 in1034.2 mb 0.00 in0.0 mm 0.00 in/hr0.0 mm/hr 0.00 in0.0 mm
04:44 PM 39.1°F3.9°C 19.6°F-6.9°C 45% 5.0 mph NNE8.0 kmh NNE 9.0 mph14.5 kmh 30.54 in1034.2 mb 0.00 in0.0 mm 0.00 in/hr0.0 mm/hr 0.00 in0.0 mm
04:45 PM 39.1°F3.9°C 19.6°F-6.9°C 45% 3.0 mph NE4.8 kmh NE 9.0 mph14.5 kmh 30.54 in1034.2 mb 0.00 in0.0 mm 0.00 in/hr0.0 mm/hr 0.00 in0.0 mm
04:46 PM 39.1°F3.9°C 19.6°F-6.9°C 45% 4.0 mph NE6.4 kmh NE 9.0 mph14.5 kmh 30.54 in1034.2 mb 0.00 in0.0 mm 0.00 in/hr0.0 mm/hr 0.00 in0.0 mm
04:47 PM 39.1°F3.9°C 19.6°F-6.9°C 45% 5.0 mph NE8.0 kmh NE 9.0 mph14.5 kmh 30.54 in1034.2 mb 0.00 in0.0 mm 0.00 in/hr0.0 mm/hr 0.00 in0.0 mm
04:48 PM 39.1°F3.9°C 19.0°F-7.2°C 44% 3.0 mph NE4.8 kmh NE 9.0 mph14.5 kmh 30.54 in1034.2 mb 0.00 in0.0 mm 0.00 in/hr0.0 mm/hr 0.00 in0.0 mm
04:49 PM 39.1°F3.9°C 19.0°F-7.2°C 44% 2.0 mph NE3.2 kmh NE 9.0 mph14.5 kmh 30.54 in1034.2 mb 0.00 in0.0 mm 0.00 in/hr0.0 mm/hr 0.00 in0.0 mm
04:50 PM 39.1°F3.9°C 19.0°F-7.2°C 44% 2.0 mph NE3.2 kmh NE 9.0 mph14.5 kmh 30.53 in1033.9 mb 0.00 in0.0 mm 0.00 in/hr0.0 mm/hr 0.00 in0.0 mm
04:51 PM 39.1°F3.9°C 19.0°F-7.2°C 44% 4.0 mph NW6.4 kmh NW 9.0 mph14.5 kmh 30.53 in1033.9 mb 0.00 in0.0 mm 0.00 in/hr0.0 mm/hr 0.00 in0.0 mm
04:52 PM 39.1°F3.9°C 19.6°F-6.9°C 45% 5.0 mph NNE8.0 kmh NNE 9.0 mph14.5 kmh 30.53 in1033.9 mb 0.00 in0.0 mm 0.00 in/hr0.0 mm/hr 0.00 in0.0 mm
04:53 PM 39.1°F3.9°C 19.6°F-6.9°C 45% 4.0 mph N6.4 kmh N 9.0 mph14.5 kmh 30.53 in1033.9 mb 0.00 in0.0 mm 0.00 in/hr0.0 mm/hr 0.00 in0.0 mm
04:54 PM 39.1°F3.9°C 20.1°F-6.6°C 46% 5.0 mph N8.0 kmh N 9.0 mph14.5 kmh 30.53 in1033.9 mb 0.00 in0.0 mm 0.00 in/hr0.0 mm/hr 0.00 in0.0 mm
04:55 PM 39.1°F3.9°C 19.6°F-6.9°C 45% 7.0 mph N11.3 kmh N 9.0 mph14.5 kmh 30.53 in1033.9 mb 0.00 in0.0 mm 0.00 in/hr0.0 mm/hr 0.00 in0.0 mm
04:56 PM 39.1°F3.9°C 19.0°F-7.2°C 44% 6.0 mph NE9.7 kmh NE 9.0 mph14.5 kmh 30.53 in1033.9 mb 0.00 in0.0 mm 0.00 in/hr0.0 mm/hr 0.00 in0.0 mm
04:57 PM 39.1°F3.9°C 19.0°F-7.2°C 44% 7.0 mph NE11.3 kmh NE 9.0 mph14.5 kmh 30.53 in1033.9 mb 0.00 in0.0 mm 0.00 in/hr0.0 mm/hr 0.00 in0.0 mm
04:58 PM 39.1°F3.9°C 18.5°F-7.5°C 43% 4.0 mph NE6.4 kmh NE 9.0 mph14.5 kmh 30.53 in1033.9 mb 0.00 in0.0 mm 0.00 in/hr0.0 mm/hr 0.00 in0.0 mm
04:59 PM 39.1°F3.9°C 19.0°F-7.2°C 44% 5.0 mph NNE8.0 kmh NNE 9.0 mph14.5 kmh 30.54 in1034.2 mb 0.00 in0.0 mm 0.00 in/hr0.0 mm/hr 0.00 in0.0 mm
05:00 PM 39.1°F3.9°C 19.6°F-6.9°C 45% 5.0 mph N8.0 kmh N 9.0 mph14.5 kmh 30.53 in1033.9 mb 0.00 in0.0 mm 0.00 in/hr0.0 mm/hr 0.00 in0.0 mm
05:01 PM 39.1°F3.9°C 20.1°F-6.6°C 46% 5.0 mph NNE8.0 kmh NNE 9.0 mph14.5 kmh 30.53 in1033.9 mb 0.00 in0.0 mm 0.00 in/hr0.0 mm/hr 0.00 in0.0 mm
05:02 PM 39.1°F3.9°C 19.6°F-6.9°C 45% 6.0 mph N9.7 kmh N 6.0 mph9.7 kmh 30.53 in1033.9 mb 0.00 in0.0 mm 0.00 in/hr0.0 mm/hr 0.00 in0.0 mm
05:03 PM 39.1°F3.9°C 19.6°F-6.9°C 45% 6.0 mph N9.7 kmh N 7.0 mph11.3 kmh 30.54 in1034.2 mb 0.00 in0.0 mm 0.00 in/hr0.0 mm/hr 0.00 in0.0 mm
05:04 PM 39.0°F3.9°C 20.0°F-6.7°C 46% 5.0 mph N8.0 kmh N 7.0 mph11.3 kmh 30.54 in1034.2 mb 0.00 in0.0 mm 0.00 in/hr0.0 mm/hr 0.00 in0.0 mm
05:05 PM 39.0°F3.9°C 20.0°F-6.7°C 46% 4.0 mph N6.4 kmh N 7.0 mph11.3 kmh 30.53 in1033.9 mb 0.00 in0.0 mm 0.00 in/hr0.0 mm/hr 0.00 in0.0 mm
05:06 PM 38.9°F3.8°C 19.4°F-7.0°C 45% 5.0 mph NNE8.0 kmh NNE 7.0 mph11.3 kmh 30.53 in1033.9 mb 0.00 in0.0 mm 0.00 in/hr0.0 mm/hr 0.00 in0.0 mm
05:07 PM 38.9°F3.8°C 19.4°F-7.0°C 45% 3.0 mph NNE4.8 kmh NNE 7.0 mph11.3 kmh 30.54 in1034.2 mb 0.00 in0.0 mm 0.00 in/hr0.0 mm/hr 0.00 in0.0 mm
05:08 PM 38.9°F3.8°C 19.4°F-7.0°C 45% 4.0 mph NNE6.4 kmh NNE 7.0 mph11.3 kmh 30.53 in1033.9 mb 0.00 in0.0 mm 0.00 in/hr0.0 mm/hr 0.00 in0.0 mm
05:09 PM 38.9°F3.8°C 19.9°F-6.7°C 46% 5.0 mph NNE8.0 kmh NNE 7.0 mph11.3 kmh 30.54 in1034.2 mb 0.00 in0.0 mm 0.00 in/hr0.0 mm/hr 0.00 in0.0 mm
05:10 PM 38.8°F3.8°C 19.8°F-6.8°C 46% 4.0 mph NE6.4 kmh NE 7.0 mph11.3 kmh 30.53 in1033.9 mb 0.00 in0.0 mm 0.00 in/hr0.0 mm/hr 0.00 in0.0 mm
05:11 PM 38.8°F3.8°C 19.3°F-7.1°C 45% 5.0 mph NE8.0 kmh NE 7.0 mph11.3 kmh 30.53 in1033.9 mb 0.00 in0.0 mm 0.00 in/hr0.0 mm/hr 0.00 in0.0 mm
05:12 PM 38.8°F3.8°C 19.3°F-7.1°C 45% 4.0 mph ENE6.4 kmh ENE 7.0 mph11.3 kmh 30.53 in1033.9 mb 0.00 in0.0 mm 0.00 in/hr0.0 mm/hr 0.00 in0.0 mm
05:13 PM 38.7°F3.7°C 19.2°F-7.1°C 45% 4.0 mph ENE6.4 kmh ENE 7.0 mph11.3 kmh 30.53 in1033.9 mb 0.00 in0.0 mm 0.00 in/hr0.0 mm/hr 0.00 in0.0 mm
05:14 PM 38.7°F3.7°C 19.2°F-7.1°C 45% 4.0 mph ENE6.4 kmh ENE 7.0 mph11.3 kmh 30.53 in1033.9 mb 0.00 in0.0 mm 0.00 in/hr0.0 mm/hr 0.00 in0.0 mm
05:15 PM 38.7°F3.7°C 19.2°F-7.1°C 45% 5.0 mph ENE8.0 kmh ENE 7.0 mph11.3 kmh 30.53 in1033.9 mb 0.00 in0.0 mm 0.00 in/hr0.0 mm/hr 0.00 in0.0 mm
05:16 PM 38.7°F3.7°C 19.2°F-7.1°C 45% 5.0 mph ENE8.0 kmh ENE 7.0 mph11.3 kmh 30.53 in1033.9 mb 0.00 in0.0 mm 0.00 in/hr0.0 mm/hr 0.00 in0.0 mm
05:17 PM 38.7°F3.7°C 19.2°F-7.1°C 45% 5.0 mph NE8.0 kmh NE 7.0 mph11.3 kmh 30.53 in1033.9 mb 0.00 in0.0 mm 0.00 in/hr0.0 mm/hr 0.00 in0.0 mm
05:18 PM 38.6°F3.7°C 19.1°F-7.2°C 45% 8.0 mph NE12.9 kmh NE 8.0 mph12.9 kmh 30.53 in1033.9 mb 0.00 in0.0 mm 0.00 in/hr0.0 mm/hr 0.00 in0.0 mm
05:19 PM 38.6°F3.7°C 19.1°F-7.2°C 45% 7.0 mph NE11.3 kmh NE 9.0 mph14.5 kmh 30.53 in1033.9 mb 0.00 in0.0 mm 0.00 in/hr0.0 mm/hr 0.00 in0.0 mm
05:20 PM 38.6°F3.7°C 19.1°F-7.2°C 45% 7.0 mph NE11.3 kmh NE 9.0 mph14.5 kmh 30.53 in1033.9 mb 0.00 in0.0 mm 0.00 in/hr0.0 mm/hr 0.00 in0.0 mm
05:21 PM 38.5°F3.6°C 19.0°F-7.2°C 45% 7.0 mph NE11.3 kmh NE 9.0 mph14.5 kmh 30.53 in1033.9 mb 0.00 in0.0 mm 0.00 in/hr0.0 mm/hr 0.00 in0.0 mm
05:22 PM 38.5°F3.6°C 19.0°F-7.2°C 45% 6.0 mph NE9.7 kmh NE 9.0 mph14.5 kmh 30.53 in1033.9 mb 0.00 in0.0 mm 0.00 in/hr0.0 mm/hr 0.00 in0.0 mm
05:23 PM 38.5°F3.6°C 19.0°F-7.2°C 45% 7.0 mph NE11.3 kmh NE 9.0 mph14.5 kmh 30.53 in1033.9 mb 0.00 in0.0 mm 0.00 in/hr0.0 mm/hr 0.00 in0.0 mm
05:24 PM 38.4°F3.6°C 18.9°F-7.3°C 45% 6.0 mph NNE9.7 kmh NNE 9.0 mph14.5 kmh 30.53 in1033.9 mb 0.00 in0.0 mm 0.00 in/hr0.0 mm/hr 0.00 in0.0 mm
05:25 PM 38.4°F3.6°C 18.4°F-7.6°C 44% 6.0 mph NE9.7 kmh NE 9.0 mph14.5 kmh 30.53 in1033.9 mb 0.00 in0.0 mm 0.00 in/hr0.0 mm/hr 0.00 in0.0 mm
05:26 PM 38.4°F3.6°C 18.9°F-7.3°C 45% 5.0 mph NNE8.0 kmh NNE 9.0 mph14.5 kmh 30.53 in1033.9 mb 0.00 in0.0 mm 0.00 in/hr0.0 mm/hr 0.00 in0.0 mm
05:27 PM 38.4°F3.6°C 18.9°F-7.3°C 45% 3.0 mph NE4.8 kmh NE 9.0 mph14.5 kmh 30.53 in1033.9 mb 0.00 in0.0 mm 0.00 in/hr0.0 mm/hr 0.00 in0.0 mm
05:28 PM 38.4°F3.6°C 18.9°F-7.3°C 45% 5.0 mph NE8.0 kmh NE 9.0 mph14.5 kmh 30.53 in1033.9 mb 0.00 in0.0 mm 0.00 in/hr0.0 mm/hr 0.00 in0.0 mm
05:29 PM 38.3°F3.5°C 18.8°F-7.3°C 45% 4.0 mph NE6.4 kmh NE 9.0 mph14.5 kmh 30.53 in1033.9 mb 0.00 in0.0 mm 0.00 in/hr0.0 mm/hr 0.00 in0.0 mm
05:30 PM 38.3°F3.5°C 19.4°F-7.0°C 46% 4.0 mph NE6.4 kmh NE 9.0 mph14.5 kmh 30.53 in1033.9 mb 0.00 in0.0 mm 0.00 in/hr0.0 mm/hr 0.00 in0.0 mm
05:31 PM 38.3°F3.5°C 19.4°F-7.0°C 46% 5.0 mph NE8.0 kmh NE 9.0 mph14.5 kmh 30.53 in1033.9 mb 0.00 in0.0 mm 0.00 in/hr0.0 mm/hr 0.00 in0.0 mm
05:32 PM 38.2°F3.4°C 19.3°F-7.1°C 46% 5.0 mph NE8.0 kmh NE 5.0 mph8.0 kmh 30.53 in1033.9 mb 0.00 in0.0 mm 0.00 in/hr0.0 mm/hr 0.00 in0.0 mm
05:33 PM 38.2°F3.4°C 19.3°F-7.1°C 46% 6.0 mph NE9.7 kmh NE 7.0 mph11.3 kmh 30.53 in1033.9 mb 0.00 in0.0 mm 0.00 in/hr0.0 mm/hr 0.00 in0.0 mm
05:34 PM 38.2°F3.4°C 18.8°F-7.3°C 45% 5.0 mph NE8.0 kmh NE 7.0 mph11.3 kmh 30.53 in1033.9 mb 0.00 in0.0 mm 0.00 in/hr0.0 mm/hr 0.00 in0.0 mm
05:35 PM 38.1°F3.4°C 18.7°F-7.4°C 45% 4.0 mph NNE6.4 kmh NNE 7.0 mph11.3 kmh 30.53 in1033.9 mb 0.00 in0.0 mm 0.00 in/hr0.0 mm/hr 0.00 in0.0 mm
05:36 PM 38.1°F3.4°C 19.7°F-6.8°C 47% 4.0 mph N6.4 kmh N 7.0 mph11.3 kmh 30.53 in1033.9 mb 0.00 in0.0 mm 0.00 in/hr0.0 mm/hr 0.00 in0.0 mm
05:37 PM 38.0°F3.3°C 20.1°F-6.6°C 48% 6.0 mph N9.7 kmh N 7.0 mph11.3 kmh 30.53 in1033.9 mb 0.00 in0.0 mm 0.00 in/hr0.0 mm/hr 0.00 in0.0 mm
05:38 PM 38.0°F3.3°C 20.1°F-6.6°C 48% 4.0 mph NE6.4 kmh NE 7.0 mph11.3 kmh 30.53 in1033.9 mb 0.00 in0.0 mm 0.00 in/hr0.0 mm/hr 0.00 in0.0 mm
05:39 PM 38.0°F3.3°C 19.6°F-6.9°C 47% 5.0 mph NNE8.0 kmh NNE 7.0 mph11.3 kmh 30.53 in1033.9 mb 0.00 in0.0 mm 0.00 in/hr0.0 mm/hr 0.00 in0.0 mm
05:40 PM 37.9°F3.3°C 19.5°F-6.9°C 47% 4.0 mph NNE6.4 kmh NNE 7.0 mph11.3 kmh 30.53 in1033.9 mb 0.00 in0.0 mm 0.00 in/hr0.0 mm/hr 0.00 in0.0 mm
05:41 PM 37.8°F3.2°C 19.4°F-7.0°C 47% 5.0 mph NNE8.0 kmh NNE 7.0 mph11.3 kmh 30.53 in1033.9 mb 0.00 in0.0 mm 0.00 in/hr0.0 mm/hr 0.00 in0.0 mm
05:42 PM 37.8°F3.2°C 19.4°F-7.0°C 47% 5.0 mph NNE8.0 kmh NNE 7.0 mph11.3 kmh 30.53 in1033.9 mb 0.00 in0.0 mm 0.00 in/hr0.0 mm/hr 0.00 in0.0 mm
05:43 PM 37.7°F3.2°C 19.3°F-7.1°C 47% 5.0 mph NNE8.0 kmh NNE 7.0 mph11.3 kmh 30.53 in1033.9 mb 0.00 in0.0 mm 0.00 in/hr0.0 mm/hr 0.00 in0.0 mm
05:44 PM 37.6°F3.1°C 19.7°F-6.8°C 48% 3.0 mph NNE4.8 kmh NNE 7.0 mph11.3 kmh 30.53 in1033.9 mb 0.00 in0.0 mm 0.00 in/hr0.0 mm/hr 0.00 in0.0 mm
05:45 PM 37.6°F3.1°C 19.2°F-7.1°C 47% 4.0 mph NNE6.4 kmh NNE 7.0 mph11.3 kmh 30.53 in1033.9 mb 0.00 in0.0 mm 0.00 in/hr0.0 mm/hr 0.00 in0.0 mm
05:46 PM 37.5°F3.1°C 19.1°F-7.2°C 47% 4.0 mph NNE6.4 kmh NNE 7.0 mph11.3 kmh 30.53 in1033.9 mb 0.00 in0.0 mm 0.00 in/hr0.0 mm/hr 0.00 in0.0 mm
05:47 PM 37.4°F3.0°C 19.0°F-7.2°C 47% 4.0 mph NNE6.4 kmh NNE 7.0 mph11.3 kmh 30.53 in1033.9 mb 0.00 in0.0 mm 0.00 in/hr0.0 mm/hr 0.00 in0.0 mm
05:48 PM 37.4°F3.0°C 19.0°F-7.2°C 47% 4.0 mph NNE6.4 kmh NNE 7.0 mph11.3 kmh 30.53 in1033.9 mb 0.00 in0.0 mm 0.00 in/hr0.0 mm/hr 0.00 in0.0 mm
05:49 PM 37.3°F2.9°C 18.9°F-7.3°C 47% 4.0 mph NNE6.4 kmh NNE 7.0 mph11.3 kmh 30.53 in1033.9 mb 0.00 in0.0 mm 0.00 in/hr0.0 mm/hr 0.00 in0.0 mm
05:50 PM 37.2°F2.9°C 19.3°F-7.1°C 48% 3.0 mph NNE4.8 kmh NNE 7.0 mph11.3 kmh 30.53 in1033.9 mb 0.00 in0.0 mm 0.00 in/hr0.0 mm/hr 0.00 in0.0 mm
05:51 PM 37.1°F2.8°C 19.2°F-7.1°C 48% 4.0 mph NNE6.4 kmh NNE 7.0 mph11.3 kmh 30.53 in1033.9 mb 0.00 in0.0 mm 0.00 in/hr0.0 mm/hr 0.00 in0.0 mm
05:52 PM 37.1°F2.8°C 19.2°F-7.1°C 48% 4.0 mph NNE6.4 kmh NNE 7.0 mph11.3 kmh 30.53 in1033.9 mb 0.00 in0.0 mm 0.00 in/hr0.0 mm/hr 0.00 in0.0 mm
05:53 PM 37.0°F2.8°C 19.2°F-7.1°C 48% 3.0 mph NNE4.8 kmh NNE 7.0 mph11.3 kmh 30.53 in1033.9 mb 0.00 in0.0 mm 0.00 in/hr0.0 mm/hr 0.00 in0.0 mm
05:54 PM 36.9°F2.7°C 19.5°F-6.9°C 49% 4.0 mph NNE6.4 kmh NNE 7.0 mph11.3 kmh 30.53 in1033.9 mb 0.00 in0.0 mm 0.00 in/hr0.0 mm/hr 0.00 in0.0 mm
05:55 PM 36.9°F2.7°C 19.5°F-6.9°C 49% 3.0 mph N4.8 kmh N 7.0 mph11.3 kmh 30.53 in1033.9 mb 0.00 in0.0 mm 0.00 in/hr0.0 mm/hr 0.00 in0.0 mm
05:56 PM 36.8°F2.7°C 19.5°F-6.9°C 49% 3.0 mph N4.8 kmh N 7.0 mph11.3 kmh 30.53 in1033.9 mb 0.00 in0.0 mm 0.00 in/hr0.0 mm/hr 0.00 in0.0 mm
05:57 PM 36.7°F2.6°C 19.8°F-6.8°C 50% 4.0 mph N6.4 kmh N 7.0 mph11.3 kmh 30.53 in1033.9 mb 0.00 in0.0 mm 0.00 in/hr0.0 mm/hr 0.00 in0.0 mm
05:58 PM 36.6°F2.6°C 20.2°F-6.6°C 51% 3.0 mph N4.8 kmh N 7.0 mph11.3 kmh 30.53 in1033.9 mb 0.00 in0.0 mm 0.00 in/hr0.0 mm/hr 0.00 in0.0 mm
05:59 PM 36.6°F2.6°C 20.7°F-6.3°C 52% 3.0 mph N4.8 kmh N 7.0 mph11.3 kmh 30.53 in1033.9 mb 0.00 in0.0 mm 0.00 in/hr0.0 mm/hr 0.00 in0.0 mm
06:00 PM 36.5°F2.5°C 20.6°F-6.3°C 52% 3.0 mph N4.8 kmh N 7.0 mph11.3 kmh 30.53 in1033.9 mb 0.00 in0.0 mm 0.00 in/hr0.0 mm/hr 0.00 in0.0 mm
06:01 PM 36.4°F2.4°C 20.9°F-6.2°C 53% 4.0 mph N6.4 kmh N 7.0 mph11.3 kmh 30.53 in1033.9 mb 0.00 in0.0 mm 0.00 in/hr0.0 mm/hr 0.00 in0.0 mm
06:02 PM 36.4°F2.4°C 20.9°F-6.2°C 53% 3.0 mph N4.8 kmh N 4.0 mph6.4 kmh 30.53 in1033.9 mb 0.00 in0.0 mm 0.00 in/hr0.0 mm/hr 0.00 in0.0 mm
06:03 PM 36.4°F2.4°C 20.9°F-6.2°C 53% 3.0 mph N4.8 kmh N 4.0 mph6.4 kmh 30.53 in1033.9 mb 0.00 in0.0 mm 0.00 in/hr0.0 mm/hr 0.00 in0.0 mm
06:04 PM 36.3°F2.4°C 20.8°F-6.2°C 53% 3.0 mph N4.8 kmh N 4.0 mph6.4 kmh 30.53 in1033.9 mb 0.00 in0.0 mm 0.00 in/hr0.0 mm/hr 0.00 in0.0 mm
06:05 PM 36.2°F2.3°C 20.7°F-6.3°C 53% 3.0 mph N4.8 kmh N 4.0 mph6.4 kmh 30.53 in1033.9 mb 0.00 in0.0 mm 0.00 in/hr0.0 mm/hr 0.00 in0.0 mm
06:06 PM 36.2°F2.3°C 20.3°F-6.5°C 52% 3.0 mph N4.8 kmh N 4.0 mph6.4 kmh 30.53 in1033.9 mb 0.00 in0.0 mm 0.00 in/hr0.0 mm/hr 0.00 in0.0 mm
06:07 PM 36.1°F2.3°C 19.7°F-6.8°C 51% 3.0 mph N4.8 kmh N 4.0 mph6.4 kmh 30.53 in1033.9 mb 0.00 in0.0 mm 0.00 in/hr0.0 mm/hr 0.00 in0.0 mm
06:08 PM 36.1°F2.3°C 19.7°F-6.8°C 51% 3.0 mph N4.8 kmh N 4.0 mph6.4 kmh 30.53 in1033.9 mb 0.00 in0.0 mm 0.00 in/hr0.0 mm/hr 0.00 in0.0 mm
06:09 PM 36.1°F2.3°C 19.7°F-6.8°C 51% 3.0 mph N4.8 kmh N 4.0 mph6.4 kmh 30.53 in1033.9 mb 0.00 in0.0 mm 0.00 in/hr0.0 mm/hr 0.00 in0.0 mm
06:10 PM 36.0°F2.2°C 19.6°F-6.9°C 51% 4.0 mph N6.4 kmh N 4.0 mph6.4 kmh 30.53 in1033.9 mb 0.00 in0.0 mm 0.00 in/hr0.0 mm/hr 0.00 in0.0 mm
06:11 PM 36.0°F2.2°C 19.6°F-6.9°C 51% 4.0 mph N6.4 kmh N 4.0 mph6.4 kmh 30.53 in1033.9 mb 0.00 in0.0 mm 0.00 in/hr0.0 mm/hr 0.00 in0.0 mm
06:12 PM 36.0°F2.2°C 19.6°F-6.9°C 51% 3.0 mph N4.8 kmh N 4.0 mph6.4 kmh 30.53 in1033.9 mb 0.00 in0.0 mm 0.00 in/hr0.0 mm/hr 0.00 in0.0 mm
06:13 PM 35.9°F2.2°C 19.6°F-6.9°C 51% 3.0 mph N4.8 kmh N 4.0 mph6.4 kmh 30.53 in1033.9 mb 0.00 in0.0 mm 0.00 in/hr0.0 mm/hr 0.00 in0.0 mm
06:14 PM 35.9°F2.2°C 19.6°F-6.9°C 51% 3.0 mph N4.8 kmh N 4.0 mph6.4 kmh 30.53 in1033.9 mb 0.00 in0.0 mm 0.00 in/hr0.0 mm/hr 0.00 in0.0 mm
06:15 PM 35.8°F2.1°C 19.5°F-6.9°C 51% 2.0 mph N3.2 kmh N 4.0 mph6.4 kmh 30.53 in1033.9 mb 0.00 in0.0 mm 0.00 in/hr0.0 mm/hr 0.00 in0.0 mm
06:16 PM 35.8°F2.1°C 19.5°F-6.9°C 51% 2.0 mph N3.2 kmh N 4.0 mph6.4 kmh 30.53 in1033.9 mb 0.00 in0.0 mm 0.00 in/hr0.0 mm/hr 0.00 in0.0 mm
06:17 PM 35.8°F2.1°C 19.5°F-6.9°C 51% 3.0 mph N4.8 kmh N 4.0 mph6.4 kmh 30.53 in1033.9 mb 0.00 in0.0 mm 0.00 in/hr0.0 mm/hr 0.00 in0.0 mm
06:18 PM 35.7°F2.1°C 19.4°F-7.0°C 51% 3.0 mph N4.8 kmh N 4.0 mph6.4 kmh 30.53 in1033.9 mb 0.00 in0.0 mm 0.00 in/hr0.0 mm/hr 0.00 in0.0 mm
06:19 PM 35.7°F2.1°C 18.9°F-7.3°C 50% 3.0 mph N4.8 kmh N 4.0 mph6.4 kmh 30.53 in1033.9 mb 0.00 in0.0 mm 0.00 in/hr0.0 mm/hr 0.00 in0.0 mm
06:20 PM 35.7°F2.1°C 19.4°F-7.0°C 51% 2.0 mph N3.2 kmh N 4.0 mph6.4 kmh 30.53 in1033.9 mb 0.00 in0.0 mm 0.00 in/hr0.0 mm/hr 0.00 in0.0 mm
06:21 PM 35.6°F2.0°C 19.3°F-7.1°C 51% 3.0 mph N4.8 kmh N 4.0 mph6.4 kmh 30.53 in1033.9 mb 0.00 in0.0 mm 0.00 in/hr0.0 mm/hr 0.00 in0.0 mm
06:22 PM 35.6°F2.0°C 19.3°F-7.1°C 51% 2.0 mph N3.2 kmh N 4.0 mph6.4 kmh 30.53 in1033.9 mb 0.00 in0.0 mm 0.00 in/hr0.0 mm/hr 0.00 in0.0 mm
06:23 PM 35.6°F2.0°C 19.3°F-7.1°C 51% 3.0 mph N4.8 kmh N 4.0 mph6.4 kmh 30.53 in1033.9 mb 0.00 in0.0 mm 0.00 in/hr0.0 mm/hr 0.00 in0.0 mm
06:24 PM 35.6°F2.0°C 19.3°F-7.1°C 51% 3.0 mph N4.8 kmh N 4.0 mph6.4 kmh 30.53 in1033.9 mb 0.00 in0.0 mm 0.00 in/hr0.0 mm/hr 0.00 in0.0 mm
06:25 PM 35.6°F2.0°C 19.3°F-7.1°C 51% 3.0 mph N4.8 kmh N 4.0 mph6.4 kmh 30.53 in1033.9 mb 0.00 in0.0 mm 0.00 in/hr0.0 mm/hr 0.00 in0.0 mm
06:26 PM 35.5°F1.9°C 19.2°F-7.1°C 51% 3.0 mph N4.8 kmh N 4.0 mph6.4 kmh 30.53 in1033.9 mb 0.00 in0.0 mm 0.00 in/hr0.0 mm/hr 0.00 in0.0 mm
06:27 PM 35.5°F1.9°C 19.2°F-7.1°C 51% 3.0 mph N4.8 kmh N 4.0 mph6.4 kmh 30.53 in1033.9 mb 0.00 in0.0 mm 0.00 in/hr0.0 mm/hr 0.00 in0.0 mm
06:28 PM 35.5°F1.9°C 19.6°F-6.9°C 52% 1.0 mph N1.6 kmh N 4.0 mph6.4 kmh 30.53 in1033.9 mb 0.00 in0.0 mm 0.00 in/hr0.0 mm/hr 0.00 in0.0 mm
06:29 PM 35.5°F1.9°C 19.6°F-6.9°C 52% 1.0 mph N1.6 kmh N 4.0 mph6.4 kmh 30.52 in1033.5 mb 0.00 in0.0 mm 0.00 in/hr0.0 mm/hr 0.00 in0.0 mm
06:30 PM 35.4°F1.9°C 19.5°F-6.9°C 52% 1.0 mph N1.6 kmh N 4.0 mph6.4 kmh 30.53 in1033.9 mb 0.00 in0.0 mm 0.00 in/hr0.0 mm/hr 0.00 in0.0 mm
06:31 PM 35.4°F1.9°C 20.0°F-6.7°C 53% 2.0 mph N3.2 kmh N 4.0 mph6.4 kmh 30.52 in1033.5 mb 0.00 in0.0 mm 0.00 in/hr0.0 mm/hr 0.00 in0.0 mm
06:32 PM 35.3°F1.8°C 19.5°F-6.9°C 52% 2.0 mph N3.2 kmh N 3.0 mph4.8 kmh 30.52 in1033.5 mb 0.00 in0.0 mm 0.00 in/hr0.0 mm/hr 0.00 in0.0 mm
06:33 PM 35.3°F1.8°C 19.5°F-6.9°C 52% 3.0 mph N4.8 kmh N 3.0 mph4.8 kmh 30.53 in1033.9 mb 0.00 in0.0 mm 0.00 in/hr0.0 mm/hr 0.00 in0.0 mm
06:34 PM 35.2°F1.8°C 19.8°F-6.8°C 53% 2.0 mph N3.2 kmh N 3.0 mph4.8 kmh 30.53 in1033.9 mb 0.00 in0.0 mm 0.00 in/hr0.0 mm/hr 0.00 in0.0 mm
06:35 PM 35.1°F1.7°C 19.7°F-6.8°C 53% 3.0 mph N4.8 kmh N 3.0 mph4.8 kmh 30.52 in1033.5 mb 0.00 in0.0 mm 0.00 in/hr0.0 mm/hr 0.00 in0.0 mm
06:36 PM 35.0°F1.7°C 19.6°F-6.9°C 53% 3.0 mph N4.8 kmh N 3.0 mph4.8 kmh 30.52 in1033.5 mb 0.00 in0.0 mm 0.00 in/hr0.0 mm/hr 0.00 in0.0 mm
06:37 PM 34.9°F1.6°C 19.5°F-6.9°C 53% 3.0 mph N4.8 kmh N 3.0 mph4.8 kmh 30.52 in1033.5 mb 0.00 in0.0 mm 0.00 in/hr0.0 mm/hr 0.00 in0.0 mm
06:38 PM 34.8°F1.6°C 19.0°F-7.2°C 52% 3.0 mph N4.8 kmh N 3.0 mph4.8 kmh 30.52 in1033.5 mb 0.00 in0.0 mm 0.00 in/hr0.0 mm/hr 0.00 in0.0 mm
06:39 PM 34.7°F1.5°C 18.9°F-7.3°C 52% 3.0 mph N4.8 kmh N 3.0 mph4.8 kmh 30.52 in1033.5 mb 0.00 in0.0 mm 0.00 in/hr0.0 mm/hr 0.00 in0.0 mm
06:40 PM 34.7°F1.5°C 18.9°F-7.3°C 52% 2.0 mph N3.2 kmh N 3.0 mph4.8 kmh 30.52 in1033.5 mb 0.00 in0.0 mm 0.00 in/hr0.0 mm/hr 0.00 in0.0 mm
06:41 PM 34.6°F1.4°C 18.8°F-7.3°C 52% 2.0 mph N3.2 kmh N 3.0 mph4.8 kmh 30.52 in1033.5 mb 0.00 in0.0 mm 0.00 in/hr0.0 mm/hr 0.00 in0.0 mm
06:42 PM 34.6°F1.4°C 18.8°F-7.3°C 52% 3.0 mph N4.8 kmh N 3.0 mph4.8 kmh 30.52 in1033.5 mb 0.00 in0.0 mm 0.00 in/hr0.0 mm/hr 0.00 in0.0 mm
06:43 PM 34.5°F1.4°C 18.7°F-7.4°C 52% 3.0 mph N4.8 kmh N 3.0 mph4.8 kmh 30.52 in1033.5 mb 0.00 in0.0 mm 0.00 in/hr0.0 mm/hr 0.00 in0.0 mm
06:44 PM 34.5°F1.4°C 19.2°F-7.1°C 53% 2.0 mph N3.2 kmh N 3.0 mph4.8 kmh 30.52 in1033.5 mb 0.00 in0.0 mm 0.00 in/hr0.0 mm/hr 0.00 in0.0 mm
06:45 PM 34.4°F1.3°C 19.1°F-7.2°C 53% 2.0 mph N3.2 kmh N 3.0 mph4.8 kmh 30.52 in1033.5 mb 0.00 in0.0 mm 0.00 in/hr0.0 mm/hr 0.00 in0.0 mm
06:46 PM 34.3°F1.3°C 19.0°F-7.2°C 53% 2.0 mph N3.2 kmh N 3.0 mph4.8 kmh 30.52 in1033.5 mb 0.00 in0.0 mm 0.00 in/hr0.0 mm/hr 0.00 in0.0 mm
06:47 PM 34.3°F1.3°C 19.0°F-7.2°C 53% 2.0 mph N3.2 kmh N 3.0 mph4.8 kmh 30.52 in1033.5 mb 0.00 in0.0 mm 0.00 in/hr0.0 mm/hr 0.00 in0.0 mm
06:48 PM 34.2°F1.2°C 18.9°F-7.3°C 53% 2.0 mph N3.2 kmh N 3.0 mph4.8 kmh 30.52 in1033.5 mb 0.00 in0.0 mm 0.00 in/hr0.0 mm/hr 0.00 in0.0 mm
06:49 PM 34.1°F1.2°C 18.3°F-7.6°C 52% 1.0 mph N1.6 kmh N 3.0 mph4.8 kmh 30.52 in1033.5 mb 0.00 in0.0 mm 0.00 in/hr0.0 mm/hr 0.00 in0.0 mm
06:50 PM 34.1°F1.2°C 18.8°F-7.3°C 53% 1.0 mph N1.6 kmh N 3.0 mph4.8 kmh 30.52 in1033.5 mb 0.00 in0.0 mm 0.00 in/hr0.0 mm/hr 0.00 in0.0 mm
06:51 PM 34.0°F1.1°C 18.7°F-7.4°C 53% 1.0 mph N1.6 kmh N 3.0 mph4.8 kmh 30.52 in1033.5 mb 0.00 in0.0 mm 0.00 in/hr0.0 mm/hr 0.00 in0.0 mm
06:52 PM 33.9°F1.1°C 18.6°F-7.4°C 53% 1.0 mph N1.6 kmh N 3.0 mph4.8 kmh 30.52 in1033.5 mb 0.00 in0.0 mm 0.00 in/hr0.0 mm/hr 0.00 in0.0 mm
06:53 PM 33.9°F1.1°C 18.6°F-7.4°C 53% 1.0 mph N1.6 kmh N 3.0 mph4.8 kmh 30.52 in1033.5 mb 0.00 in0.0 mm 0.00 in/hr0.0 mm/hr 0.00 in0.0 mm
06:54 PM 33.8°F1.0°C 18.5°F-7.5°C 53% 1.0 mph N1.6 kmh N 3.0 mph4.8 kmh 30.52 in1033.5 mb 0.00 in0.0 mm 0.00 in/hr0.0 mm/hr 0.00 in0.0 mm
06:55 PM 33.8°F1.0°C 18.5°F-7.5°C 53% 2.0 mph N3.2 kmh N 3.0 mph4.8 kmh 30.52 in1033.5 mb 0.00 in0.0 mm 0.00 in/hr0.0 mm/hr 0.00 in0.0 mm
06:56 PM 33.7°F0.9°C 18.4°F-7.6°C 53% 1.0 mph N1.6 kmh N 3.0 mph4.8 kmh 30.52 in1033.5 mb 0.00 in0.0 mm 0.00 in/hr0.0 mm/hr 0.00 in0.0 mm
06:57 PM 33.7°F0.9°C 18.4°F-7.6°C 53% Calm Calm 3.0 mph4.8 kmh 30.52 in1033.5 mb 0.00 in0.0 mm 0.00 in/hr0.0 mm/hr 0.00 in0.0 mm
06:58 PM 33.6°F0.9°C 18.7°F-7.4°C 54% 1.0 mph N1.6 kmh N 3.0 mph4.8 kmh 30.52 in1033.5 mb 0.00 in0.0 mm 0.00 in/hr0.0 mm/hr 0.00 in0.0 mm
06:59 PM 33.5°F0.8°C 18.7°F-7.4°C 54% Calm Calm 3.0 mph4.8 kmh 30.52 in1033.5 mb 0.00 in0.0 mm 0.00 in/hr0.0 mm/hr 0.00 in0.0 mm